Darstellungsparameter: Aktuell verwendete Einstellungen:
Skalierung der Graphiken ... ?
xyx+y,   Skalierungsfaktor:      Skalierung: Modus: x, Faktor: 1
Darstellungszeitraum ... ?
Vom - - bis: - -   Zeitraum: 06.07.2010 - 05.08.2010
Min/Max/Avg-Anzeige ... ?
Zeige MMA aktuell
Zeige MMA Monat
Zeige MMA alles
Zeige --A aktuell
Zeige --A Monat
Zeige --A alles
Keine MMA-Anzeige
MMA:
Average (ber die Originaldaten)
MMA-Basis: 06.07.2010 - 05.08.2010
Quicknavigation für Darstellung... ?
Tage:      1T, 2T, 3T, 5T -1T -2T -3T -5T +1T +2T +3T +5T
Wochen: 1W, 2W, 3W -1W -2W -3W +1W +2W +3W
Monate: 1M, 3M, 6M -1M -3M -6M +1M +3M +6M
Jahre:    1J, 3J, 5J, 10J -1J -3J -5J -10J +1J +3J +5J +10J
Nutze für die Darstellung ... ?
Originaldaten oder Mittelwerte auf ...
Stundenbasis Tagesbasis Wochenbasis
Monatsbasis Jahresbasis      Datenbasis: Original-Daten
Darstellen als:
Statistik (Auto) Statistik J:M      Darstellung:
Zur Graphik,    zurück zur Übersicht aller Sensoren.
 
Tabellarische Datenbersicht: ?
 
Sensor: Nr:Datum:Temp:Abs-Feuchte:Windchill:Wind:
Aussen-T/F 1 06-07-2010 00:07:02 17.5 C 12.08 g/m*3 17.5 C 0 km/h
2 06-07-2010 00:19:02 17.2 C 11.86 g/m*3 17.2 C 0 km/h
3 06-07-2010 00:31:02 17.1 C 11.94 g/m*3 17.1 C 0 km/h
4 06-07-2010 00:43:02 17.1 C 11.94 g/m*3 17.1 C 0 km/h
5 06-07-2010 00:55:02 17.3 C 12.08 g/m*3 17.3 C 0 km/h
6 06-07-2010 01:07:02 17.3 C 11.93 g/m*3 17.3 C 0 km/h
7 06-07-2010 01:19:02 17.1 C 11.79 g/m*3 17.1 C 0 km/h
8 06-07-2010 01:31:02 17.2 C 11.86 g/m*3 17.2 C 0 km/h
9 06-07-2010 01:43:02 17.3 C 11.79 g/m*3 17.3 C 0 km/h
10 06-07-2010 01:55:02 17.3 C 11.49 g/m*3 17.3 C 0 km/h
11 06-07-2010 02:07:02 17.1 C 11.21 g/m*3 17.1 C 0 km/h
12 06-07-2010 02:19:02 17.3 C 11.49 g/m*3 17.3 C 0 km/h
13 06-07-2010 02:31:02 16.9 C 11.22 g/m*3 16.9 C 0 km/h
14 06-07-2010 02:43:02 16.6 C 11.16 g/m*3 16.6 C 0 km/h
15 06-07-2010 02:55:02 16.3 C 11.24 g/m*3 16.3 C 0 km/h
16 06-07-2010 03:07:02 16.4 C 11.31 g/m*3 16.4 C 0 km/h
17 06-07-2010 03:19:03 16.4 C 11.17 g/m*3 16.4 C 0 km/h
18 06-07-2010 03:31:03 16.5 C 10.95 g/m*3 16.5 C 0 km/h
19 06-07-2010 03:43:03 16.4 C 10.75 g/m*3 16.4 C 0 km/h
20 06-07-2010 03:55:03 16 C 10.22 g/m*3 16 C 0 km/h
21 06-07-2010 04:07:03 15.7 C 10.3 g/m*3 15.7 C 0 km/h
22 06-07-2010 04:19:03 15.4 C 10.12 g/m*3 15.4 C 0 km/h
23 06-07-2010 04:31:03 15.1 C 10.06 g/m*3 15.1 C 0 km/h
24 06-07-2010 04:43:03 15 C 10 g/m*3 15 C 0 km/h
25 06-07-2010 04:55:03 14.8 C 10.01 g/m*3 14.8 C 0 km/h
Sensor: Nr:Datum:Temp:Abs-Feuchte:Windchill:Wind:
Aussen-T/F 26 06-07-2010 05:07:03 14.8 C 10.13 g/m*3 14.8 C 0 km/h
27 06-07-2010 05:19:03 15 C 10.39 g/m*3 15 C 0 km/h
28 06-07-2010 05:31:03 15 C 10.26 g/m*3 15 C 0 km/h
29 06-07-2010 05:43:03 14.8 C 10.26 g/m*3 14.8 C 0 km/h
30 06-07-2010 05:55:03 14.7 C 10.2 g/m*3 14.7 C 0 km/h
31 06-07-2010 06:07:03 14.7 C 10.2 g/m*3 14.7 C 0 km/h
32 06-07-2010 06:19:03 14.6 C 10.01 g/m*3 14.6 C 0 km/h
33 06-07-2010 06:31:03 14.6 C 10.01 g/m*3 14.6 C 0 km/h
34 06-07-2010 06:43:03 14.7 C 9.69 g/m*3 14.7 C 0 km/h
35 06-07-2010 06:55:03 14.7 C 9.69 g/m*3 14.7 C 0 km/h
36 06-07-2010 07:07:02 14.8 C 9.75 g/m*3 14.8 C 0 km/h
37 06-07-2010 07:19:02 14.9 C 9.81 g/m*3 14.9 C 0 km/h
38 06-07-2010 07:31:02 15.1 C 9.68 g/m*3 15.1 C 0 km/h
39 06-07-2010 07:43:02 15.2 C 9.61 g/m*3 15.2 C 0 km/h
40 06-07-2010 07:55:02 15.4 C 9.72 g/m*3 15.4 C 0 km/h
41 06-07-2010 08:07:02 15.5 C 9.65 g/m*3 15.5 C 0 km/h
42 06-07-2010 08:19:02 15.7 C 9.5 g/m*3 15.7 C 0 km/h
43 06-07-2010 08:31:01 15.8 C 9.29 g/m*3 15.8 C 0 km/h
44 06-07-2010 08:43:01 16.1 C 9.05 g/m*3 16.1 C 0 km/h
45 06-07-2010 08:55:02 16.4 C 8.65 g/m*3 16.4 C 0 km/h
46 06-07-2010 09:07:01 16.8 C 8.72 g/m*3 16.8 C 0 km/h
47 06-07-2010 09:19:01 17.3 C 8.54 g/m*3 17.3 C 0 km/h
48 06-07-2010 09:31:02 17.5 C 8.05 g/m*3 17.5 C 0 km/h
49 06-07-2010 09:43:02 18 C 7.99 g/m*3 18 C 0 km/h
50 06-07-2010 09:55:02 18.1 C 8.03 g/m*3 18.1 C 0 km/h
Sensor: Nr:Datum:Temp:Abs-Feuchte:Windchill:Wind:
Aussen-T/F 51 06-07-2010 10:07:01 19 C 7.66 g/m*3 19 C 0 km/h
52 06-07-2010 10:19:01 19.4 C 7.51 g/m*3 19.4 C 0 km/h
53 06-07-2010 10:31:02 20.2 C 7.34 g/m*3 20.2 C 0 km/h
54 06-07-2010 10:43:02 20.4 C 7.08 g/m*3 20.4 C 0 km/h
55 06-07-2010 10:55:02 21.1 C 6.63 g/m*3 21.1 C 0 km/h
56 06-07-2010 11:07:02 20.9 C 6.92 g/m*3 20.9 C 0 km/h
57 06-07-2010 11:19:02 20.7 C 6.66 g/m*3 20.7 C 0 km/h
58 06-07-2010 11:31:02 22 C 6.79 g/m*3 22 C 0 km/h
59 06-07-2010 11:43:03 21.3 C 6.34 g/m*3 21.3 C 0 km/h
60 06-07-2010 11:55:02 22.5 C 6.19 g/m*3 22.5 C 0 km/h
61 06-07-2010 12:07:02 21.9 C 6.18 g/m*3 21.9 C 0 km/h
62 06-07-2010 12:19:02 22.7 C 5.25 g/m*3 22.7 C 0 km/h
63 06-07-2010 12:31:02 23.3 C 5.23 g/m*3 23.3 C 0 km/h
64 06-07-2010 12:43:02 22.5 C 5.39 g/m*3 22.5 C 0 km/h
65 06-07-2010 12:55:02 24.7 C 5.43 g/m*3 24.7 C 0 km/h
66 06-07-2010 13:07:02 23.6 C 5.32 g/m*3 23.6 C 0 km/h
67 06-07-2010 13:19:02 24.5 C 4.92 g/m*3 24.5 C 0 km/h
68 06-07-2010 13:31:02 27 C 5.15 g/m*3 27 C 0 km/h
69 06-07-2010 13:43:02 23.4 C 4.63 g/m*3 23.4 C 0 km/h
70 06-07-2010 13:55:02 24.5 C 5.15 g/m*3 24.5 C 0 km/h
71 06-07-2010 14:07:02 24.1 C 4.59 g/m*3 24.1 C 0 km/h
72 06-07-2010 14:19:02 23.6 C 4.68 g/m*3 23.6 C 0 km/h
73 06-07-2010 14:31:02 23.8 C 5.16 g/m*3 23.8 C 0 km/h
74 06-07-2010 14:43:02 25.3 C 4.68 g/m*3 25.3 C 0 km/h
75 06-07-2010 14:55:02 24.6 C 4.5 g/m*3 24.6 C 0 km/h
Sensor: Nr:Datum:Temp:Abs-Feuchte:Windchill:Wind:
Aussen-T/F 76 06-07-2010 15:07:02 24.2 C 4.4 g/m*3 24.2 C 0 km/h
77 06-07-2010 15:19:02 24.8 C 4.55 g/m*3 24.8 C 0 km/h
78 06-07-2010 15:31:01 23.7 C 4.28 g/m*3 23.7 C 0 km/h
79 06-07-2010 15:43:01 24.9 C 4.58 g/m*3 24.9 C 0 km/h
80 06-07-2010 15:55:02 25 C 4.6 g/m*3 25 C 0 km/h
81 06-07-2010 16:07:01 25.2 C 4.66 g/m*3 25.2 C 0 km/h
82 06-07-2010 16:19:01 25.4 C 4.71 g/m*3 25.4 C 0 km/h
83 06-07-2010 16:31:02 26.6 C 5.03 g/m*3 26.6 C 0 km/h
84 06-07-2010 16:43:02 25.7 C 4.79 g/m*3 25.7 C 0 km/h
85 06-07-2010 16:55:02 26.3 C 4.95 g/m*3 26.3 C 0 km/h
86 06-07-2010 17:07:01 27.3 C 5.23 g/m*3 27.3 C 0 km/h
87 06-07-2010 17:19:02 26.3 C 4.95 g/m*3 26.3 C 0 km/h
88 06-07-2010 17:31:02 26.7 C 5.06 g/m*3 26.7 C 0 km/h
89 06-07-2010 17:43:02 27.1 C 5.18 g/m*3 27.1 C 0 km/h
90 06-07-2010 17:55:01 27.2 C 5.2 g/m*3 27.2 C 0 km/h
91 06-07-2010 18:07:02 25.1 C 4.63 g/m*3 25.1 C 0 km/h
92 06-07-2010 18:19:01 25.3 C 4.68 g/m*3 25.3 C 0 km/h
93 06-07-2010 18:31:02 25.5 C 4.73 g/m*3 25.5 C 0 km/h
94 06-07-2010 18:43:02 25.3 C 4.68 g/m*3 25.3 C 0 km/h
95 06-07-2010 18:55:02 26.1 C 4.9 g/m*3 26.1 C 0 km/h
96 06-07-2010 19:07:02 26 C 4.87 g/m*3 26 C 0 km/h
97 06-07-2010 19:19:01 25.8 C 5.06 g/m*3 25.8 C 0 km/h
98 06-07-2010 19:31:02 25.1 C 4.63 g/m*3 25.1 C 0 km/h
99 06-07-2010 19:43:03 24.1 C 4.59 g/m*3 24.1 C 0 km/h
100 06-07-2010 19:55:02 24.3 C 4.87 g/m*3 24.3 C 0 km/h
Sensor: Nr:Datum:Temp:Abs-Feuchte:Windchill:Wind:
Aussen-T/F 101 06-07-2010 20:07:02 24.7 C 4.98 g/m*3 24.7 C 0 km/h
102 06-07-2010 20:19:01 25.2 C 4.89 g/m*3 25.2 C 0 km/h
103 06-07-2010 20:31:02 24.3 C 5.09 g/m*3 24.3 C 0 km/h
104 06-07-2010 20:43:02 23.7 C 5.78 g/m*3 23.7 C 0 km/h
105 06-07-2010 20:55:02 23.6 C 5.74 g/m*3 23.6 C 0 km/h
106 06-07-2010 21:07:02 23 C 5.96 g/m*3 23 C 0 km/h
107 06-07-2010 21:19:02 22.3 C 6.32 g/m*3 22.3 C 0 km/h
108 06-07-2010 21:31:02 21.2 C 6.12 g/m*3 21.2 C 0 km/h
109 06-07-2010 21:43:02 20.5 C 6.41 g/m*3 20.5 C 0 km/h
110 06-07-2010 21:55:02 19.8 C 6.32 g/m*3 19.8 C 0 km/h
111 06-07-2010 22:07:02 19.3 C 6.3 g/m*3 19.3 C 0 km/h
112 06-07-2010 22:19:02 19.1 C 6.39 g/m*3 19.1 C 0 km/h
113 06-07-2010 22:31:02 18.9 C 6.48 g/m*3 18.9 C 0 km/h
114 06-07-2010 22:43:02 18.6 C 6.68 g/m*3 18.6 C 0 km/h
115 06-07-2010 22:56:03 18.3 C 6.72 g/m*3 18.3 C 0 km/h
116 06-07-2010 23:08:03 18.1 C 6.95 g/m*3 18.1 C 0 km/h
117 06-07-2010 23:20:03 17.8 C 7.13 g/m*3 17.8 C 0 km/h
118 06-07-2010 23:32:03 17.7 C 6.79 g/m*3 17.7 C 0 km/h
119 06-07-2010 23:44:03 17.5 C 6.56 g/m*3 17.5 C 0 km/h
120 06-07-2010 23:56:03 17.3 C 6.63 g/m*3 17.3 C 0 km/h
121 07-07-2010 00:08:03 16.8 C 6.72 g/m*3 16.8 C 0 km/h
122 07-07-2010 00:20:03 16.7 C 6.82 g/m*3 16.7 C 0 km/h
123 07-07-2010 00:32:03 16.5 C 6.74 g/m*3 16.5 C 0 km/h
124 07-07-2010 00:44:03 16.4 C 6.98 g/m*3 16.4 C 0 km/h
125 07-07-2010 00:56:03 16.1 C 7.13 g/m*3 16.1 C 0 km/h
Sensor: Nr:Datum:Temp:Abs-Feuchte:Windchill:Wind:
Aussen-T/F 126 07-07-2010 01:08:04 15.8 C 7.27 g/m*3 15.8 C 0 km/h
127 07-07-2010 01:20:04 15.7 C 7.36 g/m*3 15.7 C 0 km/h
128 07-07-2010 01:32:04 15.6 C 7.45 g/m*3 15.6 C 0 km/h
129 07-07-2010 01:44:04 15.3 C 7.44 g/m*3 15.3 C 0 km/h
130 07-07-2010 01:56:04 15.2 C 7.53 g/m*3 15.2 C 0 km/h
131 07-07-2010 02:08:04 15.2 C 7.53 g/m*3 15.2 C 0 km/h
132 07-07-2010 02:20:04 15 C 7.69 g/m*3 15 C 0 km/h
133 07-07-2010 02:32:04 14.8 C 7.73 g/m*3 14.8 C 0 km/h
134 07-07-2010 02:44:04 14.6 C 7.63 g/m*3 14.6 C 0 km/h
135 07-07-2010 02:56:04 14.4 C 7.79 g/m*3 14.4 C 0 km/h
136 07-07-2010 03:08:04 14.1 C 7.77 g/m*3 14.1 C 0 km/h
137 07-07-2010 03:20:04 13.9 C 7.79 g/m*3 13.9 C 0 km/h
138 07-07-2010 03:32:04 14 C 7.72 g/m*3 14 C 0 km/h
139 07-07-2010 03:44:04 13.9 C 7.79 g/m*3 13.9 C 0 km/h
140 07-07-2010 03:56:04 13.7 C 7.82 g/m*3 13.7 C 0 km/h
141 07-07-2010 04:08:04 13.5 C 7.72 g/m*3 13.5 C 0 km/h
142 07-07-2010 04:20:04 13.4 C 7.67 g/m*3 13.4 C 0 km/h
143 07-07-2010 04:32:04 13.3 C 7.74 g/m*3 13.3 C 0 km/h
144 07-07-2010 04:44:04 13.2 C 7.81 g/m*3 13.2 C 0 km/h
145 07-07-2010 04:56:04 13.1 C 7.76 g/m*3 13.1 C 0 km/h
146 07-07-2010 05:08:04 13 C 7.83 g/m*3 13 C 0 km/h
147 07-07-2010 05:20:04 12.9 C 8 g/m*3 12.9 C 0 km/h
148 07-07-2010 05:32:05 12.8 C 7.95 g/m*3 12.8 C 0 km/h
149 07-07-2010 05:44:05 12.6 C 8.08 g/m*3 12.6 C 0 km/h
150 07-07-2010 05:56:05 12.5 C 8.14 g/m*3 12.5 C 0 km/h
Sensor: Nr:Datum:Temp:Abs-Feuchte:Windchill:Wind:
Aussen-T/F 151 07-07-2010 06:08:05 12.5 C 8.14 g/m*3 12.5 C 0 km/h
152 07-07-2010 06:20:03 12.6 C 8.19 g/m*3 12.6 C 0 km/h
153 07-07-2010 06:32:03 12.7 C 8.24 g/m*3 12.7 C 0 km/h
154 07-07-2010 06:44:03 12.8 C 8.29 g/m*3 12.8 C 0 km/h
155 07-07-2010 06:56:02 12.9 C 8.34 g/m*3 12.9 C 0 km/h
156 07-07-2010 07:08:02 13 C 8.39 g/m*3 13 C 0 km/h
157 07-07-2010 07:20:03 13.2 C 8.38 g/m*3 13.2 C 0 km/h
158 07-07-2010 07:32:02 13.3 C 8.32 g/m*3 13.3 C 0 km/h
159 07-07-2010 07:44:02 13.4 C 8.37 g/m*3 13.4 C 0 km/h
160 07-07-2010 07:56:03 13.8 C 8.46 g/m*3 13.8 C 0 km/h
161 07-07-2010 08:08:02 14.1 C 8.37 g/m*3 14.1 C 0 km/h
162 07-07-2010 08:20:02 14.3 C 8.23 g/m*3 14.3 C 0 km/h
163 07-07-2010 08:32:02 14.7 C 8.44 g/m*3 14.7 C 0 km/h
164 07-07-2010 08:44:02 15.1 C 8.39 g/m*3 15.1 C 0 km/h
165 07-07-2010 08:56:02 15.6 C 8.11 g/m*3 15.6 C 0 km/h
166 07-07-2010 09:08:02 16.2 C 8.14 g/m*3 16.2 C 0 km/h
167 07-07-2010 09:20:02 16.9 C 8.2 g/m*3 16.9 C 0 km/h
168 07-07-2010 09:32:02 17.7 C 8.15 g/m*3 17.7 C 0 km/h
169 07-07-2010 09:44:02 18.4 C 8.02 g/m*3 18.4 C 0 km/h
170 07-07-2010 09:56:02 19.1 C 8.03 g/m*3 19.1 C 0 km/h
171 07-07-2010 10:08:01 19.8 C 8.03 g/m*3 19.8 C 0 km/h
172 07-07-2010 10:20:01 20.3 C 8.09 g/m*3 20.3 C 0 km/h
173 07-07-2010 10:32:02 21.3 C 8.2 g/m*3 21.3 C 0 km/h
174 07-07-2010 10:44:02 21.7 C 8.01 g/m*3 21.7 C 0 km/h
175 07-07-2010 10:56:02 22.1 C 7.42 g/m*3 22.1 C 0 km/h
Sensor: Nr:Datum:Temp:Abs-Feuchte:Windchill:Wind:
Aussen-T/F 176 07-07-2010 11:08:02 23 C 6.58 g/m*3 23 C 0 km/h
177 07-07-2010 11:20:02 23 C 6.17 g/m*3 23 C 0 km/h
178 07-07-2010 11:32:02 23.5 C 5.92 g/m*3 23.5 C 0 km/h
179 07-07-2010 11:44:02 23.9 C 5.62 g/m*3 23.9 C 0 km/h
180 07-07-2010 11:56:01 24.7 C 5.66 g/m*3 24.7 C 0 km/h
181 07-07-2010 12:08:02 25.4 C 5.41 g/m*3 25.4 C 0 km/h
182 07-07-2010 12:20:01 26.1 C 5.14 g/m*3 26.1 C 0 km/h
183 07-07-2010 12:32:01 26.5 C 5.26 g/m*3 26.5 C 0 km/h
184 07-07-2010 12:44:01 28 C 5.44 g/m*3 28 C 0 km/h
185 07-07-2010 12:56:02 27.9 C 5.41 g/m*3 27.9 C 0 km/h
186 07-07-2010 13:08:02 28.1 C 5.47 g/m*3 28.1 C 0 km/h
187 07-07-2010 13:20:01 28.4 C 5.56 g/m*3 28.4 C 0 km/h
188 07-07-2010 13:32:02 30.1 C 6.1 g/m*3 30.1 C 0 km/h
189 07-07-2010 13:44:02 30.5 C 6.23 g/m*3 30.5 C 0 km/h
190 07-07-2010 13:56:02 29.8 C 6 g/m*3 29.8 C 0 km/h
191 07-07-2010 14:08:02 28.2 C 5.5 g/m*3 28.2 C 0 km/h
192 07-07-2010 14:20:01 27.7 C 5.35 g/m*3 27.7 C 0 km/h
193 07-07-2010 14:32:02 28.1 C 5.47 g/m*3 28.1 C 0 km/h
194 07-07-2010 14:44:02 28.9 C 5.71 g/m*3 28.9 C 0 km/h
195 07-07-2010 14:56:02 28.8 C 5.68 g/m*3 28.8 C 0 km/h
196 07-07-2010 15:08:02 29.3 C 5.84 g/m*3 29.3 C 0 km/h
197 07-07-2010 15:20:02 30.1 C 6.1 g/m*3 30.1 C 0 km/h
198 07-07-2010 15:32:02 30.1 C 6.1 g/m*3 30.1 C 0 km/h
199 07-07-2010 15:44:02 31 C 6.4 g/m*3 31 C 0 km/h
200 07-07-2010 15:56:02 31.5 C 6.57 g/m*3 31.5 C 0 km/h
Sensor: Nr:Datum:Temp:Abs-Feuchte:Windchill:Wind:
Aussen-T/F 201 07-07-2010 16:08:02 31.8 C 6.68 g/m*3 31.8 C 0 km/h
202 07-07-2010 16:20:02 31.9 C 6.72 g/m*3 31.9 C 0 km/h
203 07-07-2010 16:32:02 31.7 C 6.64 g/m*3 31.7 C 0 km/h
204 07-07-2010 16:44:02 32 C 6.75 g/m*3 32 C 0 km/h
205 07-07-2010 16:56:01 32.4 C 6.9 g/m*3 32.4 C 0 km/h
206 07-07-2010 17:08:02 32.5 C 6.93 g/m*3 32.5 C 0 km/h
207 07-07-2010 17:20:02 32.1 C 6.79 g/m*3 32.1 C 0 km/h
208 07-07-2010 17:32:02 32.7 C 7.01 g/m*3 32.7 C 0 km/h
209 07-07-2010 17:44:02 32.6 C 6.97 g/m*3 32.6 C 0 km/h
210 07-07-2010 17:56:02 32.8 C 7.04 g/m*3 32.8 C 0 km/h
211 07-07-2010 18:08:02 33 C 7.12 g/m*3 33 C 0 km/h
212 07-07-2010 18:20:02 33.2 C 7.2 g/m*3 33.2 C 0 km/h
213 07-07-2010 18:32:01 32.8 C 7.04 g/m*3 32.8 C 0 km/h
214 07-07-2010 18:44:01 32.8 C 7.04 g/m*3 32.8 C 0 km/h
215 07-07-2010 18:56:02 32.6 C 6.97 g/m*3 32.6 C 0 km/h
216 07-07-2010 19:08:02 32.5 C 6.93 g/m*3 32.5 C 0 km/h
217 07-07-2010 19:20:02 32.5 C 6.93 g/m*3 32.5 C 0 km/h
218 07-07-2010 19:32:02 32.5 C 6.93 g/m*3 32.5 C 0 km/h
219 07-07-2010 19:44:02 32.4 C 6.9 g/m*3 32.4 C 0 km/h
220 07-07-2010 19:56:02 32.1 C 6.79 g/m*3 32.1 C 0 km/h
221 07-07-2010 20:08:01 32 C 6.75 g/m*3 32 C 0 km/h
222 07-07-2010 20:20:02 31.7 C 6.64 g/m*3 31.7 C 0 km/h
223 07-07-2010 20:32:02 31.3 C 6.5 g/m*3 31.3 C 0 km/h
224 07-07-2010 20:44:02 30.9 C 6.37 g/m*3 30.9 C 0 km/h
225 07-07-2010 20:56:02 30.4 C 6.2 g/m*3 30.4 C 0 km/h
Sensor: Nr:Datum:Temp:Abs-Feuchte:Windchill:Wind:
Aussen-T/F 226 07-07-2010 21:08:02 29.1 C 6.35 g/m*3 29.1 C 0 km/h
227 07-07-2010 21:20:02 27.5 C 6.61 g/m*3 27.5 C 0 km/h
228 07-07-2010 21:32:02 26.5 C 6.76 g/m*3 26.5 C 0 km/h
229 07-07-2010 21:44:03 25.9 C 6.78 g/m*3 25.9 C 0 km/h
230 07-07-2010 21:56:01 25.3 C 6.79 g/m*3 25.3 C 0 km/h
231 07-07-2010 22:08:02 24.9 C 6.87 g/m*3 24.9 C 0 km/h
232 07-07-2010 22:20:01 24.6 C 6.75 g/m*3 24.6 C 0 km/h
233 07-07-2010 22:32:01 24.4 C 6.9 g/m*3 24.4 C 0 km/h
234 07-07-2010 22:44:01 24.1 C 6.78 g/m*3 24.1 C 0 km/h
235 07-07-2010 22:56:01 24 C 6.96 g/m*3 24 C 0 km/h
236 07-07-2010 23:08:01 23.8 C 7.1 g/m*3 23.8 C 0 km/h
237 07-07-2010 23:20:02 23.7 C 6.84 g/m*3 23.7 C 0 km/h
238 07-07-2010 23:32:01 23.7 C 7.06 g/m*3 23.7 C 0 km/h
239 07-07-2010 23:44:01 23.7 C 7.27 g/m*3 23.7 C 0 km/h
240 07-07-2010 23:56:01 23.6 C 7.23 g/m*3 23.6 C 0 km/h
241 08-07-2010 00:08:01 23.3 C 7.32 g/m*3 23.3 C 0 km/h
242 08-07-2010 00:21:04 22.8 C 7.52 g/m*3 22.8 C 0 km/h
243 08-07-2010 00:33:04 22.3 C 7.7 g/m*3 22.3 C 0 km/h
244 08-07-2010 00:45:04 22 C 7.96 g/m*3 22 C 0 km/h
245 08-07-2010 00:57:04 21.5 C 8.11 g/m*3 21.5 C 0 km/h
246 08-07-2010 01:09:04 21.1 C 7.92 g/m*3 21.1 C 0 km/h
247 08-07-2010 01:21:04 20.8 C 7.97 g/m*3 20.8 C 0 km/h
248 08-07-2010 01:33:04 20.4 C 7.96 g/m*3 20.4 C 0 km/h
249 08-07-2010 01:45:04 20.3 C 8.09 g/m*3 20.3 C 0 km/h
250 08-07-2010 01:57:04 20.1 C 8 g/m*3 20.1 C 0 km/h
Sensor: Nr:Datum:Temp:Abs-Feuchte:Windchill:Wind:
Aussen-T/F 251 08-07-2010 02:09:04 20 C 8.3 g/m*3 20 C 0 km/h
252 08-07-2010 02:21:04 19.9 C 8.42 g/m*3 19.9 C 0 km/h
253 08-07-2010 02:33:04 19.8 C 8.2 g/m*3 19.8 C 0 km/h
254 08-07-2010 02:45:04 19.7 C 7.98 g/m*3 19.7 C 0 km/h
255 08-07-2010 02:57:05 19.5 C 8.06 g/m*3 19.5 C 0 km/h
256 08-07-2010 03:09:05 19.4 C 8.01 g/m*3 19.4 C 0 km/h
257 08-07-2010 03:21:05 19.6 C 8.1 g/m*3 19.6 C 0 km/h
258 08-07-2010 03:33:05 19.6 C 8.1 g/m*3 19.6 C 0 km/h
259 08-07-2010 03:45:05 19.3 C 8.29 g/m*3 19.3 C 0 km/h
260 08-07-2010 03:57:05 19.1 C 8.2 g/m*3 19.1 C 0 km/h
261 08-07-2010 04:09:05 18.8 C 8.21 g/m*3 18.8 C 0 km/h
262 08-07-2010 04:21:05 18.7 C 8.33 g/m*3 18.7 C 0 km/h
263 08-07-2010 04:33:05 18.4 C 8.18 g/m*3 18.4 C 0 km/h
264 08-07-2010 04:45:05 18.4 C 8.65 g/m*3 18.4 C 0 km/h
265 08-07-2010 04:57:05 18.3 C 8.76 g/m*3 18.3 C 0 km/h
266 08-07-2010 05:09:05 18.1 C 8.5 g/m*3 18.1 C 0 km/h
267 08-07-2010 05:21:05 17.9 C 8.4 g/m*3 17.9 C 0 km/h
268 08-07-2010 05:33:05 17.8 C 8.5 g/m*3 17.8 C 0 km/h
269 08-07-2010 05:45:05 17.6 C 8.4 g/m*3 17.6 C 0 km/h
270 08-07-2010 05:57:05 17.5 C 8.2 g/m*3 17.5 C 0 km/h
271 08-07-2010 06:09:05 17.4 C 8.15 g/m*3 17.4 C 0 km/h
272 08-07-2010 06:21:03 17.3 C 8.4 g/m*3 17.3 C 0 km/h
273 08-07-2010 06:33:03 17.3 C 8.4 g/m*3 17.3 C 0 km/h
274 08-07-2010 06:45:02 17.4 C 8.74 g/m*3 17.4 C 0 km/h
275 08-07-2010 06:57:02 17.5 C 8.8 g/m*3 17.5 C 0 km/h
Sensor: Nr:Datum:Temp:Abs-Feuchte:Windchill:Wind:
Aussen-T/F 276 08-07-2010 07:09:02 17.7 C 8.9 g/m*3 17.7 C 0 km/h
277 08-07-2010 07:21:02 17.7 C 8.9 g/m*3 17.7 C 0 km/h
278 08-07-2010 07:33:01 17.9 C 9.01 g/m*3 17.9 C 0 km/h
279 08-07-2010 07:45:02 18.1 C 8.96 g/m*3 18.1 C 0 km/h
280 08-07-2010 07:57:02 18.2 C 8.86 g/m*3 18.2 C 0 km/h
281 08-07-2010 08:09:01 18.5 C 9.02 g/m*3 18.5 C 0 km/h
282 08-07-2010 08:21:02 18.7 C 8.81 g/m*3 18.7 C 0 km/h
283 08-07-2010 08:33:01 19.1 C 8.85 g/m*3 19.1 C 0 km/h
284 08-07-2010 08:45:02 19.4 C 8.84 g/m*3 19.4 C 0 km/h
285 08-07-2010 08:57:02 19.9 C 8.93 g/m*3 19.9 C 0 km/h
286 08-07-2010 09:09:02 20.6 C 9.13 g/m*3 20.6 C 0 km/h
287 08-07-2010 09:21:02 21.3 C 9.32 g/m*3 21.3 C 0 km/h
288 08-07-2010 09:33:02 22.3 C 9.08 g/m*3 22.3 C 0 km/h
289 08-07-2010 09:45:02 23.1 C 9.1 g/m*3 23.1 C 0 km/h
290 08-07-2010 09:57:03 23.9 C 9.09 g/m*3 23.9 C 0 km/h
291 08-07-2010 10:09:01 24.6 C 9.23 g/m*3 24.6 C 0 km/h
292 08-07-2010 10:21:01 25.3 C 8.66 g/m*3 25.3 C 0 km/h
293 08-07-2010 10:33:02 26 C 9.01 g/m*3 26 C 0 km/h
294 08-07-2010 10:45:02 26.5 C 9.01 g/m*3 26.5 C 0 km/h
295 08-07-2010 10:57:02 27.4 C 8.68 g/m*3 27.4 C 0 km/h
296 08-07-2010 11:09:02 27.8 C 6.99 g/m*3 27.8 C 0 km/h
297 08-07-2010 11:21:01 28.6 C 7.03 g/m*3 28.6 C 0 km/h
298 08-07-2010 11:33:02 29.3 C 7.01 g/m*3 29.3 C 0 km/h
299 08-07-2010 11:45:02 29.9 C 7.54 g/m*3 29.9 C 0 km/h
300 08-07-2010 11:57:02 30.3 C 6.78 g/m*3 30.3 C 0 km/h
Sensor: Nr:Datum:Temp:Abs-Feuchte:Windchill:Wind:
Aussen-T/F 301 08-07-2010 12:09:02 30.8 C 6.33 g/m*3 30.8 C 0 km/h
302 08-07-2010 12:21:01 31.4 C 6.54 g/m*3 31.4 C 0 km/h
303 08-07-2010 12:33:02 31.8 C 6.68 g/m*3 31.8 C 0 km/h
304 08-07-2010 12:45:02 31.9 C 6.72 g/m*3 31.9 C 0 km/h
305 08-07-2010 12:57:02 31.6 C 6.61 g/m*3 31.6 C 0 km/h
306 08-07-2010 13:09:02 32.1 C 6.79 g/m*3 32.1 C 0 km/h
307 08-07-2010 13:21:01 32.8 C 7.04 g/m*3 32.8 C 0 km/h
308 08-07-2010 13:33:02 33 C 7.12 g/m*3 33 C 0 km/h
309 08-07-2010 13:45:01 33.3 C 7.23 g/m*3 33.3 C 0 km/h
310 08-07-2010 13:57:01 33.2 C 7.2 g/m*3 33.2 C 0 km/h
311 08-07-2010 14:09:02 32.5 C 6.93 g/m*3 32.5 C 0 km/h
312 08-07-2010 14:21:01 32.3 C 6.86 g/m*3 32.3 C 0 km/h
313 08-07-2010 14:33:02 32.3 C 6.86 g/m*3 32.3 C 0 km/h
314 08-07-2010 14:45:01 32.3 C 6.86 g/m*3 32.3 C 0 km/h
315 08-07-2010 14:57:01 32.4 C 6.9 g/m*3 32.4 C 0 km/h
316 08-07-2010 15:09:02 32.7 C 7.01 g/m*3 32.7 C 0 km/h
317 08-07-2010 15:21:01 32.9 C 7.08 g/m*3 32.9 C 0 km/h
318 08-07-2010 15:33:01 33.3 C 7.23 g/m*3 33.3 C 0 km/h
319 08-07-2010 15:45:01 33.7 C 7.39 g/m*3 33.7 C 0 km/h
320 08-07-2010 15:57:01 33.7 C 7.39 g/m*3 33.7 C 0 km/h
321 08-07-2010 16:09:02 33.8 C 7.43 g/m*3 33.8 C 0 km/h
322 08-07-2010 16:21:02 33.8 C 7.43 g/m*3 33.8 C 0 km/h
323 08-07-2010 16:33:01 33.9 C 7.46 g/m*3 33.9 C 0 km/h
324 08-07-2010 16:45:01 33.3 C 7.23 g/m*3 33.3 C 0 km/h
325 08-07-2010 16:57:01 33.3 C 7.23 g/m*3 33.3 C 0 km/h
Sensor: Nr:Datum:Temp:Abs-Feuchte:Windchill:Wind:
Aussen-T/F 326 08-07-2010 17:09:01 33.3 C 7.23 g/m*3 33.3 C 0 km/h
327 08-07-2010 17:21:02 33.5 C 7.31 g/m*3 33.5 C 0 km/h
328 08-07-2010 17:33:01 34.2 C 7.58 g/m*3 34.2 C 0 km/h
329 08-07-2010 17:45:03 34.6 C 7.74 g/m*3 34.6 C 0 km/h
330 08-07-2010 17:57:03 34.2 C 7.58 g/m*3 34.2 C 0 km/h
331 08-07-2010 18:09:02 34.7 C 7.78 g/m*3 34.7 C 0 km/h
332 08-07-2010 18:21:02 34 C 7.5 g/m*3 34 C 0 km/h
333 08-07-2010 18:33:02 34.2 C 7.58 g/m*3 34.2 C 0 km/h
334 08-07-2010 18:45:02 34.4 C 7.66 g/m*3 34.4 C 0 km/h
335 08-07-2010 18:57:02 34.6 C 7.74 g/m*3 34.6 C 0 km/h
336 08-07-2010 19:09:02 34.5 C 7.7 g/m*3 34.5 C 0 km/h
337 08-07-2010 19:21:02 34.4 C 7.66 g/m*3 34.4 C 0 km/h
338 08-07-2010 19:33:02 34.1 C 7.54 g/m*3 34.1 C 0 km/h
339 08-07-2010 19:45:02 33.9 C 7.46 g/m*3 33.9 C 0 km/h
340 08-07-2010 19:57:03 33.8 C 7.43 g/m*3 33.8 C 0 km/h
341 08-07-2010 20:09:01 33.7 C 7.39 g/m*3 33.7 C 0 km/h
342 08-07-2010 20:21:01 33.3 C 7.23 g/m*3 33.3 C 0 km/h
343 08-07-2010 20:33:02 33 C 7.12 g/m*3 33 C 0 km/h
344 08-07-2010 20:45:02 32.7 C 7.01 g/m*3 32.7 C 0 km/h
345 08-07-2010 20:57:02 32.3 C 7.2 g/m*3 32.3 C 0 km/h
346 08-07-2010 21:09:02 31.4 C 7.52 g/m*3 31.4 C 0 km/h
347 08-07-2010 21:21:02 30.4 C 8.37 g/m*3 30.4 C 0 km/h
348 08-07-2010 21:33:02 29.9 C 8.45 g/m*3 29.9 C 0 km/h
349 08-07-2010 21:45:02 29.3 C 8.47 g/m*3 29.3 C 0 km/h
350 08-07-2010 21:57:02 28.9 C 8.57 g/m*3 28.9 C 0 km/h
Sensor: Nr:Datum:Temp:Abs-Feuchte:Windchill:Wind:
Aussen-T/F 351 08-07-2010 22:09:03 28.4 C 8.06 g/m*3 28.4 C 0 km/h
352 08-07-2010 22:21:02 28.3 C 8.29 g/m*3 28.3 C 0 km/h
353 08-07-2010 22:33:02 28 C 8.16 g/m*3 28 C 0 km/h
354 08-07-2010 22:46:02 27.8 C 8.34 g/m*3 27.8 C 0 km/h
355 08-07-2010 22:58:02 27.6 C 8.25 g/m*3 27.6 C 0 km/h
356 08-07-2010 23:10:02 27.5 C 8.2 g/m*3 27.5 C 0 km/h
357 08-07-2010 23:22:02 27.2 C 8.33 g/m*3 27.2 C 0 km/h
358 08-07-2010 23:34:03 27 C 7.98 g/m*3 27 C 0 km/h
359 08-07-2010 23:46:03 27 C 7.98 g/m*3 27 C 0 km/h
360 08-07-2010 23:58:03 26.9 C 7.93 g/m*3 26.9 C 0 km/h
361 09-07-2010 00:10:03 26.8 C 7.89 g/m*3 26.8 C 0 km/h
362 09-07-2010 00:22:03 26.2 C 8.12 g/m*3 26.2 C 0 km/h
363 09-07-2010 00:34:03 25.5 C 8.29 g/m*3 25.5 C 0 km/h
364 09-07-2010 00:46:03 25.3 C 8.66 g/m*3 25.3 C 0 km/h
365 09-07-2010 00:58:03 24.5 C 8.95 g/m*3 24.5 C 0 km/h
366 09-07-2010 01:10:03 24.3 C 8.85 g/m*3 24.3 C 0 km/h
367 09-07-2010 01:22:03 24.1 C 8.75 g/m*3 24.1 C 0 km/h
368 09-07-2010 01:34:03 23.7 C 8.77 g/m*3 23.7 C 0 km/h
369 09-07-2010 01:46:03 23.5 C 8.88 g/m*3 23.5 C 0 km/h
370 09-07-2010 01:58:03 23.3 C 8.78 g/m*3 23.3 C 0 km/h
371 09-07-2010 02:10:03 23 C 8.84 g/m*3 23 C 0 km/h
372 09-07-2010 02:22:03 22.8 C 9.14 g/m*3 22.8 C 0 km/h
373 09-07-2010 02:34:03 22.4 C 9.14 g/m*3 22.4 C 0 km/h
374 09-07-2010 02:46:03 22 C 8.73 g/m*3 22 C 0 km/h
375 09-07-2010 02:58:03 21.8 C 8.83 g/m*3 21.8 C 0 km/h
Sensor: Nr:Datum:Temp:Abs-Feuchte:Windchill:Wind:
Aussen-T/F 376 09-07-2010 03:10:03 21.7 C 8.97 g/m*3 21.7 C 0 km/h
377 09-07-2010 03:22:03 21.4 C 9.37 g/m*3 21.4 C 0 km/h
378 09-07-2010 03:34:03 21.3 C 9.32 g/m*3 21.3 C 0 km/h
379 09-07-2010 03:46:04 21 C 9.16 g/m*3 21 C 0 km/h
380 09-07-2010 03:58:04 20.8 C 9.23 g/m*3 20.8 C 0 km/h
381 09-07-2010 04:10:04 20.5 C 9.43 g/m*3 20.5 C 0 km/h
382 09-07-2010 04:22:04 20.3 C 9.32 g/m*3 20.3 C 0 km/h
383 09-07-2010 04:34:04 20.2 C 9.44 g/m*3 20.2 C 0 km/h
384 09-07-2010 04:46:04 20 C 9.51 g/m*3 20 C 0 km/h
385 09-07-2010 04:58:04 19.8 C 9.57 g/m*3 19.8 C 0 km/h
386 09-07-2010 05:10:04 19.4 C 9.51 g/m*3 19.4 C 0 km/h
387 09-07-2010 05:22:04 19.3 C 9.45 g/m*3 19.3 C 0 km/h
388 09-07-2010 05:34:04 19.2 C 9.4 g/m*3 19.2 C 0 km/h
389 09-07-2010 05:46:04 19.1 C 9.51 g/m*3 19.1 C 0 km/h
390 09-07-2010 05:58:04 19.1 C 9.51 g/m*3 19.1 C 0 km/h
391 09-07-2010 06:10:04 19 C 9.78 g/m*3 19 C 0 km/h
392 09-07-2010 06:22:04 19.1 C 9.84 g/m*3 19.1 C 0 km/h
393 09-07-2010 06:34:04 18.9 C 10.04 g/m*3 18.9 C 0 km/h
394 09-07-2010 06:46:04 19.1 C 10 g/m*3 19.1 C 0 km/h
395 09-07-2010 06:58:04 19.2 C 10.22 g/m*3 19.2 C 0 km/h
396 09-07-2010 07:10:02 19.3 C 10.12 g/m*3 19.3 C 0 km/h
397 09-07-2010 07:22:02 19.4 C 10.18 g/m*3 19.4 C 0 km/h
398 09-07-2010 07:34:02 19.9 C 10.31 g/m*3 19.9 C 0 km/h
399 09-07-2010 07:46:02 20.3 C 9.85 g/m*3 20.3 C 0 km/h
400 09-07-2010 07:58:02 20.6 C 10.02 g/m*3 20.6 C 0 km/h
Sensor: Nr:Datum:Temp:Abs-Feuchte:Windchill:Wind:
Aussen-T/F 401 09-07-2010 08:10:01 20.8 C 9.96 g/m*3 20.8 C 0 km/h
402 09-07-2010 08:22:01 21.3 C 10.07 g/m*3 21.3 C 0 km/h
403 09-07-2010 08:34:02 21.5 C 9.99 g/m*3 21.5 C 0 km/h
404 09-07-2010 08:46:02 21.8 C 9.98 g/m*3 21.8 C 0 km/h
405 09-07-2010 08:58:02 22.1 C 9.76 g/m*3 22.1 C 0 km/h
406 09-07-2010 09:10:02 22.6 C 10.04 g/m*3 22.6 C 0 km/h
407 09-07-2010 09:22:02 23.3 C 10.04 g/m*3 23.3 C 0 km/h
408 09-07-2010 09:34:02 24.1 C 10.06 g/m*3 24.1 C 0 km/h
409 09-07-2010 09:46:02 25 C 10.13 g/m*3 25 C 0 km/h
410 09-07-2010 09:58:02 25.8 C 10.35 g/m*3 25.8 C 0 km/h
411 09-07-2010 10:10:02 26.5 C 10.26 g/m*3 26.5 C 0 km/h
412 09-07-2010 10:22:02 27.3 C 10.2 g/m*3 27.3 C 0 km/h
413 09-07-2010 10:34:02 27.8 C 10.49 g/m*3 27.8 C 0 km/h
414 09-07-2010 10:46:01 28.8 C 10.23 g/m*3 28.8 C 0 km/h
415 09-07-2010 10:58:01 29.3 C 10.22 g/m*3 29.3 C 0 km/h
416 09-07-2010 11:10:02 30 C 10.01 g/m*3 30 C 0 km/h
417 09-07-2010 11:22:01 30.2 C 10.42 g/m*3 30.2 C 0 km/h
418 09-07-2010 11:34:01 30.8 C 9.5 g/m*3 30.8 C 0 km/h
419 09-07-2010 11:46:01 31.3 C 8.46 g/m*3 31.3 C 0 km/h
420 09-07-2010 11:58:01 31.8 C 7.35 g/m*3 31.8 C 0 km/h
421 09-07-2010 12:10:02 32.3 C 6.86 g/m*3 32.3 C 0 km/h
422 09-07-2010 12:22:01 32.7 C 7.01 g/m*3 32.7 C 0 km/h
423 09-07-2010 12:34:01 33.2 C 7.2 g/m*3 33.2 C 0 km/h
424 09-07-2010 12:46:01 33.6 C 7.35 g/m*3 33.6 C 0 km/h
425 09-07-2010 12:58:01 33.9 C 7.46 g/m*3 33.9 C 0 km/h
Sensor: Nr:Datum:Temp:Abs-Feuchte:Windchill:Wind:
Aussen-T/F 426 09-07-2010 13:10:02 34.2 C 7.58 g/m*3 34.2 C 0 km/h
427 09-07-2010 13:22:02 34.2 C 7.58 g/m*3 34.2 C 0 km/h
428 09-07-2010 13:34:01 34.6 C 7.74 g/m*3 34.6 C 0 km/h
429 09-07-2010 13:46:01 35 C 7.91 g/m*3 35 C 0 km/h
430 09-07-2010 13:58:01 34.8 C 7.82 g/m*3 34.8 C 0 km/h
431 09-07-2010 14:10:02 33.9 C 7.46 g/m*3 33.9 C 0 km/h
432 09-07-2010 14:22:02 33.5 C 7.31 g/m*3 33.5 C 0 km/h
433 09-07-2010 14:34:01 33.1 C 7.16 g/m*3 33.1 C 0 km/h
434 09-07-2010 14:46:01 33 C 7.12 g/m*3 33 C 0 km/h
435 09-07-2010 14:58:01 32.8 C 7.04 g/m*3 32.8 C 0 km/h
436 09-07-2010 15:10:02 33.2 C 7.2 g/m*3 33.2 C 0 km/h
437 09-07-2010 15:22:02 33.2 C 7.2 g/m*3 33.2 C 0 km/h
438 09-07-2010 15:34:01 33.8 C 7.43 g/m*3 33.8 C 0 km/h
439 09-07-2010 15:46:02 33.9 C 7.46 g/m*3 33.9 C 0 km/h
440 09-07-2010 15:58:02 33.3 C 7.23 g/m*3 33.3 C 0 km/h
441 09-07-2010 16:10:01 33.2 C 7.2 g/m*3 33.2 C 0 km/h
442 09-07-2010 16:22:02 32.9 C 7.08 g/m*3 32.9 C 0 km/h
443 09-07-2010 16:34:01 32.1 C 7.13 g/m*3 32.1 C 0 km/h
444 09-07-2010 16:46:03 31.8 C 8.35 g/m*3 31.8 C 0 km/h
445 09-07-2010 16:58:03 31.4 C 8.83 g/m*3 31.4 C 0 km/h
446 09-07-2010 17:10:02 31.2 C 8.73 g/m*3 31.2 C 0 km/h
447 09-07-2010 17:22:02 31.8 C 8.35 g/m*3 31.8 C 0 km/h
448 09-07-2010 17:34:02 32.8 C 7.04 g/m*3 32.8 C 0 km/h
449 09-07-2010 17:46:02 32.7 C 7.36 g/m*3 32.7 C 0 km/h
450 09-07-2010 17:58:02 33.1 C 7.16 g/m*3 33.1 C 0 km/h
Sensor: Nr:Datum:Temp:Abs-Feuchte:Windchill:Wind:
Aussen-T/F 451 09-07-2010 18:10:02 33.2 C 7.2 g/m*3 33.2 C 0 km/h
452 09-07-2010 18:22:02 33.4 C 7.27 g/m*3 33.4 C 0 km/h
453 09-07-2010 18:34:02 33.1 C 7.16 g/m*3 33.1 C 0 km/h
454 09-07-2010 18:46:02 33.6 C 7.35 g/m*3 33.6 C 0 km/h
455 09-07-2010 18:58:02 33.8 C 7.43 g/m*3 33.8 C 0 km/h
456 09-07-2010 19:10:03 33.6 C 7.35 g/m*3 33.6 C 0 km/h
457 09-07-2010 19:22:03 33.5 C 7.31 g/m*3 33.5 C 0 km/h
458 09-07-2010 19:34:03 33.5 C 7.31 g/m*3 33.5 C 0 km/h
459 09-07-2010 19:46:01 33.5 C 7.31 g/m*3 33.5 C 0 km/h
460 09-07-2010 19:58:01 33.3 C 7.23 g/m*3 33.3 C 0 km/h
461 09-07-2010 20:10:01 33.1 C 7.16 g/m*3 33.1 C 0 km/h
462 09-07-2010 20:22:00 32.9 C 7.08 g/m*3 32.9 C 0 km/h
463 09-07-2010 20:34:01 32.1 C 7.47 g/m*3 32.1 C 0 km/h
464 09-07-2010 20:46:01 31.3 C 7.81 g/m*3 31.3 C 0 km/h
465 09-07-2010 20:58:01 30.8 C 8.23 g/m*3 30.8 C 0 km/h
466 09-07-2010 21:10:02 30.4 C 8.37 g/m*3 30.4 C 0 km/h
467 09-07-2010 21:22:01 30.2 C 8.58 g/m*3 30.2 C 0 km/h
468 09-07-2010 21:34:01 30 C 8.79 g/m*3 30 C 0 km/h
469 09-07-2010 21:46:02 29.6 C 8.9 g/m*3 29.6 C 0 km/h
470 09-07-2010 21:58:02 29.5 C 8.85 g/m*3 29.5 C 0 km/h
471 09-07-2010 22:10:02 29.2 C 9 g/m*3 29.2 C 0 km/h
472 09-07-2010 22:22:02 28.9 C 9.43 g/m*3 28.9 C 0 km/h
473 09-07-2010 22:34:02 28.9 C 9.71 g/m*3 28.9 C 0 km/h
474 09-07-2010 22:47:03 28.6 C 9.84 g/m*3 28.6 C 0 km/h
475 09-07-2010 22:59:03 28.3 C 9.4 g/m*3 28.3 C 0 km/h
Sensor: Nr:Datum:Temp:Abs-Feuchte:Windchill:Wind:
Aussen-T/F 476 09-07-2010 23:11:03 28 C 9.25 g/m*3 28 C 0 km/h
477 09-07-2010 23:23:04 27.9 C 9.47 g/m*3 27.9 C 0 km/h
478 09-07-2010 23:35:04 27.8 C 9.68 g/m*3 27.8 C 0 km/h
479 09-07-2010 23:47:04 27.6 C 9.84 g/m*3 27.6 C 0 km/h
480 09-07-2010 23:59:04 27.6 C 9.84 g/m*3 27.6 C 0 km/h
481 10-07-2010 00:11:04 27 C 9.78 g/m*3 27 C 0 km/h
482 10-07-2010 00:23:04 26.6 C 10.07 g/m*3 26.6 C 0 km/h
483 10-07-2010 00:35:04 26.3 C 10.15 g/m*3 26.3 C 0 km/h
484 10-07-2010 00:47:04 25.9 C 10.17 g/m*3 25.9 C 0 km/h
485 10-07-2010 00:59:04 25.7 C 10.29 g/m*3 25.7 C 0 km/h
486 10-07-2010 01:11:04 25.3 C 10.3 g/m*3 25.3 C 0 km/h
487 10-07-2010 01:23:04 25.2 C 10.48 g/m*3 25.2 C 0 km/h
488 10-07-2010 01:35:04 24.8 C 10.7 g/m*3 24.8 C 0 km/h
489 10-07-2010 01:47:04 24.8 C 10.7 g/m*3 24.8 C 0 km/h
490 10-07-2010 01:59:04 24.7 C 10.64 g/m*3 24.7 C 0 km/h
491 10-07-2010 02:11:04 24.5 C 10.52 g/m*3 24.5 C 0 km/h
492 10-07-2010 02:23:04 24.5 C 10.74 g/m*3 24.5 C 0 km/h
493 10-07-2010 02:35:04 24.2 C 10.78 g/m*3 24.2 C 0 km/h
494 10-07-2010 02:47:04 24.1 C 10.94 g/m*3 24.1 C 0 km/h
495 10-07-2010 02:59:04 23.7 C 10.91 g/m*3 23.7 C 0 km/h
496 10-07-2010 03:11:04 23.5 C 11.21 g/m*3 23.5 C 0 km/h
497 10-07-2010 03:23:04 23.2 C 11.23 g/m*3 23.2 C 0 km/h
498 10-07-2010 03:35:05 23.1 C 11.58 g/m*3 23.1 C 0 km/h
499 10-07-2010 03:47:05 22.9 C 11.44 g/m*3 22.9 C 0 km/h
500 10-07-2010 03:59:05 22.8 C 11.58 g/m*3 22.8 C 0 km/h
Sensor: Nr:Datum:Temp:Abs-Feuchte:Windchill:Wind:
Aussen-T/F 501 10-07-2010 04:11:05 22.7 C 11.52 g/m*3 22.7 C 0 km/h
502 10-07-2010 04:23:05 22.5 C 11.39 g/m*3 22.5 C 0 km/h
503 10-07-2010 04:35:05 22.3 C 11.45 g/m*3 22.3 C 0 km/h
504 10-07-2010 04:47:05 22.2 C 11.58 g/m*3 22.2 C 0 km/h
505 10-07-2010 04:59:05 22 C 11.45 g/m*3 22 C 0 km/h
506 10-07-2010 05:11:05 21.8 C 11.7 g/m*3 21.8 C 0 km/h
507 10-07-2010 05:23:05 21.8 C 11.7 g/m*3 21.8 C 0 km/h
508 10-07-2010 05:35:05 21.7 C 11.64 g/m*3 21.7 C 0 km/h
509 10-07-2010 05:47:05 21.6 C 11.57 g/m*3 21.6 C 0 km/h
510 10-07-2010 05:59:05 21.3 C 11.74 g/m*3 21.3 C 0 km/h
511 10-07-2010 06:11:05 21.2 C 11.86 g/m*3 21.2 C 0 km/h
512 10-07-2010 06:23:05 21.1 C 11.98 g/m*3 21.1 C 0 km/h
513 10-07-2010 06:35:03 21.3 C 11.93 g/m*3 21.3 C 0 km/h
514 10-07-2010 06:47:02 21.3 C 11.93 g/m*3 21.3 C 0 km/h
515 10-07-2010 06:59:02 21.6 C 12.14 g/m*3 21.6 C 0 km/h
516 10-07-2010 07:11:02 21.6 C 11.95 g/m*3 21.6 C 0 km/h
517 10-07-2010 07:23:01 21.6 C 12.14 g/m*3 21.6 C 0 km/h
518 10-07-2010 07:35:01 21.8 C 12.47 g/m*3 21.8 C 0 km/h
519 10-07-2010 07:47:01 22.1 C 12.3 g/m*3 22.1 C 0 km/h
520 10-07-2010 07:59:01 22.4 C 12.31 g/m*3 22.4 C 0 km/h
521 10-07-2010 08:11:01 22.7 C 12.32 g/m*3 22.7 C 0 km/h
522 10-07-2010 08:23:02 23 C 11.92 g/m*3 23 C 0 km/h
523 10-07-2010 08:35:01 23.3 C 11.92 g/m*3 23.3 C 0 km/h
524 10-07-2010 08:47:02 23.7 C 11.98 g/m*3 23.7 C 0 km/h
525 10-07-2010 08:59:02 24.2 C 11.88 g/m*3 24.2 C 0 km/h
Sensor: Nr:Datum:Temp:Abs-Feuchte:Windchill:Wind:
Aussen-T/F 526 10-07-2010 09:11:02 24.6 C 11.93 g/m*3 24.6 C 0 km/h
527 10-07-2010 09:23:02 25.2 C 11.87 g/m*3 25.2 C 0 km/h
528 10-07-2010 09:35:02 25.9 C 11.62 g/m*3 25.9 C 0 km/h
529 10-07-2010 09:47:02 26.8 C 11.45 g/m*3 26.8 C 0 km/h
530 10-07-2010 09:59:02 27.7 C 11.77 g/m*3 27.7 C 0 km/h
531 10-07-2010 10:11:02 28.1 C 11.48 g/m*3 28.1 C 0 km/h
532 10-07-2010 10:23:02 28.9 C 12 g/m*3 28.9 C 0 km/h
533 10-07-2010 10:35:02 29.8 C 11.7 g/m*3 29.8 C 0 km/h
534 10-07-2010 10:47:02 30 C 11.22 g/m*3 30 C 0 km/h
535 10-07-2010 10:59:02 30.4 C 11.16 g/m*3 30.4 C 0 km/h
536 10-07-2010 11:11:02 30.9 C 10.5 g/m*3 30.9 C 0 km/h
537 10-07-2010 11:23:02 31.2 C 9.7 g/m*3 31.2 C 0 km/h
538 10-07-2010 11:35:02 31.3 C 8.78 g/m*3 31.3 C 0 km/h
539 10-07-2010 11:47:02 31.8 C 8.68 g/m*3 31.8 C 0 km/h
540 10-07-2010 11:59:02 32.1 C 8.48 g/m*3 32.1 C 0 km/h
541 10-07-2010 12:11:02 32.6 C 8.02 g/m*3 32.6 C 0 km/h
542 10-07-2010 12:23:02 32.9 C 7.08 g/m*3 32.9 C 0 km/h
543 10-07-2010 12:35:02 33.5 C 7.31 g/m*3 33.5 C 0 km/h
544 10-07-2010 12:47:02 34 C 7.5 g/m*3 34 C 0 km/h
545 10-07-2010 12:59:02 34.1 C 7.54 g/m*3 34.1 C 0 km/h
546 10-07-2010 13:11:02 34.2 C 7.58 g/m*3 34.2 C 0 km/h
547 10-07-2010 13:23:02 34.8 C 7.82 g/m*3 34.8 C 0 km/h
548 10-07-2010 13:35:02 35.1 C 7.95 g/m*3 35.1 C 0 km/h
549 10-07-2010 13:47:02 35.1 C 7.95 g/m*3 35.1 C 0 km/h
550 10-07-2010 13:59:02 34.8 C 7.82 g/m*3 34.8 C 0 km/h
Sensor: Nr:Datum:Temp:Abs-Feuchte:Windchill:Wind:
Aussen-T/F 551 10-07-2010 14:11:02 34.5 C 7.7 g/m*3 34.5 C 0 km/h
552 10-07-2010 14:23:01 34.6 C 7.74 g/m*3 34.6 C 0 km/h
553 10-07-2010 14:35:02 34.6 C 7.74 g/m*3 34.6 C 0 km/h
554 10-07-2010 14:47:01 34.3 C 7.62 g/m*3 34.3 C 0 km/h
555 10-07-2010 14:59:01 34.2 C 7.58 g/m*3 34.2 C 0 km/h
556 10-07-2010 15:11:02 34.8 C 7.82 g/m*3 34.8 C 0 km/h
557 10-07-2010 15:23:02 35.1 C 7.95 g/m*3 35.1 C 0 km/h
558 10-07-2010 15:35:01 35.2 C 7.99 g/m*3 35.2 C 0 km/h
559 10-07-2010 15:47:02 35.4 C 8.07 g/m*3 35.4 C 0 km/h
560 10-07-2010 15:59:02 35.5 C 8.11 g/m*3 35.5 C 0 km/h
561 10-07-2010 16:11:01 35.4 C 8.07 g/m*3 35.4 C 0 km/h
562 10-07-2010 16:23:02 35.6 C 8.16 g/m*3 35.6 C 0 km/h
563 10-07-2010 16:35:01 35.7 C 8.2 g/m*3 35.7 C 0 km/h
564 10-07-2010 16:47:03 35.7 C 8.2 g/m*3 35.7 C 0 km/h
565 10-07-2010 16:59:03 35.7 C 8.2 g/m*3 35.7 C 0 km/h
566 10-07-2010 17:11:02 35.7 C 8.2 g/m*3 35.7 C 0 km/h
567 10-07-2010 17:23:03 35.9 C 8.28 g/m*3 35.9 C 0 km/h
568 10-07-2010 17:35:02 35.8 C 8.24 g/m*3 35.8 C 0 km/h
569 10-07-2010 17:47:03 36 C 8.33 g/m*3 36 C 0 km/h
570 10-07-2010 17:59:03 35.6 C 8.16 g/m*3 35.6 C 0 km/h
571 10-07-2010 18:11:02 35.8 C 8.24 g/m*3 35.8 C 0 km/h
572 10-07-2010 18:23:02 36 C 8.33 g/m*3 36 C 0 km/h
573 10-07-2010 18:35:02 35.9 C 8.28 g/m*3 35.9 C 0 km/h
574 10-07-2010 18:47:02 36 C 8.33 g/m*3 36 C 0 km/h
575 10-07-2010 18:59:02 35.9 C 8.28 g/m*3 35.9 C 0 km/h
Sensor: Nr:Datum:Temp:Abs-Feuchte:Windchill:Wind:
Aussen-T/F 576 10-07-2010 19:11:01 35.7 C 8.2 g/m*3 35.7 C 0 km/h
577 10-07-2010 19:23:02 35.6 C 8.16 g/m*3 35.6 C 0 km/h
578 10-07-2010 19:35:01 35.4 C 8.07 g/m*3 35.4 C 0 km/h
579 10-07-2010 19:47:02 35.3 C 8.03 g/m*3 35.3 C 0 km/h
580 10-07-2010 19:59:02 34.9 C 7.87 g/m*3 34.9 C 0 km/h
581 10-07-2010 20:11:01 34.5 C 7.7 g/m*3 34.5 C 0 km/h
582 10-07-2010 20:23:01 34 C 7.5 g/m*3 34 C 0 km/h
583 10-07-2010 20:35:02 33.6 C 8.08 g/m*3 33.6 C 0 km/h
584 10-07-2010 20:47:02 33.1 C 8.59 g/m*3 33.1 C 0 km/h
585 10-07-2010 20:59:03 32.7 C 9.11 g/m*3 32.7 C 0 km/h
586 10-07-2010 21:11:01 32.2 C 9.21 g/m*3 32.2 C 0 km/h
587 10-07-2010 21:23:02 31.6 C 9.58 g/m*3 31.6 C 0 km/h
588 10-07-2010 21:35:02 31.2 C 9.38 g/m*3 31.2 C 0 km/h
589 10-07-2010 21:47:01 30.8 C 9.5 g/m*3 30.8 C 0 km/h
590 10-07-2010 21:59:01 30.7 C 9.45 g/m*3 30.7 C 0 km/h
591 10-07-2010 22:11:01 30.5 C 9.97 g/m*3 30.5 C 0 km/h
592 10-07-2010 22:23:01 30.4 C 9.92 g/m*3 30.4 C 0 km/h
593 10-07-2010 22:35:02 30.4 C 9.92 g/m*3 30.4 C 0 km/h
594 10-07-2010 22:47:02 30.5 C 9.97 g/m*3 30.5 C 0 km/h
595 10-07-2010 22:59:02 30.4 C 9.92 g/m*3 30.4 C 0 km/h
596 10-07-2010 23:11:02 30.6 C 9.4 g/m*3 30.6 C 0 km/h
597 10-07-2010 23:23:02 30.2 C 9.81 g/m*3 30.2 C 0 km/h
598 10-07-2010 23:35:02 30.1 C 10.06 g/m*3 30.1 C 0 km/h
599 10-07-2010 23:47:02 30.1 C 9.76 g/m*3 30.1 C 0 km/h
600 10-07-2010 23:59:02 30 C 10.01 g/m*3 30 C 0 km/h
Sensor: Nr:Datum:Temp:Abs-Feuchte:Windchill:Wind:
Aussen-T/F 601 11-07-2010 00:11:03 29.9 C 9.95 g/m*3 29.9 C 0 km/h
602 11-07-2010 00:23:02 30 C 9.7 g/m*3 30 C 0 km/h
603 11-07-2010 00:36:04 29.7 C 9.85 g/m*3 29.7 C 0 km/h
604 11-07-2010 00:48:04 29.8 C 9.9 g/m*3 29.8 C 0 km/h
605 11-07-2010 01:00:04 29.8 C 9.9 g/m*3 29.8 C 0 km/h
606 11-07-2010 01:12:04 29.6 C 9.79 g/m*3 29.6 C 0 km/h
607 11-07-2010 01:24:04 29.5 C 10.03 g/m*3 29.5 C 0 km/h
608 11-07-2010 01:36:04 28.3 C 10.23 g/m*3 28.3 C 0 km/h
609 11-07-2010 01:48:04 25.4 C 14.83 g/m*3 25.4 C 0 km/h
610 11-07-2010 02:00:04 24 C 16.1 g/m*3 24 C 0 km/h
611 11-07-2010 02:12:04 24.5 C 15.44 g/m*3 24.5 C 0 km/h
612 11-07-2010 02:24:04 25 C 14.73 g/m*3 25 C 0 km/h
613 11-07-2010 02:36:04 23.7 C 16.47 g/m*3 23.7 C 0 km/h
614 11-07-2010 02:48:04 22.9 C 16.55 g/m*3 22.9 C 0 km/h
615 11-07-2010 03:00:04 23.2 C 16.42 g/m*3 23.2 C 0 km/h
616 11-07-2010 03:12:04 23.6 C 16.59 g/m*3 23.6 C 0 km/h
617 11-07-2010 03:24:04 23.7 C 16.47 g/m*3 23.7 C 0 km/h
618 11-07-2010 03:36:05 23.3 C 15.89 g/m*3 23.3 C 0 km/h
619 11-07-2010 03:48:05 23.1 C 15.92 g/m*3 23.1 C 0 km/h
620 11-07-2010 04:00:05 22.5 C 16.18 g/m*3 22.5 C 0 km/h
621 11-07-2010 04:12:05 22.1 C 16.4 g/m*3 22.1 C 0 km/h
622 11-07-2010 04:24:05 21.9 C 16.6 g/m*3 21.9 C 0 km/h
623 11-07-2010 04:36:05 21.6 C 16.31 g/m*3 21.6 C 0 km/h
624 11-07-2010 04:48:05 21.8 C 16.69 g/m*3 21.8 C 0 km/h
625 11-07-2010 05:00:05 21.9 C 16.6 g/m*3 21.9 C 0 km/h
Sensor: Nr:Datum:Temp:Abs-Feuchte:Windchill:Wind:
Aussen-T/F 626 11-07-2010 05:12:05 22 C 16.11 g/m*3 22 C 0 km/h
627 11-07-2010 05:24:05 22.2 C 16.3 g/m*3 22.2 C 0 km/h
628 11-07-2010 05:36:05 21.9 C 16.02 g/m*3 21.9 C 0 km/h
629 11-07-2010 05:48:05 22 C 16.11 g/m*3 22 C 0 km/h
630 11-07-2010 06:00:05 21.9 C 16.21 g/m*3 21.9 C 0 km/h
631 11-07-2010 06:12:05 21.8 C 16.12 g/m*3 21.8 C 0 km/h
632 11-07-2010 06:24:05 21.8 C 16.12 g/m*3 21.8 C 0 km/h
633 11-07-2010 06:36:05 21.7 C 16.02 g/m*3 21.7 C 0 km/h
634 11-07-2010 06:48:05 22 C 15.91 g/m*3 22 C 0 km/h
635 11-07-2010 07:00:05 22.5 C 15.98 g/m*3 22.5 C 0 km/h
636 11-07-2010 07:12:05 22.6 C 15.47 g/m*3 22.6 C 0 km/h
637 11-07-2010 07:24:05 22.8 C 15.65 g/m*3 22.8 C 0 km/h
638 11-07-2010 07:36:05 22.8 C 15.65 g/m*3 22.8 C 0 km/h
639 11-07-2010 07:48:06 23.1 C 15.92 g/m*3 23.1 C 0 km/h
640 11-07-2010 08:00:06 23.5 C 15.65 g/m*3 23.5 C 0 km/h
641 11-07-2010 08:12:06 24 C 15.45 g/m*3 24 C 0 km/h
642 11-07-2010 08:24:06 24.5 C 15.44 g/m*3 24.5 C 0 km/h
643 11-07-2010 08:36:06 24.7 C 15.39 g/m*3 24.7 C 0 km/h
644 11-07-2010 08:48:02 24.4 C 15.36 g/m*3 24.4 C 0 km/h
645 11-07-2010 09:00:02 23.8 C 15.06 g/m*3 23.8 C 0 km/h
646 11-07-2010 09:12:02 23.9 C 15.36 g/m*3 23.9 C 0 km/h
647 11-07-2010 09:24:03 24.4 C 14.91 g/m*3 24.4 C 0 km/h
648 11-07-2010 09:36:02 24.7 C 14.49 g/m*3 24.7 C 0 km/h
649 11-07-2010 09:48:03 25.3 C 14.05 g/m*3 25.3 C 0 km/h
650 11-07-2010 10:00:03 25.9 C 13.56 g/m*3 25.9 C 0 km/h
Sensor: Nr:Datum:Temp:Abs-Feuchte:Windchill:Wind:
Aussen-T/F 651 11-07-2010 10:12:02 26.3 C 12.87 g/m*3 26.3 C 0 km/h
652 11-07-2010 10:24:02 26.9 C 13.05 g/m*3 26.9 C 0 km/h
653 11-07-2010 10:36:02 27.1 C 12.42 g/m*3 27.1 C 0 km/h
654 11-07-2010 10:53:34 27.8 C 12.64 g/m*3 27.8 C 0 km/h
655 11-07-2010 11:05:34 27.8 C 12.64 g/m*3 27.8 C 0 km/h
656 11-07-2010 11:17:34 28 C 12.24 g/m*3 28 C 0 km/h
657 11-07-2010 11:29:34 28.4 C 12.51 g/m*3 28.4 C 0 km/h
658 11-07-2010 11:41:34 29.1 C 12.13 g/m*3 29.1 C 0 km/h
659 11-07-2010 11:53:35 29.4 C 11.74 g/m*3 29.4 C 0 km/h
660 11-07-2010 12:05:35 30.3 C 11.4 g/m*3 30.3 C 0 km/h
661 11-07-2010 12:17:35 30.3 C 10.79 g/m*3 30.3 C 0 km/h
662 11-07-2010 12:29:35 30.8 C 10.76 g/m*3 30.8 C 0 km/h
663 11-07-2010 12:41:35 30.7 C 10.39 g/m*3 30.7 C 0 km/h
664 11-07-2010 12:53:35 30.1 C 10.67 g/m*3 30.1 C 0 km/h
665 11-07-2010 13:05:35 31.5 C 9.86 g/m*3 31.5 C 0 km/h
666 11-07-2010 13:17:35 32.1 C 8.82 g/m*3 32.1 C 0 km/h
667 11-07-2010 13:29:35 30.7 C 9.76 g/m*3 30.7 C 0 km/h
668 11-07-2010 13:41:35 31.7 C 8.97 g/m*3 31.7 C 0 km/h
669 11-07-2010 13:53:35 32.3 C 8.23 g/m*3 32.3 C 0 km/h
670 11-07-2010 14:05:35 32.1 C 8.48 g/m*3 32.1 C 0 km/h
671 11-07-2010 14:17:35 32.1 C 8.48 g/m*3 32.1 C 0 km/h
672 11-07-2010 14:29:35 31.8 C 8.35 g/m*3 31.8 C 0 km/h
673 11-07-2010 14:41:35 32 C 8.44 g/m*3 32 C 0 km/h
674 11-07-2010 14:53:35 32.3 C 7.89 g/m*3 32.3 C 0 km/h
675 11-07-2010 15:05:35 32.3 C 7.55 g/m*3 32.3 C 0 km/h
Sensor: Nr:Datum:Temp:Abs-Feuchte:Windchill:Wind:
Aussen-T/F 676 11-07-2010 15:17:35 32.8 C 7.75 g/m*3 32.8 C 0 km/h
677 11-07-2010 15:29:35 33 C 7.48 g/m*3 33 C 0 km/h
678 11-07-2010 15:41:35 33 C 7.48 g/m*3 33 C 0 km/h
679 11-07-2010 15:53:35 33.1 C 7.52 g/m*3 33.1 C 0 km/h
680 11-07-2010 16:05:36 33.7 C 7.39 g/m*3 33.7 C 0 km/h
681 11-07-2010 16:17:36 33.7 C 7.39 g/m*3 33.7 C 0 km/h
682 11-07-2010 16:29:36 33.7 C 7.39 g/m*3 33.7 C 0 km/h
683 11-07-2010 16:41:36 33.8 C 7.43 g/m*3 33.8 C 0 km/h
684 11-07-2010 16:53:36 33.6 C 7.35 g/m*3 33.6 C 0 km/h
685 11-07-2010 17:05:36 34 C 7.5 g/m*3 34 C 0 km/h
686 11-07-2010 17:17:36 34 C 7.5 g/m*3 34 C 0 km/h
687 11-07-2010 17:29:36 34.5 C 7.7 g/m*3 34.5 C 0 km/h
688 11-07-2010 17:41:36 34.6 C 7.74 g/m*3 34.6 C 0 km/h
689 11-07-2010 17:53:36 34.2 C 7.58 g/m*3 34.2 C 0 km/h
690 11-07-2010 18:05:36 34.1 C 7.54 g/m*3 34.1 C 0 km/h
691 11-07-2010 18:17:36 34.1 C 7.54 g/m*3 34.1 C 0 km/h
692 11-07-2010 18:29:36 34 C 7.5 g/m*3 34 C 0 km/h
693 11-07-2010 18:41:36 34.2 C 7.58 g/m*3 34.2 C 0 km/h
694 11-07-2010 18:53:36 34.2 C 7.58 g/m*3 34.2 C 0 km/h
695 11-07-2010 19:05:36 34.3 C 7.62 g/m*3 34.3 C 0 km/h
696 11-07-2010 19:17:36 34.2 C 7.58 g/m*3 34.2 C 0 km/h
697 11-07-2010 19:29:36 33.8 C 7.43 g/m*3 33.8 C 0 km/h
698 11-07-2010 19:41:36 33.8 C 7.43 g/m*3 33.8 C 0 km/h
699 11-07-2010 19:53:36 33.5 C 7.31 g/m*3 33.5 C 0 km/h
700 11-07-2010 20:05:37 33.7 C 7.39 g/m*3 33.7 C 0 km/h
Sensor: Nr:Datum:Temp:Abs-Feuchte:Windchill:Wind:
Aussen-T/F 701 11-07-2010 20:17:37 33.7 C 7.39 g/m*3 33.7 C 0 km/h
702 11-07-2010 20:29:37 33.4 C 7.63 g/m*3 33.4 C 0 km/h
703 11-07-2010 20:41:37 33.1 C 8.23 g/m*3 33.1 C 0 km/h
704 11-07-2010 20:53:37 32.6 C 8.71 g/m*3 32.6 C 0 km/h
705 11-07-2010 21:05:37 31.9 C 9.4 g/m*3 31.9 C 0 km/h
706 11-07-2010 21:17:37 31.2 C 9.7 g/m*3 31.2 C 0 km/h
707 11-07-2010 21:29:37 30.7 C 10.08 g/m*3 30.7 C 0 km/h
708 11-07-2010 21:41:37 30.4 C 10.54 g/m*3 30.4 C 0 km/h
709 11-07-2010 21:53:37 30.2 C 10.73 g/m*3 30.2 C 0 km/h
710 11-07-2010 22:05:37 30.1 C 10.67 g/m*3 30.1 C 0 km/h
711 11-07-2010 22:17:37 30 C 10.92 g/m*3 30 C 0 km/h
712 11-07-2010 22:29:37 29.9 C 10.86 g/m*3 29.9 C 0 km/h
713 11-07-2010 22:41:37 29.7 C 11.04 g/m*3 29.7 C 0 km/h
714 11-07-2010 22:53:37 29.4 C 10.86 g/m*3 29.4 C 0 km/h
715 11-07-2010 23:05:37 29.1 C 10.97 g/m*3 29.1 C 0 km/h
716 11-07-2010 23:17:37 28.6 C 11.24 g/m*3 28.6 C 0 km/h
717 11-07-2010 23:29:37 28.4 C 11.12 g/m*3 28.4 C 0 km/h
718 11-07-2010 23:41:37 28.5 C 11.18 g/m*3 28.5 C 0 km/h
719 11-07-2010 23:53:37 28.1 C 11.21 g/m*3 28.1 C 0 km/h
720 12-07-2010 00:05:37 27.8 C 11.57 g/m*3 27.8 C 0 km/h
721 12-07-2010 00:17:38 27.4 C 11.84 g/m*3 27.4 C 0 km/h
722 12-07-2010 00:29:38 27.2 C 11.71 g/m*3 27.2 C 0 km/h
723 12-07-2010 00:41:38 27 C 11.84 g/m*3 27 C 0 km/h
724 12-07-2010 00:53:38 26.8 C 12.22 g/m*3 26.8 C 0 km/h
725 12-07-2010 01:05:38 26.5 C 12.27 g/m*3 26.5 C 0 km/h
Sensor: Nr:Datum:Temp:Abs-Feuchte:Windchill:Wind:
Aussen-T/F 726 12-07-2010 01:17:38 26.2 C 12.06 g/m*3 26.2 C 0 km/h
727 12-07-2010 01:29:38 26 C 12.17 g/m*3 26 C 0 km/h
728 12-07-2010 01:41:38 25.7 C 12.69 g/m*3 25.7 C 0 km/h
729 12-07-2010 01:53:38 25.7 C 12.45 g/m*3 25.7 C 0 km/h
730 12-07-2010 02:05:38 25.6 C 12.38 g/m*3 25.6 C 0 km/h
731 12-07-2010 02:17:38 25.3 C 12.41 g/m*3 25.3 C 0 km/h
732 12-07-2010 02:29:38 25.2 C 12.57 g/m*3 25.2 C 0 km/h
733 12-07-2010 02:41:38 24.9 C 13.05 g/m*3 24.9 C 0 km/h
734 12-07-2010 02:53:38 24.6 C 13.05 g/m*3 24.6 C 0 km/h
735 12-07-2010 03:05:38 24.6 C 13.05 g/m*3 24.6 C 0 km/h
736 12-07-2010 03:17:38 24.2 C 13.2 g/m*3 24.2 C 0 km/h
737 12-07-2010 03:29:38 24 C 13.05 g/m*3 24 C 0 km/h
738 12-07-2010 03:41:38 24.1 C 13.13 g/m*3 24.1 C 0 km/h
739 12-07-2010 03:53:38 24 C 13.05 g/m*3 24 C 0 km/h
740 12-07-2010 04:05:38 23.7 C 13.05 g/m*3 23.7 C 0 km/h
741 12-07-2010 04:17:39 23.4 C 13.04 g/m*3 23.4 C 0 km/h
742 12-07-2010 04:29:39 23.3 C 13.17 g/m*3 23.3 C 0 km/h
743 12-07-2010 04:41:39 23.2 C 12.89 g/m*3 23.2 C 0 km/h
744 12-07-2010 04:53:39 23 C 13.15 g/m*3 23 C 0 km/h
745 12-07-2010 05:05:39 22.9 C 13.28 g/m*3 22.9 C 0 km/h
746 12-07-2010 05:17:39 22.6 C 13.26 g/m*3 22.6 C 0 km/h
747 12-07-2010 05:29:39 22.7 C 13.13 g/m*3 22.7 C 0 km/h
748 12-07-2010 05:41:39 22.6 C 13.06 g/m*3 22.6 C 0 km/h
749 12-07-2010 05:53:39 22.5 C 13.18 g/m*3 22.5 C 0 km/h
750 12-07-2010 06:05:39 22.4 C 13.11 g/m*3 22.4 C 0 km/h
Sensor: Nr:Datum:Temp:Abs-Feuchte:Windchill:Wind:
Aussen-T/F 751 12-07-2010 06:17:39 22.4 C 13.5 g/m*3 22.4 C 0 km/h
752 12-07-2010 06:29:39 22.4 C 13.31 g/m*3 22.4 C 0 km/h
753 12-07-2010 06:41:39 22.7 C 13.54 g/m*3 22.7 C 0 km/h
754 12-07-2010 06:53:39 22.8 C 13.41 g/m*3 22.8 C 0 km/h
755 12-07-2010 07:05:39 22.8 C 13.61 g/m*3 22.8 C 0 km/h
756 12-07-2010 07:17:39 22.7 C 13.54 g/m*3 22.7 C 0 km/h
757 12-07-2010 07:29:39 22.9 C 13.69 g/m*3 22.9 C 0 km/h
758 12-07-2010 07:41:39 23 C 13.57 g/m*3 23 C 0 km/h
759 12-07-2010 07:53:39 22.9 C 13.69 g/m*3 22.9 C 0 km/h
760 12-07-2010 08:05:39 23.1 C 13.64 g/m*3 23.1 C 0 km/h
761 12-07-2010 08:17:39 23.4 C 13.46 g/m*3 23.4 C 0 km/h
762 12-07-2010 08:29:40 23.7 C 13.48 g/m*3 23.7 C 0 km/h
763 12-07-2010 08:41:40 24.3 C 13.72 g/m*3 24.3 C 0 km/h
764 12-07-2010 08:53:40 24.8 C 13.88 g/m*3 24.8 C 0 km/h
765 12-07-2010 09:05:40 25.4 C 13.65 g/m*3 25.4 C 0 km/h
766 12-07-2010 09:17:40 26.1 C 13.71 g/m*3 26.1 C 0 km/h
767 12-07-2010 09:29:40 26.7 C 13.67 g/m*3 26.7 C 0 km/h
768 12-07-2010 09:41:40 27.3 C 13.34 g/m*3 27.3 C 0 km/h
769 12-07-2010 09:53:40 28.1 C 13.4 g/m*3 28.1 C 0 km/h
770 12-07-2010 10:05:40 28.9 C 13.43 g/m*3 28.9 C 0 km/h
771 12-07-2010 10:17:40 29.7 C 12.83 g/m*3 29.7 C 0 km/h
772 12-07-2010 10:29:40 30 C 12.74 g/m*3 30 C 0 km/h
773 12-07-2010 10:41:40 30.3 C 12.02 g/m*3 30.3 C 0 km/h
774 12-07-2010 10:53:40 30.9 C 11.46 g/m*3 30.9 C 0 km/h
775 12-07-2010 11:05:40 31.4 C 11.12 g/m*3 31.4 C 0 km/h
Sensor: Nr:Datum:Temp:Abs-Feuchte:Windchill:Wind:
Aussen-T/F 776 12-07-2010 11:17:40 31.5 C 10.52 g/m*3 31.5 C 0 km/h
777 12-07-2010 11:29:40 31.9 C 10.41 g/m*3 31.9 C 0 km/h
778 12-07-2010 11:41:40 32 C 8.78 g/m*3 32 C 0 km/h
779 12-07-2010 11:53:40 32.1 C 8.82 g/m*3 32.1 C 0 km/h
780 12-07-2010 12:05:40 32.3 C 8.58 g/m*3 32.3 C 0 km/h
781 12-07-2010 12:17:40 32.4 C 8.62 g/m*3 32.4 C 0 km/h
782 12-07-2010 12:29:41 32.8 C 8.45 g/m*3 32.8 C 0 km/h
783 12-07-2010 12:41:41 31.8 C 7.35 g/m*3 31.8 C 0 km/h
784 12-07-2010 12:53:41 25.9 C 7.51 g/m*3 25.9 C 0 km/h
785 12-07-2010 13:05:41 25.1 C 14.58 g/m*3 25.1 C 0 km/h
786 12-07-2010 13:17:41 27.9 C 11.09 g/m*3 27.9 C 0 km/h
787 12-07-2010 13:29:41 28.3 C 11.06 g/m*3 28.3 C 0 km/h
788 12-07-2010 13:41:41 29.2 C 11.91 g/m*3 29.2 C 0 km/h
789 12-07-2010 13:53:41 30.1 C 9.15 g/m*3 30.1 C 0 km/h
790 12-07-2010 14:05:41 30.3 C 9.55 g/m*3 30.3 C 0 km/h
791 12-07-2010 14:17:41 30.5 C 10.59 g/m*3 30.5 C 0 km/h
792 12-07-2010 14:29:41 30.7 C 10.08 g/m*3 30.7 C 0 km/h
793 12-07-2010 14:41:41 31 C 8.32 g/m*3 31 C 0 km/h
794 12-07-2010 14:53:41 31 C 8.64 g/m*3 31 C 0 km/h
795 12-07-2010 15:05:41 31.1 C 9.65 g/m*3 31.1 C 0 km/h
796 12-07-2010 15:17:41 31.5 C 8.55 g/m*3 31.5 C 0 km/h
797 12-07-2010 15:29:41 32 C 7.43 g/m*3 32 C 0 km/h
798 12-07-2010 15:41:41 31.8 C 7.01 g/m*3 31.8 C 0 km/h
799 12-07-2010 15:53:41 31.7 C 6.98 g/m*3 31.7 C 0 km/h
800 12-07-2010 16:05:41 32.3 C 6.86 g/m*3 32.3 C 0 km/h
Sensor: Nr:Datum:Temp:Abs-Feuchte:Windchill:Wind:
Aussen-T/F 801 12-07-2010 16:17:41 32 C 6.75 g/m*3 32 C 0 km/h
802 12-07-2010 16:29:42 31.9 C 6.72 g/m*3 31.9 C 0 km/h
803 12-07-2010 16:41:42 31.8 C 6.68 g/m*3 31.8 C 0 km/h
804 12-07-2010 16:53:42 31.5 C 6.57 g/m*3 31.5 C 0 km/h
805 12-07-2010 17:05:42 31.4 C 6.54 g/m*3 31.4 C 0 km/h
806 12-07-2010 17:17:42 31.7 C 6.64 g/m*3 31.7 C 0 km/h
807 12-07-2010 17:29:42 32 C 6.75 g/m*3 32 C 0 km/h
808 12-07-2010 17:41:42 31.6 C 6.61 g/m*3 31.6 C 0 km/h
809 12-07-2010 17:53:42 31 C 6.4 g/m*3 31 C 0 km/h
810 12-07-2010 18:05:42 30.6 C 6.58 g/m*3 30.6 C 0 km/h
811 12-07-2010 18:17:42 30.3 C 7.4 g/m*3 30.3 C 0 km/h
812 12-07-2010 18:29:42 30 C 7.58 g/m*3 30 C 0 km/h
813 12-07-2010 18:41:42 30 C 7.58 g/m*3 30 C 0 km/h
814 12-07-2010 18:53:42 30 C 7.88 g/m*3 30 C 0 km/h
815 12-07-2010 19:05:42 29.5 C 7.67 g/m*3 29.5 C 0 km/h
816 12-07-2010 19:17:42 29 C 7.47 g/m*3 29 C 0 km/h
817 12-07-2010 19:29:42 28.6 C 7.87 g/m*3 28.6 C 0 km/h
818 12-07-2010 19:41:42 28.2 C 7.7 g/m*3 28.2 C 0 km/h
819 12-07-2010 19:53:42 28.1 C 7.38 g/m*3 28.1 C 0 km/h
820 12-07-2010 20:05:42 27.8 C 7.53 g/m*3 27.8 C 0 km/h
821 12-07-2010 20:17:42 27.6 C 7.71 g/m*3 27.6 C 0 km/h
822 12-07-2010 20:29:42 27 C 7.72 g/m*3 27 C 0 km/h
823 12-07-2010 20:41:43 26.4 C 7.97 g/m*3 26.4 C 0 km/h
824 12-07-2010 20:53:43 26 C 8.28 g/m*3 26 C 0 km/h
825 12-07-2010 21:05:43 26 C 8.52 g/m*3 26 C 0 km/h
Sensor: Nr:Datum:Temp:Abs-Feuchte:Windchill:Wind:
Aussen-T/F 826 12-07-2010 21:17:43 25.8 C 8.67 g/m*3 25.8 C 0 km/h
827 12-07-2010 21:29:43 25.7 C 8.86 g/m*3 25.7 C 0 km/h
828 12-07-2010 21:41:43 25.7 C 9.34 g/m*3 25.7 C 0 km/h
829 12-07-2010 21:53:43 25.4 C 9.42 g/m*3 25.4 C 0 km/h
830 12-07-2010 22:05:43 24.9 C 9.61 g/m*3 24.9 C 0 km/h
831 12-07-2010 22:17:43 24.9 C 9.16 g/m*3 24.9 C 0 km/h
832 12-07-2010 22:29:43 24.2 C 9.02 g/m*3 24.2 C 0 km/h
833 12-07-2010 22:41:43 24.6 C 9.23 g/m*3 24.6 C 0 km/h
834 12-07-2010 22:53:43 24.5 C 9.18 g/m*3 24.5 C 0 km/h
835 12-07-2010 23:05:43 24.3 C 9.29 g/m*3 24.3 C 0 km/h
836 12-07-2010 23:17:43 24 C 9.57 g/m*3 24 C 0 km/h
837 12-07-2010 23:29:43 23.4 C 9.67 g/m*3 23.4 C 0 km/h
838 12-07-2010 23:41:43 23 C 9.87 g/m*3 23 C 0 km/h
839 12-07-2010 23:53:43 22.7 C 10.1 g/m*3 22.7 C 0 km/h
840 13-07-2010 00:05:43 22.6 C 10.25 g/m*3 22.6 C 0 km/h
841 13-07-2010 00:17:43 22.5 C 10.39 g/m*3 22.5 C 0 km/h
842 13-07-2010 00:29:43 22.3 C 10.27 g/m*3 22.3 C 0 km/h
843 13-07-2010 00:41:44 22.1 C 10.35 g/m*3 22.1 C 0 km/h
844 13-07-2010 00:53:44 22 C 10.48 g/m*3 22 C 0 km/h
845 13-07-2010 01:05:44 21.6 C 10.62 g/m*3 21.6 C 0 km/h
846 13-07-2010 01:17:44 21.5 C 10.56 g/m*3 21.5 C 0 km/h
847 13-07-2010 01:29:44 21.4 C 10.69 g/m*3 21.4 C 0 km/h
848 13-07-2010 01:41:44 21.3 C 10.81 g/m*3 21.3 C 0 km/h
849 13-07-2010 01:53:44 21.3 C 10.81 g/m*3 21.3 C 0 km/h
850 13-07-2010 02:05:44 21 C 10.62 g/m*3 21 C 0 km/h
Sensor: Nr:Datum:Temp:Abs-Feuchte:Windchill:Wind:
Aussen-T/F 851 13-07-2010 02:17:44 20.8 C 10.86 g/m*3 20.8 C 0 km/h
852 13-07-2010 02:29:44 20.7 C 10.98 g/m*3 20.7 C 0 km/h
853 13-07-2010 02:41:44 20.5 C 11.03 g/m*3 20.5 C 0 km/h
854 13-07-2010 02:53:44 20.3 C 11.08 g/m*3 20.3 C 0 km/h
855 13-07-2010 03:05:44 20.2 C 11.02 g/m*3 20.2 C 0 km/h
856 13-07-2010 03:17:44 20 C 11.06 g/m*3 20 C 0 km/h
857 13-07-2010 03:29:44 19.8 C 11.27 g/m*3 19.8 C 0 km/h
858 13-07-2010 03:41:44 19.7 C 11.38 g/m*3 19.7 C 0 km/h
859 13-07-2010 03:53:44 19.7 C 11.38 g/m*3 19.7 C 0 km/h
860 13-07-2010 04:05:44 19.8 C 11.44 g/m*3 19.8 C 0 km/h
861 13-07-2010 04:17:44 19.8 C 11.44 g/m*3 19.8 C 0 km/h
862 13-07-2010 04:29:44 19.7 C 11.38 g/m*3 19.7 C 0 km/h
863 13-07-2010 04:41:44 19.7 C 11.89 g/m*3 19.7 C 0 km/h
864 13-07-2010 04:53:45 19.1 C 12.13 g/m*3 19.1 C 0 km/h
865 13-07-2010 05:05:45 18.9 C 12.31 g/m*3 18.9 C 0 km/h
866 13-07-2010 05:17:45 18.7 C 12.33 g/m*3 18.7 C 0 km/h
867 13-07-2010 05:29:45 18.7 C 12.33 g/m*3 18.7 C 0 km/h
868 13-07-2010 05:41:45 18.7 C 12.17 g/m*3 18.7 C 0 km/h
869 13-07-2010 05:53:45 18.6 C 12.1 g/m*3 18.6 C 0 km/h
870 13-07-2010 06:05:45 18.7 C 12.17 g/m*3 18.7 C 0 km/h
871 13-07-2010 06:17:45 18.8 C 12.08 g/m*3 18.8 C 0 km/h
872 13-07-2010 06:29:45 18.8 C 12.08 g/m*3 18.8 C 0 km/h
873 13-07-2010 06:41:45 18.8 C 12.08 g/m*3 18.8 C 0 km/h
874 13-07-2010 06:53:45 18.9 C 12.15 g/m*3 18.9 C 0 km/h
875 13-07-2010 07:05:45 19.2 C 12.04 g/m*3 19.2 C 0 km/h
Sensor: Nr:Datum:Temp:Abs-Feuchte:Windchill:Wind:
Aussen-T/F 876 13-07-2010 07:17:45 19.5 C 12.08 g/m*3 19.5 C 0 km/h
877 13-07-2010 07:29:45 19.7 C 12.06 g/m*3 19.7 C 0 km/h
878 13-07-2010 07:41:45 19.7 C 12.06 g/m*3 19.7 C 0 km/h
879 13-07-2010 07:53:45 20 C 11.92 g/m*3 20 C 0 km/h
880 13-07-2010 08:05:45 20.4 C 12.03 g/m*3 20.4 C 0 km/h
881 13-07-2010 08:17:45 20.5 C 12.1 g/m*3 20.5 C 0 km/h
882 13-07-2010 08:29:45 21 C 12.09 g/m*3 21 C 0 km/h
883 13-07-2010 08:41:45 21.5 C 11.88 g/m*3 21.5 C 0 km/h
884 13-07-2010 08:53:45 21.2 C 11.68 g/m*3 21.2 C 0 km/h
885 13-07-2010 09:05:46 21.4 C 12 g/m*3 21.4 C 0 km/h
886 13-07-2010 09:17:46 21.9 C 12.16 g/m*3 21.9 C 0 km/h
887 13-07-2010 09:29:46 22.7 C 11.72 g/m*3 22.7 C 0 km/h
888 13-07-2010 09:41:46 23.3 C 11.5 g/m*3 23.3 C 0 km/h
889 13-07-2010 09:53:46 23.9 C 11.47 g/m*3 23.9 C 0 km/h
890 13-07-2010 10:05:46 24.4 C 11.57 g/m*3 24.4 C 0 km/h
891 13-07-2010 10:17:46 24.8 C 11.15 g/m*3 24.8 C 0 km/h
892 13-07-2010 10:29:46 24.2 C 11 g/m*3 24.2 C 0 km/h
893 13-07-2010 10:41:46 24.5 C 10.97 g/m*3 24.5 C 0 km/h
894 13-07-2010 10:53:46 25.1 C 10.65 g/m*3 25.1 C 0 km/h
895 13-07-2010 11:05:46 25.4 C 10.59 g/m*3 25.4 C 0 km/h
896 13-07-2010 11:17:46 25.7 C 10.29 g/m*3 25.7 C 0 km/h
897 13-07-2010 11:29:46 25.4 C 10.12 g/m*3 25.4 C 0 km/h
898 13-07-2010 11:41:46 25.7 C 10.29 g/m*3 25.7 C 0 km/h
899 13-07-2010 11:53:46 28.3 C 9.95 g/m*3 28.3 C 0 km/h
900 13-07-2010 12:05:46 29.5 C 8.85 g/m*3 29.5 C 0 km/h
Sensor: Nr:Datum:Temp:Abs-Feuchte:Windchill:Wind:
Aussen-T/F 901 13-07-2010 12:17:46 30 C 9.1 g/m*3 30 C 0 km/h
902 13-07-2010 12:29:46 29.4 C 8.51 g/m*3 29.4 C 0 km/h
903 13-07-2010 12:41:46 28.8 C 8.52 g/m*3 28.8 C 0 km/h
904 13-07-2010 12:53:46 29.5 C 7.97 g/m*3 29.5 C 0 km/h
905 13-07-2010 13:05:46 29.1 C 7.8 g/m*3 29.1 C 0 km/h
906 13-07-2010 13:17:47 28.5 C 8.66 g/m*3 28.5 C 0 km/h
907 13-07-2010 13:29:47 28.9 C 8 g/m*3 28.9 C 0 km/h
908 13-07-2010 13:41:47 29.7 C 7.76 g/m*3 29.7 C 0 km/h
909 13-07-2010 13:53:47 30.4 C 7.75 g/m*3 30.4 C 0 km/h
910 13-07-2010 14:05:47 29.4 C 8.22 g/m*3 29.4 C 0 km/h
911 13-07-2010 14:17:47 28.7 C 8.76 g/m*3 28.7 C 0 km/h
912 13-07-2010 14:29:47 28.1 C 8.48 g/m*3 28.1 C 0 km/h
913 13-07-2010 14:41:47 29 C 8.62 g/m*3 29 C 0 km/h
914 13-07-2010 14:53:47 30 C 7.58 g/m*3 30 C 0 km/h
915 13-07-2010 15:05:47 30.4 C 7.75 g/m*3 30.4 C 0 km/h
916 13-07-2010 15:17:47 31.1 C 7.72 g/m*3 31.1 C 0 km/h
917 13-07-2010 15:29:47 30.6 C 6.89 g/m*3 30.6 C 0 km/h
918 13-07-2010 15:41:47 30.5 C 7.17 g/m*3 30.5 C 0 km/h
919 13-07-2010 15:53:47 31 C 7.04 g/m*3 31 C 0 km/h
920 13-07-2010 16:05:47 31.2 C 6.47 g/m*3 31.2 C 0 km/h
921 13-07-2010 16:17:47 31 C 6.72 g/m*3 31 C 0 km/h
922 13-07-2010 16:29:47 30.8 C 7.28 g/m*3 30.8 C 0 km/h
923 13-07-2010 16:41:47 30.8 C 7.28 g/m*3 30.8 C 0 km/h
924 13-07-2010 16:53:47 31.5 C 6.57 g/m*3 31.5 C 0 km/h
925 13-07-2010 17:05:47 31.8 C 6.68 g/m*3 31.8 C 0 km/h
Sensor: Nr:Datum:Temp:Abs-Feuchte:Windchill:Wind:
Aussen-T/F 926 13-07-2010 17:17:47 31.5 C 6.57 g/m*3 31.5 C 0 km/h
927 13-07-2010 17:29:48 31.8 C 6.68 g/m*3 31.8 C 0 km/h
928 13-07-2010 17:41:48 31.8 C 6.68 g/m*3 31.8 C 0 km/h
929 13-07-2010 17:53:48 31.8 C 6.68 g/m*3 31.8 C 0 km/h
930 13-07-2010 18:05:48 32.1 C 6.79 g/m*3 32.1 C 0 km/h
931 13-07-2010 18:17:48 31.8 C 6.68 g/m*3 31.8 C 0 km/h
932 13-07-2010 18:29:48 31.7 C 6.64 g/m*3 31.7 C 0 km/h
933 13-07-2010 18:41:48 32.1 C 6.79 g/m*3 32.1 C 0 km/h
934 13-07-2010 18:53:48 31.6 C 6.61 g/m*3 31.6 C 0 km/h
935 13-07-2010 19:05:48 31.4 C 6.54 g/m*3 31.4 C 0 km/h
936 13-07-2010 19:17:48 31.4 C 6.54 g/m*3 31.4 C 0 km/h
937 13-07-2010 19:29:48 31.4 C 6.54 g/m*3 31.4 C 0 km/h
938 13-07-2010 19:41:48 31.4 C 6.54 g/m*3 31.4 C 0 km/h
939 13-07-2010 19:53:48 31.2 C 6.47 g/m*3 31.2 C 0 km/h
940 13-07-2010 20:05:48 31.4 C 6.54 g/m*3 31.4 C 0 km/h
941 13-07-2010 20:17:48 31.4 C 6.54 g/m*3 31.4 C 0 km/h
942 13-07-2010 20:29:48 31.2 C 6.79 g/m*3 31.2 C 0 km/h
943 13-07-2010 20:41:48 31 C 6.72 g/m*3 31 C 0 km/h
944 13-07-2010 20:53:48 30.6 C 7.2 g/m*3 30.6 C 0 km/h
945 13-07-2010 21:05:48 29.8 C 7.8 g/m*3 29.8 C 0 km/h
946 13-07-2010 21:17:48 28.6 C 7.87 g/m*3 28.6 C 0 km/h
947 13-07-2010 21:29:48 27.6 C 7.98 g/m*3 27.6 C 0 km/h
948 13-07-2010 21:41:49 26.8 C 8.14 g/m*3 26.8 C 0 km/h
949 13-07-2010 21:53:49 26.4 C 8.21 g/m*3 26.4 C 0 km/h
950 13-07-2010 22:05:49 25.9 C 8.47 g/m*3 25.9 C 0 km/h
Sensor: Nr:Datum:Temp:Abs-Feuchte:Windchill:Wind:
Aussen-T/F 951 13-07-2010 22:17:49 25.5 C 8.52 g/m*3 25.5 C 0 km/h
952 13-07-2010 22:29:49 25.4 C 8.48 g/m*3 25.4 C 0 km/h
953 13-07-2010 22:41:49 25.4 C 8.71 g/m*3 25.4 C 0 km/h
954 13-07-2010 22:53:49 25.1 C 8.8 g/m*3 25.1 C 0 km/h
955 13-07-2010 23:05:49 24.7 C 9.05 g/m*3 24.7 C 0 km/h
956 13-07-2010 23:17:49 24.6 C 9 g/m*3 24.6 C 0 km/h
957 13-07-2010 23:29:49 24.4 C 9.12 g/m*3 24.4 C 0 km/h
958 13-07-2010 23:41:49 24.1 C 9.19 g/m*3 24.1 C 0 km/h
959 13-07-2010 23:53:49 24.3 C 9.29 g/m*3 24.3 C 0 km/h
960 14-07-2010 00:05:49 24.1 C 9.19 g/m*3 24.1 C 0 km/h
961 14-07-2010 00:17:49 23.8 C 9.68 g/m*3 23.8 C 0 km/h
962 14-07-2010 00:29:49 23.6 C 9.57 g/m*3 23.6 C 0 km/h
963 14-07-2010 00:41:49 23.4 C 9.67 g/m*3 23.4 C 0 km/h
964 14-07-2010 00:53:49 23.5 C 9.94 g/m*3 23.5 C 0 km/h
965 14-07-2010 01:05:49 23.6 C 10 g/m*3 23.6 C 0 km/h
966 14-07-2010 01:17:49 23.6 C 10 g/m*3 23.6 C 0 km/h
967 14-07-2010 01:29:49 23.1 C 9.92 g/m*3 23.1 C 0 km/h
968 14-07-2010 01:41:50 22.9 C 10.01 g/m*3 22.9 C 0 km/h
969 14-07-2010 01:53:50 22.6 C 10.04 g/m*3 22.6 C 0 km/h
970 14-07-2010 02:05:50 22.7 C 10.3 g/m*3 22.7 C 0 km/h
971 14-07-2010 02:17:50 22.7 C 10.1 g/m*3 22.7 C 0 km/h
972 14-07-2010 02:29:50 22.7 C 10.51 g/m*3 22.7 C 0 km/h
973 14-07-2010 02:41:50 22.5 C 10.39 g/m*3 22.5 C 0 km/h
974 14-07-2010 02:53:50 22.1 C 10.35 g/m*3 22.1 C 0 km/h
975 14-07-2010 03:05:50 22 C 10.29 g/m*3 22 C 0 km/h
Sensor: Nr:Datum:Temp:Abs-Feuchte:Windchill:Wind:
Aussen-T/F 976 14-07-2010 03:17:50 21.8 C 10.55 g/m*3 21.8 C 0 km/h
977 14-07-2010 03:29:50 21.5 C 10.75 g/m*3 21.5 C 0 km/h
978 14-07-2010 03:41:50 21.3 C 10.62 g/m*3 21.3 C 0 km/h
979 14-07-2010 03:53:50 21.3 C 10.81 g/m*3 21.3 C 0 km/h
980 14-07-2010 04:05:50 21.2 C 10.93 g/m*3 21.2 C 0 km/h
981 14-07-2010 04:17:50 20.8 C 11.05 g/m*3 20.8 C 0 km/h
982 14-07-2010 04:29:50 20.7 C 11.16 g/m*3 20.7 C 0 km/h
983 14-07-2010 04:41:50 20.5 C 11.03 g/m*3 20.5 C 0 km/h
984 14-07-2010 04:53:50 20.4 C 10.97 g/m*3 20.4 C 0 km/h
985 14-07-2010 05:05:50 20.2 C 11.02 g/m*3 20.2 C 0 km/h
986 14-07-2010 05:17:50 20.1 C 11.13 g/m*3 20.1 C 0 km/h
987 14-07-2010 05:29:50 20.1 C 11.13 g/m*3 20.1 C 0 km/h
988 14-07-2010 05:41:50 20.1 C 11.13 g/m*3 20.1 C 0 km/h
989 14-07-2010 05:53:51 20 C 11.23 g/m*3 20 C 0 km/h
990 14-07-2010 06:05:51 20 C 11.06 g/m*3 20 C 0 km/h
991 14-07-2010 06:17:51 20.3 C 11.43 g/m*3 20.3 C 0 km/h
992 14-07-2010 06:29:51 20.3 C 11.26 g/m*3 20.3 C 0 km/h
993 14-07-2010 06:41:51 20.5 C 11.39 g/m*3 20.5 C 0 km/h
994 14-07-2010 06:53:51 20.4 C 11.32 g/m*3 20.4 C 0 km/h
995 14-07-2010 07:05:51 20.3 C 11.43 g/m*3 20.3 C 0 km/h
996 14-07-2010 07:17:51 20.3 C 11.43 g/m*3 20.3 C 0 km/h
997 14-07-2010 07:29:51 20.4 C 11.68 g/m*3 20.4 C 0 km/h
998 14-07-2010 07:41:51 20.7 C 11.7 g/m*3 20.7 C 0 km/h
999 14-07-2010 07:53:51 21.2 C 11.68 g/m*3 21.2 C 0 km/h
1000 14-07-2010 08:05:51 21.5 C 11.69 g/m*3 21.5 C 0 km/h
Sensor: Nr:Datum:Temp:Abs-Feuchte:Windchill:Wind:
Aussen-T/F 1001 14-07-2010 08:17:51 21.5 C 11.69 g/m*3 21.5 C 0 km/h
1002 14-07-2010 08:29:51 21.7 C 11.83 g/m*3 21.7 C 0 km/h
1003 14-07-2010 08:41:51 22 C 11.65 g/m*3 22 C 0 km/h
1004 14-07-2010 08:53:51 22.4 C 11.92 g/m*3 22.4 C 0 km/h
1005 14-07-2010 09:05:51 22.9 C 12.06 g/m*3 22.9 C 0 km/h
1006 14-07-2010 09:17:51 24 C 12.18 g/m*3 24 C 0 km/h
1007 14-07-2010 09:29:51 25.2 C 11.64 g/m*3 25.2 C 0 km/h
1008 14-07-2010 09:41:51 25.3 C 11.71 g/m*3 25.3 C 0 km/h
1009 14-07-2010 09:53:52 25.9 C 11.86 g/m*3 25.9 C 0 km/h
1010 14-07-2010 10:05:52 26.5 C 11.51 g/m*3 26.5 C 0 km/h
1011 14-07-2010 10:17:52 27.1 C 10.61 g/m*3 27.1 C 0 km/h
1012 14-07-2010 10:29:52 27.8 C 10.22 g/m*3 27.8 C 0 km/h
1013 14-07-2010 10:41:52 28.7 C 10.17 g/m*3 28.7 C 0 km/h
1014 14-07-2010 10:53:52 29.3 C 9.63 g/m*3 29.3 C 0 km/h
1015 14-07-2010 11:05:52 30 C 9.4 g/m*3 30 C 0 km/h
1016 14-07-2010 11:17:52 30.3 C 9.25 g/m*3 30.3 C 0 km/h
1017 14-07-2010 11:29:52 30.4 C 9.3 g/m*3 30.4 C 0 km/h
1018 14-07-2010 11:41:52 30.5 C 9.03 g/m*3 30.5 C 0 km/h
1019 14-07-2010 11:53:52 30.8 C 9.18 g/m*3 30.8 C 0 km/h
1020 14-07-2010 12:05:52 31.2 C 8.41 g/m*3 31.2 C 0 km/h
1021 14-07-2010 12:17:52 31.5 C 8.22 g/m*3 31.5 C 0 km/h
1022 14-07-2010 12:29:52 31.3 C 8.13 g/m*3 31.3 C 0 km/h
1023 14-07-2010 12:41:52 31.5 C 7.89 g/m*3 31.5 C 0 km/h
1024 14-07-2010 12:53:52 31.7 C 8.31 g/m*3 31.7 C 0 km/h
1025 14-07-2010 13:05:52 31.7 C 7.64 g/m*3 31.7 C 0 km/h
Sensor: Nr:Datum:Temp:Abs-Feuchte:Windchill:Wind:
Aussen-T/F 1026 14-07-2010 13:17:52 32.3 C 7.2 g/m*3 32.3 C 0 km/h
1027 14-07-2010 13:29:52 33.5 C 7.31 g/m*3 33.5 C 0 km/h
1028 14-07-2010 13:41:52 32.6 C 7.32 g/m*3 32.6 C 0 km/h
1029 14-07-2010 13:53:52 32 C 7.43 g/m*3 32 C 0 km/h
1030 14-07-2010 14:05:53 32.5 C 6.93 g/m*3 32.5 C 0 km/h
1031 14-07-2010 14:17:53 33.3 C 7.23 g/m*3 33.3 C 0 km/h
1032 14-07-2010 14:29:53 32.8 C 7.04 g/m*3 32.8 C 0 km/h
1033 14-07-2010 14:41:53 32.8 C 7.04 g/m*3 32.8 C 0 km/h
1034 14-07-2010 14:53:53 33.3 C 7.23 g/m*3 33.3 C 0 km/h
1035 14-07-2010 15:05:53 33 C 7.12 g/m*3 33 C 0 km/h
1036 14-07-2010 15:17:53 32.9 C 7.08 g/m*3 32.9 C 0 km/h
1037 14-07-2010 15:29:53 33.1 C 7.16 g/m*3 33.1 C 0 km/h
1038 14-07-2010 15:41:53 33.5 C 7.31 g/m*3 33.5 C 0 km/h
1039 14-07-2010 15:53:53 33.8 C 7.43 g/m*3 33.8 C 0 km/h
1040 14-07-2010 16:05:53 33.9 C 7.46 g/m*3 33.9 C 0 km/h
1041 14-07-2010 16:17:53 34.1 C 7.54 g/m*3 34.1 C 0 km/h
1042 14-07-2010 16:29:53 34.6 C 7.74 g/m*3 34.6 C 0 km/h
1043 14-07-2010 16:41:53 34.6 C 7.74 g/m*3 34.6 C 0 km/h
1044 14-07-2010 16:53:53 34.8 C 7.82 g/m*3 34.8 C 0 km/h
1045 14-07-2010 17:05:53 34.8 C 7.82 g/m*3 34.8 C 0 km/h
1046 14-07-2010 17:17:53 34.6 C 7.74 g/m*3 34.6 C 0 km/h
1047 14-07-2010 17:29:53 34.6 C 7.74 g/m*3 34.6 C 0 km/h
1048 14-07-2010 17:41:53 34.1 C 7.54 g/m*3 34.1 C 0 km/h
1049 14-07-2010 17:53:53 34.4 C 7.66 g/m*3 34.4 C 0 km/h
1050 14-07-2010 18:05:54 34.4 C 7.66 g/m*3 34.4 C 0 km/h
Sensor: Nr:Datum:Temp:Abs-Feuchte:Windchill:Wind:
Aussen-T/F 1051 14-07-2010 18:17:54 34.8 C 7.82 g/m*3 34.8 C 0 km/h
1052 14-07-2010 18:29:54 35 C 7.91 g/m*3 35 C 0 km/h
1053 14-07-2010 18:41:54 34.8 C 7.82 g/m*3 34.8 C 0 km/h
1054 14-07-2010 18:53:54 34.3 C 7.62 g/m*3 34.3 C 0 km/h
1055 14-07-2010 19:05:54 33.5 C 7.31 g/m*3 33.5 C 0 km/h
1056 14-07-2010 19:17:54 27.6 C 9.31 g/m*3 27.6 C 0 km/h
1057 14-07-2010 19:29:54 24.1 C 14 g/m*3 24.1 C 0 km/h
1058 14-07-2010 19:41:54 22.2 C 15.51 g/m*3 22.2 C 0 km/h
1059 14-07-2010 19:53:54 21.8 C 16.12 g/m*3 21.8 C 0 km/h
1060 14-07-2010 20:05:54 21.8 C 16.12 g/m*3 21.8 C 0 km/h
1061 14-07-2010 20:17:54 22.5 C 17.18 g/m*3 22.5 C 0 km/h
1062 14-07-2010 20:29:54 22.6 C 16.87 g/m*3 22.6 C 0 km/h
1063 14-07-2010 20:41:54 22.5 C 16.38 g/m*3 22.5 C 0 km/h
1064 14-07-2010 20:53:54 22.3 C 15.99 g/m*3 22.3 C 0 km/h
1065 14-07-2010 21:05:54 22 C 15.53 g/m*3 22 C 0 km/h
1066 14-07-2010 21:17:54 22 C 15.53 g/m*3 22 C 0 km/h
1067 14-07-2010 21:29:54 21.8 C 15.35 g/m*3 21.8 C 0 km/h
1068 14-07-2010 21:41:54 21.4 C 15.19 g/m*3 21.4 C 0 km/h
1069 14-07-2010 21:53:54 21.5 C 15.46 g/m*3 21.5 C 0 km/h
1070 14-07-2010 22:05:54 21.6 C 15.36 g/m*3 21.6 C 0 km/h
1071 14-07-2010 22:17:55 21.6 C 14.98 g/m*3 21.6 C 0 km/h
1072 14-07-2010 22:29:55 21.4 C 14.44 g/m*3 21.4 C 0 km/h
1073 14-07-2010 22:41:55 21.5 C 14.33 g/m*3 21.5 C 0 km/h
1074 14-07-2010 22:53:55 21.4 C 14.25 g/m*3 21.4 C 0 km/h
1075 14-07-2010 23:05:55 21.5 C 14.14 g/m*3 21.5 C 0 km/h
Sensor: Nr:Datum:Temp:Abs-Feuchte:Windchill:Wind:
Aussen-T/F 1076 14-07-2010 23:17:55 21.4 C 14.06 g/m*3 21.4 C 0 km/h
1077 14-07-2010 23:29:55 21.4 C 14.06 g/m*3 21.4 C 0 km/h
1078 14-07-2010 23:41:55 21.2 C 13.9 g/m*3 21.2 C 0 km/h
1079 14-07-2010 23:53:55 20.9 C 13.84 g/m*3 20.9 C 0 km/h
1080 15-07-2010 00:05:55 21 C 13.92 g/m*3 21 C 0 km/h
1081 15-07-2010 00:17:55 21 C 13.56 g/m*3 21 C 0 km/h
1082 15-07-2010 00:29:55 21.2 C 13.53 g/m*3 21.2 C 0 km/h
1083 15-07-2010 00:41:55 21.1 C 13.45 g/m*3 21.1 C 0 km/h
1084 15-07-2010 00:53:55 20.9 C 12.75 g/m*3 20.9 C 0 km/h
1085 15-07-2010 01:05:55 20.6 C 12.35 g/m*3 20.6 C 0 km/h
1086 15-07-2010 01:17:55 20.2 C 11.89 g/m*3 20.2 C 0 km/h
1087 15-07-2010 01:29:55 20.1 C 11.65 g/m*3 20.1 C 0 km/h
1088 15-07-2010 01:41:55 20 C 11.41 g/m*3 20 C 0 km/h
1089 15-07-2010 01:53:55 19.9 C 11.51 g/m*3 19.9 C 0 km/h
1090 15-07-2010 02:05:55 19.7 C 11.55 g/m*3 19.7 C 0 km/h
1091 15-07-2010 02:17:55 19.7 C 11.55 g/m*3 19.7 C 0 km/h
1092 15-07-2010 02:29:56 19.5 C 11.58 g/m*3 19.5 C 0 km/h
1093 15-07-2010 02:41:56 19.5 C 11.75 g/m*3 19.5 C 0 km/h
1094 15-07-2010 02:53:56 19.5 C 11.75 g/m*3 19.5 C 0 km/h
1095 15-07-2010 03:05:56 19.4 C 11.35 g/m*3 19.4 C 0 km/h
1096 15-07-2010 03:17:56 19.3 C 10.95 g/m*3 19.3 C 0 km/h
1097 15-07-2010 03:29:56 19.3 C 10.95 g/m*3 19.3 C 0 km/h
1098 15-07-2010 03:41:56 19.3 C 10.95 g/m*3 19.3 C 0 km/h
1099 15-07-2010 03:53:56 19.3 C 11.11 g/m*3 19.3 C 0 km/h
1100 15-07-2010 04:05:56 19.2 C 11.05 g/m*3 19.2 C 0 km/h
Sensor: Nr:Datum:Temp:Abs-Feuchte:Windchill:Wind:
Aussen-T/F 1101 15-07-2010 04:17:56 19.1 C 10.98 g/m*3 19.1 C 0 km/h
1102 15-07-2010 04:29:56 19 C 10.92 g/m*3 19 C 0 km/h
1103 15-07-2010 04:41:56 18.8 C 11.11 g/m*3 18.8 C 0 km/h
1104 15-07-2010 04:53:56 18.6 C 11.14 g/m*3 18.6 C 0 km/h
1105 15-07-2010 05:05:56 18.6 C 11.14 g/m*3 18.6 C 0 km/h
1106 15-07-2010 05:17:56 18.6 C 11.14 g/m*3 18.6 C 0 km/h
1107 15-07-2010 05:29:56 18.7 C 11.21 g/m*3 18.7 C 0 km/h
1108 15-07-2010 05:41:56 18.9 C 11.34 g/m*3 18.9 C 0 km/h
1109 15-07-2010 05:53:56 19 C 11.08 g/m*3 19 C 0 km/h
1110 15-07-2010 06:05:56 19 C 11.08 g/m*3 19 C 0 km/h
1111 15-07-2010 06:17:56 19 C 10.76 g/m*3 19 C 0 km/h
1112 15-07-2010 06:29:56 18.9 C 11.02 g/m*3 18.9 C 0 km/h
1113 15-07-2010 06:41:56 18.8 C 11.11 g/m*3 18.8 C 0 km/h
1114 15-07-2010 06:53:57 18.8 C 10.95 g/m*3 18.8 C 0 km/h
1115 15-07-2010 07:05:57 19.4 C 11.01 g/m*3 19.4 C 0 km/h
1116 15-07-2010 07:17:57 18.7 C 11.53 g/m*3 18.7 C 0 km/h
1117 15-07-2010 07:29:57 18.4 C 12.11 g/m*3 18.4 C 0 km/h
1118 15-07-2010 07:41:57 18.1 C 12.36 g/m*3 18.1 C 0 km/h
1119 15-07-2010 07:53:57 17.9 C 12.37 g/m*3 17.9 C 0 km/h
1120 15-07-2010 08:05:57 18.2 C 12.28 g/m*3 18.2 C 0 km/h
1121 15-07-2010 08:17:57 18.4 C 12.11 g/m*3 18.4 C 0 km/h
1122 15-07-2010 08:29:57 18.3 C 11.57 g/m*3 18.3 C 0 km/h
1123 15-07-2010 08:41:57 18.5 C 11.23 g/m*3 18.5 C 0 km/h
1124 15-07-2010 08:53:57 18.7 C 11.21 g/m*3 18.7 C 0 km/h
1125 15-07-2010 09:05:57 19 C 10.27 g/m*3 19 C 0 km/h
Sensor: Nr:Datum:Temp:Abs-Feuchte:Windchill:Wind:
Aussen-T/F 1126 15-07-2010 09:17:57 19.2 C 9.4 g/m*3 19.2 C 0 km/h
1127 15-07-2010 09:29:57 19.5 C 8.89 g/m*3 19.5 C 0 km/h
1128 15-07-2010 09:41:57 19.9 C 8.42 g/m*3 19.9 C 0 km/h
1129 15-07-2010 09:53:57 20.3 C 8.27 g/m*3 20.3 C 0 km/h
1130 15-07-2010 10:05:57 20.5 C 7.65 g/m*3 20.5 C 0 km/h
1131 15-07-2010 10:17:57 20.9 C 7.83 g/m*3 20.9 C 0 km/h
1132 15-07-2010 10:29:57 21.3 C 7.64 g/m*3 21.3 C 0 km/h
1133 15-07-2010 10:41:57 21.6 C 7.59 g/m*3 21.6 C 0 km/h
1134 15-07-2010 10:53:57 21.8 C 7.1 g/m*3 21.8 C 0 km/h
1135 15-07-2010 11:05:57 21.9 C 6.95 g/m*3 21.9 C 0 km/h
1136 15-07-2010 11:17:57 21.9 C 6.95 g/m*3 21.9 C 0 km/h
1137 15-07-2010 11:29:58 22.5 C 6.99 g/m*3 22.5 C 0 km/h
1138 15-07-2010 11:41:58 22.8 C 6.71 g/m*3 22.8 C 0 km/h
1139 15-07-2010 11:53:58 22.5 C 6.19 g/m*3 22.5 C 0 km/h
1140 15-07-2010 12:05:58 23.7 C 6.2 g/m*3 23.7 C 0 km/h
1141 15-07-2010 12:17:58 24.4 C 5.56 g/m*3 24.4 C 0 km/h
1142 15-07-2010 12:29:58 24.7 C 5.88 g/m*3 24.7 C 0 km/h
1143 15-07-2010 12:41:58 24.7 C 5.88 g/m*3 24.7 C 0 km/h
1144 15-07-2010 12:53:58 24.6 C 5.63 g/m*3 24.6 C 0 km/h
1145 15-07-2010 13:05:58 25.2 C 5.12 g/m*3 25.2 C 0 km/h
1146 15-07-2010 13:17:58 26.1 C 5.14 g/m*3 26.1 C 0 km/h
1147 15-07-2010 13:29:58 26.4 C 5.23 g/m*3 26.4 C 0 km/h
1148 15-07-2010 13:41:58 26.3 C 4.95 g/m*3 26.3 C 0 km/h
1149 15-07-2010 13:53:58 26.7 C 5.06 g/m*3 26.7 C 0 km/h
1150 15-07-2010 14:05:58 26.2 C 4.92 g/m*3 26.2 C 0 km/h
Sensor: Nr:Datum:Temp:Abs-Feuchte:Windchill:Wind:
Aussen-T/F 1151 15-07-2010 14:17:58 25.6 C 4.76 g/m*3 25.6 C 0 km/h
1152 15-07-2010 14:29:58 26.3 C 4.95 g/m*3 26.3 C 0 km/h
1153 15-07-2010 14:41:58 26.6 C 5.03 g/m*3 26.6 C 0 km/h
1154 15-07-2010 14:53:58 26.4 C 4.98 g/m*3 26.4 C 0 km/h
1155 15-07-2010 15:05:58 26.4 C 4.98 g/m*3 26.4 C 0 km/h
1156 15-07-2010 15:17:58 27.7 C 5.35 g/m*3 27.7 C 0 km/h
1157 15-07-2010 15:29:58 26 C 4.87 g/m*3 26 C 0 km/h
1158 15-07-2010 15:41:59 27.2 C 5.2 g/m*3 27.2 C 0 km/h
1159 15-07-2010 15:53:59 27.2 C 5.2 g/m*3 27.2 C 0 km/h
1160 15-07-2010 16:05:59 27.6 C 5.32 g/m*3 27.6 C 0 km/h
1161 15-07-2010 16:17:59 27.5 C 5.29 g/m*3 27.5 C 0 km/h
1162 15-07-2010 16:29:59 27.9 C 5.41 g/m*3 27.9 C 0 km/h
1163 15-07-2010 16:41:59 27.9 C 5.41 g/m*3 27.9 C 0 km/h
1164 15-07-2010 16:53:59 28.2 C 5.5 g/m*3 28.2 C 0 km/h
1165 15-07-2010 17:05:59 28.6 C 5.62 g/m*3 28.6 C 0 km/h
1166 15-07-2010 17:17:59 27.9 C 5.41 g/m*3 27.9 C 0 km/h
1167 15-07-2010 17:29:59 28.3 C 5.53 g/m*3 28.3 C 0 km/h
1168 15-07-2010 17:41:59 28.8 C 5.68 g/m*3 28.8 C 0 km/h
1169 15-07-2010 17:53:59 28.7 C 5.65 g/m*3 28.7 C 0 km/h
1170 15-07-2010 18:05:59 28.5 C 5.59 g/m*3 28.5 C 0 km/h
1171 15-07-2010 18:17:59 29.1 C 5.78 g/m*3 29.1 C 0 km/h
1172 15-07-2010 18:29:59 27.9 C 5.41 g/m*3 27.9 C 0 km/h
1173 15-07-2010 18:41:59 26.5 C 5.01 g/m*3 26.5 C 0 km/h
1174 15-07-2010 18:52:59 27.9 C 5.41 g/m*3 27.9 C 0 km/h
1175 15-07-2010 19:04:59 27.7 C 5.35 g/m*3 27.7 C 0 km/h
Sensor: Nr:Datum:Temp:Abs-Feuchte:Windchill:Wind:
Aussen-T/F 1176 15-07-2010 19:16:59 27.3 C 5.23 g/m*3 27.3 C 0 km/h
1177 15-07-2010 19:28:59 28.1 C 5.47 g/m*3 28.1 C 0 km/h
1178 15-07-2010 19:40:59 26.4 C 4.98 g/m*3 26.4 C 0 km/h
1179 15-07-2010 19:53:00 26.8 C 5.09 g/m*3 26.8 C 0 km/h
1180 15-07-2010 20:05:00 26.9 C 5.12 g/m*3 26.9 C 0 km/h
1181 15-07-2010 20:17:00 26.8 C 5.09 g/m*3 26.8 C 0 km/h
1182 15-07-2010 20:29:00 26.5 C 5.01 g/m*3 26.5 C 0 km/h
1183 15-07-2010 20:41:00 26.4 C 5.23 g/m*3 26.4 C 0 km/h
1184 15-07-2010 20:53:00 26.4 C 5.73 g/m*3 26.4 C 0 km/h
1185 15-07-2010 21:05:00 25.4 C 5.89 g/m*3 25.4 C 0 km/h
1186 15-07-2010 21:17:00 24.5 C 6.04 g/m*3 24.5 C 0 km/h
1187 15-07-2010 21:29:00 23.5 C 5.92 g/m*3 23.5 C 0 km/h
1188 15-07-2010 21:41:00 22.8 C 6.3 g/m*3 22.8 C 0 km/h
1189 15-07-2010 21:53:00 22.5 C 6.19 g/m*3 22.5 C 0 km/h
1190 15-07-2010 22:05:00 22 C 6.02 g/m*3 22 C 0 km/h
1191 15-07-2010 22:17:00 21.8 C 6.33 g/m*3 21.8 C 0 km/h
1192 15-07-2010 22:29:00 21.5 C 6.41 g/m*3 21.5 C 0 km/h
1193 15-07-2010 22:41:00 21.1 C 6.45 g/m*3 21.1 C 0 km/h
1194 15-07-2010 22:53:00 20.9 C 6.74 g/m*3 20.9 C 0 km/h
1195 15-07-2010 23:05:00 20.5 C 6.58 g/m*3 20.5 C 0 km/h
1196 15-07-2010 23:17:00 20.2 C 6.82 g/m*3 20.2 C 0 km/h
1197 15-07-2010 23:29:00 19.9 C 6.87 g/m*3 19.9 C 0 km/h
1198 15-07-2010 23:41:00 19.7 C 6.79 g/m*3 19.7 C 0 km/h
1199 15-07-2010 23:53:00 19.3 C 6.8 g/m*3 19.3 C 0 km/h
1200 16-07-2010 00:05:01 19.1 C 6.72 g/m*3 19.1 C 0 km/h
Sensor: Nr:Datum:Temp:Abs-Feuchte:Windchill:Wind:
Aussen-T/F 1201 16-07-2010 00:17:01 18.8 C 6.93 g/m*3 18.8 C 0 km/h
1202 16-07-2010 00:29:01 18.6 C 6.84 g/m*3 18.6 C 0 km/h
1203 16-07-2010 00:41:01 18.3 C 7.04 g/m*3 18.3 C 0 km/h
1204 16-07-2010 00:53:01 18.2 C 6.99 g/m*3 18.2 C 0 km/h
1205 16-07-2010 01:05:01 18.1 C 7.11 g/m*3 18.1 C 0 km/h
1206 16-07-2010 01:17:01 17.9 C 7.18 g/m*3 17.9 C 0 km/h
1207 16-07-2010 01:29:01 17.7 C 7.24 g/m*3 17.7 C 0 km/h
1208 16-07-2010 01:41:01 17.6 C 7.5 g/m*3 17.6 C 0 km/h
1209 16-07-2010 01:53:01 17.5 C 7.45 g/m*3 17.5 C 0 km/h
1210 16-07-2010 02:05:01 17.1 C 7.57 g/m*3 17.1 C 0 km/h
1211 16-07-2010 02:17:01 16.9 C 7.77 g/m*3 16.9 C 0 km/h
1212 16-07-2010 02:29:01 16.8 C 8.01 g/m*3 16.8 C 0 km/h
1213 16-07-2010 02:41:01 16.5 C 8 g/m*3 16.5 C 0 km/h
1214 16-07-2010 02:53:01 16.4 C 8.1 g/m*3 16.4 C 0 km/h
1215 16-07-2010 03:05:01 16.3 C 8.05 g/m*3 16.3 C 0 km/h
1216 16-07-2010 03:17:01 16.1 C 8.09 g/m*3 16.1 C 0 km/h
1217 16-07-2010 03:29:01 16 C 8.17 g/m*3 16 C 0 km/h
1218 16-07-2010 03:41:01 15.8 C 8.21 g/m*3 15.8 C 0 km/h
1219 16-07-2010 03:53:01 15.6 C 7.98 g/m*3 15.6 C 0 km/h
1220 16-07-2010 04:05:01 15.5 C 8.06 g/m*3 15.5 C 0 km/h
1221 16-07-2010 04:17:01 15.4 C 8.15 g/m*3 15.4 C 0 km/h
1222 16-07-2010 04:29:02 15.2 C 8.31 g/m*3 15.2 C 0 km/h
1223 16-07-2010 04:41:02 15 C 8.08 g/m*3 15 C 0 km/h
1224 16-07-2010 04:53:02 15 C 8.21 g/m*3 15 C 0 km/h
1225 16-07-2010 05:05:02 14.8 C 8.36 g/m*3 14.8 C 0 km/h
Sensor: Nr:Datum:Temp:Abs-Feuchte:Windchill:Wind:
Aussen-T/F 1226 16-07-2010 05:17:02 14.7 C 8.31 g/m*3 14.7 C 0 km/h
1227 16-07-2010 05:29:02 14.6 C 8.13 g/m*3 14.6 C 0 km/h
1228 16-07-2010 05:41:02 14.6 C 8.26 g/m*3 14.6 C 0 km/h
1229 16-07-2010 05:53:02 14.5 C 8.46 g/m*3 14.5 C 0 km/h
1230 16-07-2010 06:05:02 14.4 C 8.41 g/m*3 14.4 C 0 km/h
1231 16-07-2010 06:17:02 14.3 C 8.48 g/m*3 14.3 C 0 km/h
1232 16-07-2010 06:29:02 14.4 C 8.65 g/m*3 14.4 C 0 km/h
1233 16-07-2010 06:41:02 14.5 C 8.71 g/m*3 14.5 C 0 km/h
1234 16-07-2010 06:53:02 14.7 C 8.81 g/m*3 14.7 C 0 km/h
1235 16-07-2010 07:05:02 14.8 C 8.87 g/m*3 14.8 C 0 km/h
1236 16-07-2010 07:17:02 14.9 C 8.92 g/m*3 14.9 C 0 km/h
1237 16-07-2010 07:29:02 15.2 C 8.83 g/m*3 15.2 C 0 km/h
1238 16-07-2010 07:41:02 15.3 C 8.88 g/m*3 15.3 C 0 km/h
1239 16-07-2010 07:53:02 15.6 C 8.91 g/m*3 15.6 C 0 km/h
1240 16-07-2010 08:05:02 15.9 C 8.94 g/m*3 15.9 C 0 km/h
1241 16-07-2010 08:17:02 16.2 C 8.83 g/m*3 16.2 C 0 km/h
1242 16-07-2010 08:29:02 16.6 C 9.04 g/m*3 16.6 C 0 km/h
1243 16-07-2010 08:41:03 17 C 8.97 g/m*3 17 C 0 km/h
1244 16-07-2010 08:53:03 17.4 C 9.19 g/m*3 17.4 C 0 km/h
1245 16-07-2010 09:05:03 18.1 C 9.27 g/m*3 18.1 C 0 km/h
1246 16-07-2010 09:17:03 19 C 9.45 g/m*3 19 C 0 km/h
1247 16-07-2010 09:29:03 19.6 C 9.45 g/m*3 19.6 C 0 km/h
1248 16-07-2010 09:41:03 20.4 C 9.2 g/m*3 20.4 C 0 km/h
1249 16-07-2010 09:53:03 21.3 C 9.32 g/m*3 21.3 C 0 km/h
1250 16-07-2010 10:05:03 22.1 C 9.17 g/m*3 22.1 C 0 km/h
Sensor: Nr:Datum:Temp:Abs-Feuchte:Windchill:Wind:
Aussen-T/F 1251 16-07-2010 10:17:03 23 C 9.25 g/m*3 23 C 0 km/h
1252 16-07-2010 10:29:03 23.8 C 9.25 g/m*3 23.8 C 0 km/h
1253 16-07-2010 10:41:03 24.2 C 8.14 g/m*3 24.2 C 0 km/h
1254 16-07-2010 10:53:03 24.9 C 7.55 g/m*3 24.9 C 0 km/h
1255 16-07-2010 11:05:03 25.6 C 7.14 g/m*3 25.6 C 0 km/h
1256 16-07-2010 11:17:03 26 C 5.11 g/m*3 26 C 0 km/h
1257 16-07-2010 11:29:03 26.3 C 5.69 g/m*3 26.3 C 0 km/h
1258 16-07-2010 11:41:03 26.5 C 5.51 g/m*3 26.5 C 0 km/h
1259 16-07-2010 11:53:03 26.9 C 5.63 g/m*3 26.9 C 0 km/h
1260 16-07-2010 12:05:03 27.3 C 5.49 g/m*3 27.3 C 0 km/h
1261 16-07-2010 12:17:03 27.9 C 5.41 g/m*3 27.9 C 0 km/h
1262 16-07-2010 12:29:03 28.6 C 5.62 g/m*3 28.6 C 0 km/h
1263 16-07-2010 12:41:03 29.2 C 5.81 g/m*3 29.2 C 0 km/h
1264 16-07-2010 12:53:04 29.7 C 5.97 g/m*3 29.7 C 0 km/h
1265 16-07-2010 13:05:04 30 C 6.06 g/m*3 30 C 0 km/h
1266 16-07-2010 13:17:04 30.6 C 6.26 g/m*3 30.6 C 0 km/h
1267 16-07-2010 13:29:04 30.5 C 6.23 g/m*3 30.5 C 0 km/h
1268 16-07-2010 13:41:04 31.4 C 6.54 g/m*3 31.4 C 0 km/h
1269 16-07-2010 13:53:04 30.9 C 6.37 g/m*3 30.9 C 0 km/h
1270 16-07-2010 14:05:04 31.1 C 6.43 g/m*3 31.1 C 0 km/h
1271 16-07-2010 14:17:04 30.7 C 6.3 g/m*3 30.7 C 0 km/h
1272 16-07-2010 14:29:04 31.1 C 6.43 g/m*3 31.1 C 0 km/h
1273 16-07-2010 14:41:04 31.2 C 6.47 g/m*3 31.2 C 0 km/h
1274 16-07-2010 14:53:04 31.2 C 6.47 g/m*3 31.2 C 0 km/h
1275 16-07-2010 15:05:04 31.5 C 6.57 g/m*3 31.5 C 0 km/h
Sensor: Nr:Datum:Temp:Abs-Feuchte:Windchill:Wind:
Aussen-T/F 1276 16-07-2010 15:17:04 31.5 C 6.57 g/m*3 31.5 C 0 km/h
1277 16-07-2010 15:29:04 31.9 C 6.72 g/m*3 31.9 C 0 km/h
1278 16-07-2010 15:41:04 32.1 C 6.79 g/m*3 32.1 C 0 km/h
1279 16-07-2010 15:53:04 32.3 C 6.86 g/m*3 32.3 C 0 km/h
1280 16-07-2010 16:05:04 32.4 C 6.9 g/m*3 32.4 C 0 km/h
1281 16-07-2010 16:17:04 32.3 C 6.86 g/m*3 32.3 C 0 km/h
1282 16-07-2010 16:29:04 32.6 C 6.97 g/m*3 32.6 C 0 km/h
1283 16-07-2010 16:41:04 32.4 C 6.9 g/m*3 32.4 C 0 km/h
1284 16-07-2010 16:53:05 32.5 C 6.93 g/m*3 32.5 C 0 km/h
1285 16-07-2010 17:05:05 32.5 C 6.93 g/m*3 32.5 C 0 km/h
1286 16-07-2010 17:17:05 32.5 C 6.93 g/m*3 32.5 C 0 km/h
1287 16-07-2010 17:29:05 32.5 C 6.93 g/m*3 32.5 C 0 km/h
1288 16-07-2010 17:41:05 32.8 C 7.04 g/m*3 32.8 C 0 km/h
1289 16-07-2010 17:53:05 32.5 C 6.93 g/m*3 32.5 C 0 km/h
1290 16-07-2010 18:05:05 32.8 C 7.04 g/m*3 32.8 C 0 km/h
1291 16-07-2010 18:17:05 32.7 C 7.01 g/m*3 32.7 C 0 km/h
1292 16-07-2010 18:29:05 32.7 C 7.01 g/m*3 32.7 C 0 km/h
1293 16-07-2010 18:41:05 32.7 C 7.01 g/m*3 32.7 C 0 km/h
1294 16-07-2010 18:53:05 32.7 C 7.01 g/m*3 32.7 C 0 km/h
1295 16-07-2010 19:05:05 32 C 6.75 g/m*3 32 C 0 km/h
1296 16-07-2010 19:17:05 31.7 C 6.64 g/m*3 31.7 C 0 km/h
1297 16-07-2010 19:29:05 31.3 C 6.5 g/m*3 31.3 C 0 km/h
1298 16-07-2010 19:41:05 30.8 C 6.33 g/m*3 30.8 C 0 km/h
1299 16-07-2010 19:53:05 30.4 C 6.51 g/m*3 30.4 C 0 km/h
1300 16-07-2010 20:05:05 30 C 6.67 g/m*3 30 C 0 km/h
Sensor: Nr:Datum:Temp:Abs-Feuchte:Windchill:Wind:
Aussen-T/F 1301 16-07-2010 20:17:05 29.6 C 7.42 g/m*3 29.6 C 0 km/h
1302 16-07-2010 20:29:05 29.1 C 7.22 g/m*3 29.1 C 0 km/h
1303 16-07-2010 20:41:05 29.2 C 7.26 g/m*3 29.2 C 0 km/h
1304 16-07-2010 20:53:05 29.1 C 7.51 g/m*3 29.1 C 0 km/h
1305 16-07-2010 21:05:06 28.9 C 7.43 g/m*3 28.9 C 0 km/h
1306 16-07-2010 21:17:06 28.8 C 7.39 g/m*3 28.8 C 0 km/h
1307 16-07-2010 21:29:06 28.4 C 7.51 g/m*3 28.4 C 0 km/h
1308 16-07-2010 21:41:06 28 C 7.34 g/m*3 28 C 0 km/h
1309 16-07-2010 21:53:06 27.4 C 7.63 g/m*3 27.4 C 0 km/h
1310 16-07-2010 22:05:06 27.2 C 7.81 g/m*3 27.2 C 0 km/h
1311 16-07-2010 22:17:06 26.8 C 7.64 g/m*3 26.8 C 0 km/h
1312 16-07-2010 22:29:01 26.3 C 7.43 g/m*3 26.3 C 0 km/h
1313 16-07-2010 22:41:01 25.8 C 7.7 g/m*3 25.8 C 0 km/h
1314 16-07-2010 22:53:01 25.8 C 7.94 g/m*3 25.8 C 0 km/h
1315 16-07-2010 23:05:01 25.9 C 8.23 g/m*3 25.9 C 0 km/h
1316 16-07-2010 23:17:02 25.8 C 8.43 g/m*3 25.8 C 0 km/h
1317 16-07-2010 23:29:02 25.6 C 8.33 g/m*3 25.6 C 0 km/h
1318 16-07-2010 23:41:01 25.5 C 8.52 g/m*3 25.5 C 0 km/h
1319 16-07-2010 23:53:03 25 C 8.75 g/m*3 25 C 0 km/h
1320 17-07-2010 00:06:04 24.5 C 8.28 g/m*3 24.5 C 0 km/h
1321 17-07-2010 00:18:04 23.8 C 8.6 g/m*3 23.8 C 0 km/h
1322 17-07-2010 00:30:04 23.5 C 8.88 g/m*3 23.5 C 0 km/h
1323 17-07-2010 00:42:04 22.5 C 10.19 g/m*3 22.5 C 0 km/h
1324 17-07-2010 00:54:04 22.2 C 9.42 g/m*3 22.2 C 0 km/h
1325 17-07-2010 01:06:04 22.3 C 9.87 g/m*3 22.3 C 0 km/h
Sensor: Nr:Datum:Temp:Abs-Feuchte:Windchill:Wind:
Aussen-T/F 1326 17-07-2010 01:18:04 21.4 C 11.25 g/m*3 21.4 C 0 km/h
1327 17-07-2010 01:30:04 19.9 C 11.68 g/m*3 19.9 C 0 km/h
1328 17-07-2010 01:42:04 19.8 C 11.44 g/m*3 19.8 C 0 km/h
1329 17-07-2010 01:54:04 20.1 C 11.47 g/m*3 20.1 C 0 km/h
1330 17-07-2010 02:06:04 20.3 C 11.43 g/m*3 20.3 C 0 km/h
1331 17-07-2010 02:18:04 20.3 C 11.08 g/m*3 20.3 C 0 km/h
1332 17-07-2010 02:30:04 20.1 C 10.95 g/m*3 20.1 C 0 km/h
1333 17-07-2010 02:42:04 20.1 C 10.95 g/m*3 20.1 C 0 km/h
1334 17-07-2010 02:54:04 20.1 C 11.13 g/m*3 20.1 C 0 km/h
1335 17-07-2010 03:06:04 20.1 C 11.3 g/m*3 20.1 C 0 km/h
1336 17-07-2010 03:18:04 19.8 C 11.96 g/m*3 19.8 C 0 km/h
1337 17-07-2010 03:30:04 19.7 C 11.89 g/m*3 19.7 C 0 km/h
1338 17-07-2010 03:42:04 20 C 11.92 g/m*3 20 C 0 km/h
1339 17-07-2010 03:54:04 19.8 C 12.3 g/m*3 19.8 C 0 km/h
1340 17-07-2010 04:06:05 19.7 C 11.89 g/m*3 19.7 C 0 km/h
1341 17-07-2010 04:18:05 19.9 C 11.85 g/m*3 19.9 C 0 km/h
1342 17-07-2010 04:30:05 19.2 C 12.37 g/m*3 19.2 C 0 km/h
1343 17-07-2010 04:42:05 18.7 C 13.13 g/m*3 18.7 C 0 km/h
1344 17-07-2010 04:54:05 18.3 C 13.13 g/m*3 18.3 C 0 km/h
1345 17-07-2010 05:06:05 18.4 C 13.37 g/m*3 18.4 C 0 km/h
1346 17-07-2010 05:18:05 18.3 C 13.45 g/m*3 18.3 C 0 km/h
1347 17-07-2010 05:30:05 18.1 C 13.29 g/m*3 18.1 C 0 km/h
1348 17-07-2010 05:42:05 17.9 C 13.44 g/m*3 17.9 C 0 km/h
1349 17-07-2010 05:54:05 17.7 C 13.28 g/m*3 17.7 C 0 km/h
1350 17-07-2010 06:06:05 17.6 C 13.2 g/m*3 17.6 C 0 km/h
Sensor: Nr:Datum:Temp:Abs-Feuchte:Windchill:Wind:
Aussen-T/F 1351 17-07-2010 06:18:05 17.5 C 13.12 g/m*3 17.5 C 0 km/h
1352 17-07-2010 06:30:05 17.7 C 13.43 g/m*3 17.7 C 0 km/h
1353 17-07-2010 06:42:05 17.8 C 13.51 g/m*3 17.8 C 0 km/h
1354 17-07-2010 06:54:05 17.8 C 13.66 g/m*3 17.8 C 0 km/h
1355 17-07-2010 07:06:05 17.8 C 13.66 g/m*3 17.8 C 0 km/h
1356 17-07-2010 07:18:05 17.8 C 13.66 g/m*3 17.8 C 0 km/h
1357 17-07-2010 07:30:05 17.9 C 13.59 g/m*3 17.9 C 0 km/h
1358 17-07-2010 07:42:05 18 C 13.36 g/m*3 18 C 0 km/h
1359 17-07-2010 07:54:05 17.9 C 13.44 g/m*3 17.9 C 0 km/h
1360 17-07-2010 08:06:04 17.8 C 13.36 g/m*3 17.8 C 0 km/h
1361 17-07-2010 08:18:04 17.7 C 13.43 g/m*3 17.7 C 0 km/h
1362 17-07-2010 08:30:04 17.5 C 13.27 g/m*3 17.5 C 0 km/h
1363 17-07-2010 08:42:03 17.5 C 13.27 g/m*3 17.5 C 0 km/h
1364 17-07-2010 08:54:01 17.7 C 13.58 g/m*3 17.7 C 0 km/h
1365 17-07-2010 09:06:02 17.8 C 13.66 g/m*3 17.8 C 0 km/h
1366 17-07-2010 09:18:03 18.1 C 13.75 g/m*3 18.1 C 0 km/h
1367 17-07-2010 09:30:03 18.8 C 13.85 g/m*3 18.8 C 0 km/h
1368 17-07-2010 09:42:02 18.9 C 13.28 g/m*3 18.9 C 0 km/h
1369 17-07-2010 09:54:02 19.1 C 12.95 g/m*3 19.1 C 0 km/h
1370 17-07-2010 10:06:01 19 C 12.71 g/m*3 19 C 0 km/h
1371 17-07-2010 10:18:02 19.2 C 12.53 g/m*3 19.2 C 0 km/h
1372 17-07-2010 10:30:03 19.7 C 12.74 g/m*3 19.7 C 0 km/h
1373 17-07-2010 10:42:01 20 C 12.44 g/m*3 20 C 0 km/h
1374 17-07-2010 10:54:02 20.1 C 12.34 g/m*3 20.1 C 0 km/h
1375 17-07-2010 11:06:01 21 C 12.46 g/m*3 21 C 0 km/h
Sensor: Nr:Datum:Temp:Abs-Feuchte:Windchill:Wind:
Aussen-T/F 1376 17-07-2010 11:18:02 21.2 C 11.86 g/m*3 21.2 C 0 km/h
1377 17-07-2010 11:30:02 21.8 C 11.13 g/m*3 21.8 C 0 km/h
1378 17-07-2010 11:42:02 23.3 C 11.08 g/m*3 23.3 C 0 km/h
1379 17-07-2010 11:54:02 23.7 C 10.69 g/m*3 23.7 C 0 km/h
1380 17-07-2010 12:06:01 23.7 C 10.27 g/m*3 23.7 C 0 km/h
1381 17-07-2010 12:18:02 23.7 C 9.84 g/m*3 23.7 C 0 km/h
1382 17-07-2010 12:30:02 24.6 C 8.55 g/m*3 24.6 C 0 km/h
1383 17-07-2010 12:42:02 25.3 C 8.66 g/m*3 25.3 C 0 km/h
1384 17-07-2010 12:54:01 26 C 7.79 g/m*3 26 C 0 km/h
1385 17-07-2010 13:06:02 26.5 C 8.01 g/m*3 26.5 C 0 km/h
1386 17-07-2010 13:18:01 25 C 7.37 g/m*3 25 C 0 km/h
1387 17-07-2010 13:30:01 26.3 C 7.67 g/m*3 26.3 C 0 km/h
1388 17-07-2010 13:42:02 25.7 C 7.66 g/m*3 25.7 C 0 km/h
1389 17-07-2010 13:54:02 26.6 C 7.05 g/m*3 26.6 C 0 km/h
1390 17-07-2010 14:06:02 26 C 7.55 g/m*3 26 C 0 km/h
1391 17-07-2010 14:18:02 25.9 C 7.51 g/m*3 25.9 C 0 km/h
1392 17-07-2010 14:30:02 26.3 C 7.43 g/m*3 26.3 C 0 km/h
1393 17-07-2010 14:42:02 26 C 6.82 g/m*3 26 C 0 km/h
1394 17-07-2010 14:54:01 26.5 C 7.01 g/m*3 26.5 C 0 km/h
1395 17-07-2010 15:06:02 27 C 6.69 g/m*3 27 C 0 km/h
1396 17-07-2010 15:18:01 27.5 C 6.35 g/m*3 27.5 C 0 km/h
1397 17-07-2010 15:30:01 27.3 C 6.54 g/m*3 27.3 C 0 km/h
1398 17-07-2010 15:42:02 27.5 C 6.61 g/m*3 27.5 C 0 km/h
1399 17-07-2010 15:54:01 26.6 C 6.29 g/m*3 26.6 C 0 km/h
1400 17-07-2010 16:06:02 27.3 C 6.54 g/m*3 27.3 C 0 km/h
Sensor: Nr:Datum:Temp:Abs-Feuchte:Windchill:Wind:
Aussen-T/F 1401 17-07-2010 16:18:02 26.4 C 6.22 g/m*3 26.4 C 0 km/h
1402 17-07-2010 16:30:02 26 C 5.84 g/m*3 26 C 0 km/h
1403 17-07-2010 16:42:02 26.9 C 5.89 g/m*3 26.9 C 0 km/h
1404 17-07-2010 16:54:02 27 C 5.92 g/m*3 27 C 0 km/h
1405 17-07-2010 17:06:02 26.6 C 6.29 g/m*3 26.6 C 0 km/h
1406 17-07-2010 17:18:03 25.7 C 7.42 g/m*3 25.7 C 0 km/h
1407 17-07-2010 17:30:03 26 C 7.79 g/m*3 26 C 0 km/h
1408 17-07-2010 17:42:02 26.1 C 7.59 g/m*3 26.1 C 0 km/h
1409 17-07-2010 17:54:02 24.6 C 7.88 g/m*3 24.6 C 0 km/h
1410 17-07-2010 18:06:01 24.2 C 7.7 g/m*3 24.2 C 0 km/h
1411 17-07-2010 18:18:02 23.7 C 7.7 g/m*3 23.7 C 0 km/h
1412 17-07-2010 18:30:02 24 C 7.61 g/m*3 24 C 0 km/h
1413 17-07-2010 18:42:01 24.1 C 7.44 g/m*3 24.1 C 0 km/h
1414 17-07-2010 18:54:02 24 C 7.4 g/m*3 24 C 0 km/h
1415 17-07-2010 19:06:02 24.6 C 7.43 g/m*3 24.6 C 0 km/h
1416 17-07-2010 19:18:02 24.6 C 7.2 g/m*3 24.6 C 0 km/h
1417 17-07-2010 19:30:03 24.2 C 7.26 g/m*3 24.2 C 0 km/h
1418 17-07-2010 19:42:02 23.8 C 7.1 g/m*3 23.8 C 0 km/h
1419 17-07-2010 19:54:02 23.6 C 6.59 g/m*3 23.6 C 0 km/h
1420 17-07-2010 20:06:02 23.7 C 6.84 g/m*3 23.7 C 0 km/h
1421 17-07-2010 20:18:02 24.7 C 6.11 g/m*3 24.7 C 0 km/h
1422 17-07-2010 20:30:02 25.4 C 5.41 g/m*3 25.4 C 0 km/h
1423 17-07-2010 20:42:03 24.7 C 5.21 g/m*3 24.7 C 0 km/h
1424 17-07-2010 20:54:02 23.8 C 5.38 g/m*3 23.8 C 0 km/h
1425 17-07-2010 21:06:01 22.9 C 5.72 g/m*3 22.9 C 0 km/h
Sensor: Nr:Datum:Temp:Abs-Feuchte:Windchill:Wind:
Aussen-T/F 1426 17-07-2010 21:18:02 22.4 C 5.96 g/m*3 22.4 C 0 km/h
1427 17-07-2010 21:30:02 22.1 C 6.44 g/m*3 22.1 C 0 km/h
1428 17-07-2010 21:42:02 22 C 6.21 g/m*3 22 C 0 km/h
1429 17-07-2010 21:54:01 21.9 C 6.37 g/m*3 21.9 C 0 km/h
1430 17-07-2010 22:06:02 21.6 C 6.26 g/m*3 21.6 C 0 km/h
1431 17-07-2010 22:18:01 21.7 C 6.49 g/m*3 21.7 C 0 km/h
1432 17-07-2010 22:30:01 21.6 C 6.26 g/m*3 21.6 C 0 km/h
1433 17-07-2010 22:42:02 21.3 C 6.15 g/m*3 21.3 C 0 km/h
1434 17-07-2010 22:54:02 21 C 6.23 g/m*3 21 C 0 km/h
1435 17-07-2010 23:06:02 20.4 C 6.19 g/m*3 20.4 C 0 km/h
1436 17-07-2010 23:18:02 20.3 C 6.16 g/m*3 20.3 C 0 km/h
1437 17-07-2010 23:30:02 20.2 C 6.12 g/m*3 20.2 C 0 km/h
1438 17-07-2010 23:42:02 19.9 C 6.01 g/m*3 19.9 C 0 km/h
1439 17-07-2010 23:54:01 19.8 C 6.15 g/m*3 19.8 C 0 km/h
1440 18-07-2010 00:06:02 19.3 C 5.97 g/m*3 19.3 C 0 km/h
1441 18-07-2010 00:18:02 19 C 5.87 g/m*3 19 C 0 km/h
1442 18-07-2010 00:30:02 18.6 C 6.21 g/m*3 18.6 C 0 km/h
1443 18-07-2010 00:42:01 18.3 C 6.1 g/m*3 18.3 C 0 km/h
1444 18-07-2010 00:54:02 18 C 6.14 g/m*3 18 C 0 km/h
1445 18-07-2010 01:06:01 17.7 C 6.19 g/m*3 17.7 C 0 km/h
1446 18-07-2010 01:18:02 17.4 C 6.22 g/m*3 17.4 C 0 km/h
1447 18-07-2010 01:30:02 17.2 C 6.3 g/m*3 17.2 C 0 km/h
1448 18-07-2010 01:42:01 16.8 C 6.43 g/m*3 16.8 C 0 km/h
1449 18-07-2010 01:54:03 16.7 C 6.54 g/m*3 16.7 C 0 km/h
1450 18-07-2010 02:06:02 16.5 C 6.6 g/m*3 16.5 C 0 km/h
Sensor: Nr:Datum:Temp:Abs-Feuchte:Windchill:Wind:
Aussen-T/F 1451 18-07-2010 02:18:02 16.3 C 6.38 g/m*3 16.3 C 0 km/h
1452 18-07-2010 02:30:02 16 C 6.95 g/m*3 16 C 0 km/h
1453 18-07-2010 02:42:02 15.6 C 7.18 g/m*3 15.6 C 0 km/h
1454 18-07-2010 02:55:04 15.4 C 7.23 g/m*3 15.4 C 0 km/h
1455 18-07-2010 03:07:04 15.2 C 7.14 g/m*3 15.2 C 0 km/h
1456 18-07-2010 03:19:04 15 C 6.92 g/m*3 15 C 0 km/h
1457 18-07-2010 03:31:02 14.8 C 7.22 g/m*3 14.8 C 0 km/h
1458 18-07-2010 03:43:02 14.6 C 7.26 g/m*3 14.6 C 0 km/h
1459 18-07-2010 03:55:02 14.4 C 7.17 g/m*3 14.4 C 0 km/h
1460 18-07-2010 04:07:02 14.1 C 7.28 g/m*3 14.1 C 0 km/h
1461 18-07-2010 04:19:01 14.1 C 7.52 g/m*3 14.1 C 0 km/h
1462 18-07-2010 04:31:02 14 C 7.48 g/m*3 14 C 0 km/h
1463 18-07-2010 04:43:02 13.7 C 7.46 g/m*3 13.7 C 0 km/h
1464 18-07-2010 04:55:02 13.6 C 7.65 g/m*3 13.6 C 0 km/h
1465 18-07-2010 05:07:02 13.4 C 7.9 g/m*3 13.4 C 0 km/h
1466 18-07-2010 05:19:01 13.1 C 7.76 g/m*3 13.1 C 0 km/h
1467 18-07-2010 05:31:02 13 C 7.71 g/m*3 13 C 0 km/h
1468 18-07-2010 05:43:02 12.8 C 7.84 g/m*3 12.8 C 0 km/h
1469 18-07-2010 05:55:02 12.7 C 7.9 g/m*3 12.7 C 0 km/h
1470 18-07-2010 06:07:02 12.6 C 8.08 g/m*3 12.6 C 0 km/h
1471 18-07-2010 06:19:02 12.5 C 8.03 g/m*3 12.5 C 0 km/h
1472 18-07-2010 06:31:02 12.5 C 8.03 g/m*3 12.5 C 0 km/h
1473 18-07-2010 06:43:02 12.6 C 8.19 g/m*3 12.6 C 0 km/h
1474 18-07-2010 06:55:02 12.6 C 8.19 g/m*3 12.6 C 0 km/h
1475 18-07-2010 07:07:02 12.7 C 8.13 g/m*3 12.7 C 0 km/h
Sensor: Nr:Datum:Temp:Abs-Feuchte:Windchill:Wind:
Aussen-T/F 1476 18-07-2010 07:19:02 12.8 C 8.06 g/m*3 12.8 C 0 km/h
1477 18-07-2010 07:31:01 12.9 C 8 g/m*3 12.9 C 0 km/h
1478 18-07-2010 07:43:01 13.1 C 7.99 g/m*3 13.1 C 0 km/h
1479 18-07-2010 07:55:02 13.3 C 8.09 g/m*3 13.3 C 0 km/h
1480 18-07-2010 08:07:01 13.8 C 8.22 g/m*3 13.8 C 0 km/h
1481 18-07-2010 08:19:01 14.1 C 8.01 g/m*3 14.1 C 0 km/h
1482 18-07-2010 08:31:01 14.4 C 8.16 g/m*3 14.4 C 0 km/h
1483 18-07-2010 08:43:01 15 C 7.44 g/m*3 15 C 0 km/h
1484 18-07-2010 08:55:02 15.4 C 7.62 g/m*3 15.4 C 0 km/h
1485 18-07-2010 09:07:01 15.9 C 7.58 g/m*3 15.9 C 0 km/h
1486 18-07-2010 09:19:02 16.5 C 7.58 g/m*3 16.5 C 0 km/h
1487 18-07-2010 09:31:02 17.1 C 7.57 g/m*3 17.1 C 0 km/h
1488 18-07-2010 09:43:02 17.8 C 7.89 g/m*3 17.8 C 0 km/h
1489 18-07-2010 09:55:02 18.5 C 7.75 g/m*3 18.5 C 0 km/h
1490 18-07-2010 10:07:02 19 C 7.5 g/m*3 19 C 0 km/h
1491 18-07-2010 10:19:02 19.7 C 7.47 g/m*3 19.7 C 0 km/h
1492 18-07-2010 10:31:02 20.1 C 7.3 g/m*3 20.1 C 0 km/h
1493 18-07-2010 10:43:02 20.8 C 7.24 g/m*3 20.8 C 0 km/h
1494 18-07-2010 10:55:02 21.3 C 5.78 g/m*3 21.3 C 0 km/h
1495 18-07-2010 11:07:01 20.8 C 5.61 g/m*3 20.8 C 0 km/h
1496 18-07-2010 11:19:02 21.6 C 5.69 g/m*3 21.6 C 0 km/h
1497 18-07-2010 11:31:02 21.7 C 5.72 g/m*3 21.7 C 0 km/h
1498 18-07-2010 11:43:02 22.7 C 6.06 g/m*3 22.7 C 0 km/h
1499 18-07-2010 11:55:02 23.8 C 5.59 g/m*3 23.8 C 0 km/h
1500 18-07-2010 12:07:01 24.3 C 5.53 g/m*3 24.3 C 0 km/h
Sensor: Nr:Datum:Temp:Abs-Feuchte:Windchill:Wind:
Aussen-T/F 1501 18-07-2010 12:19:02 25.3 C 4.68 g/m*3 25.3 C 0 km/h
1502 18-07-2010 12:31:02 25.3 C 4.68 g/m*3 25.3 C 0 km/h
1503 18-07-2010 12:43:02 26.1 C 4.9 g/m*3 26.1 C 0 km/h
1504 18-07-2010 12:55:02 24.8 C 4.55 g/m*3 24.8 C 0 km/h
1505 18-07-2010 13:07:03 25.8 C 4.82 g/m*3 25.8 C 0 km/h
1506 18-07-2010 13:19:02 27.6 C 5.32 g/m*3 27.6 C 0 km/h
1507 18-07-2010 13:31:02 28.3 C 5.53 g/m*3 28.3 C 0 km/h
1508 18-07-2010 13:43:03 28 C 5.44 g/m*3 28 C 0 km/h
1509 18-07-2010 13:55:01 28.4 C 5.56 g/m*3 28.4 C 0 km/h
1510 18-07-2010 14:07:02 27.7 C 5.35 g/m*3 27.7 C 0 km/h
1511 18-07-2010 14:19:01 27.1 C 5.18 g/m*3 27.1 C 0 km/h
1512 18-07-2010 14:31:01 27.9 C 5.41 g/m*3 27.9 C 0 km/h
1513 18-07-2010 14:43:01 26.7 C 5.06 g/m*3 26.7 C 0 km/h
1514 18-07-2010 14:55:01 27.3 C 5.23 g/m*3 27.3 C 0 km/h
1515 18-07-2010 15:07:02 28.1 C 5.47 g/m*3 28.1 C 0 km/h
1516 18-07-2010 15:19:01 29.4 C 5.87 g/m*3 29.4 C 0 km/h
1517 18-07-2010 15:31:01 30 C 6.06 g/m*3 30 C 0 km/h
1518 18-07-2010 15:43:01 30.1 C 6.1 g/m*3 30.1 C 0 km/h
1519 18-07-2010 15:55:01 30.3 C 6.16 g/m*3 30.3 C 0 km/h
1520 18-07-2010 16:07:01 30.6 C 6.26 g/m*3 30.6 C 0 km/h
1521 18-07-2010 16:19:02 30.7 C 6.3 g/m*3 30.7 C 0 km/h
1522 18-07-2010 16:31:01 31 C 6.4 g/m*3 31 C 0 km/h
1523 18-07-2010 16:43:01 30.8 C 6.33 g/m*3 30.8 C 0 km/h
1524 18-07-2010 16:55:01 30.7 C 6.3 g/m*3 30.7 C 0 km/h
1525 18-07-2010 17:07:01 30.9 C 6.37 g/m*3 30.9 C 0 km/h
Sensor: Nr:Datum:Temp:Abs-Feuchte:Windchill:Wind:
Aussen-T/F 1526 18-07-2010 17:19:02 30.4 C 6.2 g/m*3 30.4 C 0 km/h
1527 18-07-2010 17:31:01 31.4 C 6.54 g/m*3 31.4 C 0 km/h
1528 18-07-2010 17:43:01 31.8 C 6.68 g/m*3 31.8 C 0 km/h
1529 18-07-2010 17:55:02 31.8 C 6.68 g/m*3 31.8 C 0 km/h
1530 18-07-2010 18:07:02 31.3 C 6.5 g/m*3 31.3 C 0 km/h
1531 18-07-2010 18:19:02 31.3 C 6.5 g/m*3 31.3 C 0 km/h
1532 18-07-2010 18:31:02 31.1 C 6.43 g/m*3 31.1 C 0 km/h
1533 18-07-2010 18:43:02 31.1 C 6.43 g/m*3 31.1 C 0 km/h
1534 18-07-2010 18:55:02 31.5 C 6.57 g/m*3 31.5 C 0 km/h
1535 18-07-2010 19:07:01 31.2 C 6.47 g/m*3 31.2 C 0 km/h
1536 18-07-2010 19:19:02 30.7 C 6.3 g/m*3 30.7 C 0 km/h
1537 18-07-2010 19:31:02 30 C 6.06 g/m*3 30 C 0 km/h
1538 18-07-2010 19:43:02 30.1 C 6.1 g/m*3 30.1 C 0 km/h
1539 18-07-2010 19:55:01 30.4 C 6.2 g/m*3 30.4 C 0 km/h
1540 18-07-2010 20:07:01 30.2 C 6.13 g/m*3 30.2 C 0 km/h
1541 18-07-2010 20:19:01 29.8 C 6 g/m*3 29.8 C 0 km/h
1542 18-07-2010 20:31:02 29.1 C 5.78 g/m*3 29.1 C 0 km/h
1543 18-07-2010 20:43:02 28.8 C 5.68 g/m*3 28.8 C 0 km/h
1544 18-07-2010 20:55:02 27.6 C 5.32 g/m*3 27.6 C 0 km/h
1545 18-07-2010 21:07:02 25.9 C 5.08 g/m*3 25.9 C 0 km/h
1546 18-07-2010 21:19:02 24.8 C 5.24 g/m*3 24.8 C 0 km/h
1547 18-07-2010 21:31:02 23.9 C 5.41 g/m*3 23.9 C 0 km/h
1548 18-07-2010 21:43:02 23.3 C 5.44 g/m*3 23.3 C 0 km/h
1549 18-07-2010 21:55:02 22.7 C 5.66 g/m*3 22.7 C 0 km/h
1550 18-07-2010 22:08:02 22.2 C 5.89 g/m*3 22.2 C 0 km/h
Sensor: Nr:Datum:Temp:Abs-Feuchte:Windchill:Wind:
Aussen-T/F 1551 18-07-2010 22:20:02 21.9 C 5.79 g/m*3 21.9 C 0 km/h
1552 18-07-2010 22:32:02 21.8 C 5.95 g/m*3 21.8 C 0 km/h
1553 18-07-2010 22:44:02 21.5 C 5.85 g/m*3 21.5 C 0 km/h
1554 18-07-2010 22:56:02 21.2 C 6.12 g/m*3 21.2 C 0 km/h
1555 18-07-2010 23:08:02 21 C 6.05 g/m*3 21 C 0 km/h
1556 18-07-2010 23:20:02 20.6 C 6.26 g/m*3 20.6 C 0 km/h
1557 18-07-2010 23:32:02 20.3 C 6.16 g/m*3 20.3 C 0 km/h
1558 18-07-2010 23:44:02 20.1 C 6.43 g/m*3 20.1 C 0 km/h
1559 18-07-2010 23:56:02 19.7 C 6.45 g/m*3 19.7 C 0 km/h
1560 19-07-2010 00:08:02 19.5 C 6.38 g/m*3 19.5 C 0 km/h
1561 19-07-2010 00:20:02 19.2 C 6.27 g/m*3 19.2 C 0 km/h
1562 19-07-2010 00:32:02 18.8 C 6.28 g/m*3 18.8 C 0 km/h
1563 19-07-2010 00:44:03 18.6 C 6.37 g/m*3 18.6 C 0 km/h
1564 19-07-2010 00:56:03 18.5 C 6.49 g/m*3 18.5 C 0 km/h
1565 19-07-2010 01:08:03 18.2 C 6.53 g/m*3 18.2 C 0 km/h
1566 19-07-2010 01:20:03 17.9 C 6.57 g/m*3 17.9 C 0 km/h
1567 19-07-2010 01:32:03 17.7 C 6.64 g/m*3 17.7 C 0 km/h
1568 19-07-2010 01:44:03 17.5 C 6.71 g/m*3 17.5 C 0 km/h
1569 19-07-2010 01:56:03 17.1 C 6.84 g/m*3 17.1 C 0 km/h
1570 19-07-2010 02:08:03 16.8 C 6.86 g/m*3 16.8 C 0 km/h
1571 19-07-2010 02:20:03 16.7 C 7.11 g/m*3 16.7 C 0 km/h
1572 19-07-2010 02:32:03 16.5 C 6.88 g/m*3 16.5 C 0 km/h
1573 19-07-2010 02:44:04 16.3 C 6.66 g/m*3 16.3 C 0 km/h
1574 19-07-2010 02:56:04 16 C 6.81 g/m*3 16 C 0 km/h
1575 19-07-2010 03:08:04 15.8 C 7 g/m*3 15.8 C 0 km/h
Sensor: Nr:Datum:Temp:Abs-Feuchte:Windchill:Wind:
Aussen-T/F 1576 19-07-2010 03:20:04 15.7 C 6.96 g/m*3 15.7 C 0 km/h
1577 19-07-2010 03:32:04 15.5 C 7.14 g/m*3 15.5 C 0 km/h
1578 19-07-2010 03:44:04 15.3 C 7.31 g/m*3 15.3 C 0 km/h
1579 19-07-2010 03:56:04 15.1 C 7.1 g/m*3 15.1 C 0 km/h
1580 19-07-2010 04:08:04 14.9 C 7.14 g/m*3 14.9 C 0 km/h
1581 19-07-2010 04:20:04 14.7 C 7.18 g/m*3 14.7 C 0 km/h
1582 19-07-2010 04:32:04 14.6 C 7.38 g/m*3 14.6 C 0 km/h
1583 19-07-2010 04:44:04 14.7 C 7.43 g/m*3 14.7 C 0 km/h
1584 19-07-2010 04:56:04 14.2 C 7.45 g/m*3 14.2 C 0 km/h
1585 19-07-2010 05:08:04 14.1 C 7.28 g/m*3 14.1 C 0 km/h
1586 19-07-2010 05:20:04 13.9 C 7.55 g/m*3 13.9 C 0 km/h
1587 19-07-2010 05:32:04 13.8 C 7.63 g/m*3 13.8 C 0 km/h
1588 19-07-2010 05:44:04 13.6 C 7.53 g/m*3 13.6 C 0 km/h
1589 19-07-2010 05:56:04 13.6 C 7.53 g/m*3 13.6 C 0 km/h
1590 19-07-2010 06:08:04 13.6 C 7.53 g/m*3 13.6 C 0 km/h
1591 19-07-2010 06:20:04 13.5 C 7.6 g/m*3 13.5 C 0 km/h
1592 19-07-2010 06:32:04 13.7 C 7.93 g/m*3 13.7 C 0 km/h
1593 19-07-2010 06:44:05 13.5 C 8.07 g/m*3 13.5 C 0 km/h
1594 19-07-2010 06:56:02 13.6 C 8.24 g/m*3 13.6 C 0 km/h
1595 19-07-2010 07:08:02 13.7 C 8.29 g/m*3 13.7 C 0 km/h
1596 19-07-2010 07:20:02 13.8 C 8.22 g/m*3 13.8 C 0 km/h
1597 19-07-2010 07:32:01 14 C 8.2 g/m*3 14 C 0 km/h
1598 19-07-2010 07:44:01 14.2 C 8.18 g/m*3 14.2 C 0 km/h
1599 19-07-2010 07:56:02 14.4 C 8.16 g/m*3 14.4 C 0 km/h
1600 19-07-2010 08:08:01 14.5 C 8.21 g/m*3 14.5 C 0 km/h
Sensor: Nr:Datum:Temp:Abs-Feuchte:Windchill:Wind:
Aussen-T/F 1601 19-07-2010 08:20:02 14.8 C 8.23 g/m*3 14.8 C 0 km/h
1602 19-07-2010 08:32:02 15.2 C 8.18 g/m*3 15.2 C 0 km/h
1603 19-07-2010 08:44:02 15.7 C 8.3 g/m*3 15.7 C 0 km/h
1604 19-07-2010 08:56:02 16.3 C 8.46 g/m*3 16.3 C 0 km/h
1605 19-07-2010 09:08:02 16.9 C 8.63 g/m*3 16.9 C 0 km/h
1606 19-07-2010 09:20:02 17.7 C 8.6 g/m*3 17.7 C 0 km/h
1607 19-07-2010 09:32:02 18.4 C 8.49 g/m*3 18.4 C 0 km/h
1608 19-07-2010 09:44:02 19.4 C 8.51 g/m*3 19.4 C 0 km/h
1609 19-07-2010 09:56:02 20.2 C 8.39 g/m*3 20.2 C 0 km/h
1610 19-07-2010 10:08:02 20.8 C 8.33 g/m*3 20.8 C 0 km/h
1611 19-07-2010 10:20:01 21.7 C 8.39 g/m*3 21.7 C 0 km/h
1612 19-07-2010 10:32:02 22.6 C 8.24 g/m*3 22.6 C 0 km/h
1613 19-07-2010 10:44:03 23.3 C 7.74 g/m*3 23.3 C 0 km/h
1614 19-07-2010 10:56:02 23.9 C 7.14 g/m*3 23.9 C 0 km/h
1615 19-07-2010 11:08:02 24.7 C 7.02 g/m*3 24.7 C 0 km/h
1616 19-07-2010 11:20:02 25.2 C 6.98 g/m*3 25.2 C 0 km/h
1617 19-07-2010 11:32:02 25.9 C 6.29 g/m*3 25.9 C 0 km/h
1618 19-07-2010 11:44:02 26.5 C 6.51 g/m*3 26.5 C 0 km/h
1619 19-07-2010 11:56:02 26.6 C 5.79 g/m*3 26.6 C 0 km/h
1620 19-07-2010 12:08:02 27.1 C 5.69 g/m*3 27.1 C 0 km/h
1621 19-07-2010 12:20:02 28.2 C 5.5 g/m*3 28.2 C 0 km/h
1622 19-07-2010 12:32:02 28.9 C 5.71 g/m*3 28.9 C 0 km/h
1623 19-07-2010 12:44:02 29.7 C 5.97 g/m*3 29.7 C 0 km/h
1624 19-07-2010 12:56:02 30.2 C 6.13 g/m*3 30.2 C 0 km/h
1625 19-07-2010 13:08:02 30.4 C 6.2 g/m*3 30.4 C 0 km/h
Sensor: Nr:Datum:Temp:Abs-Feuchte:Windchill:Wind:
Aussen-T/F 1626 19-07-2010 13:20:03 31.2 C 6.47 g/m*3 31.2 C 0 km/h
1627 19-07-2010 13:32:02 31.6 C 6.61 g/m*3 31.6 C 0 km/h
1628 19-07-2010 13:44:02 31.5 C 6.57 g/m*3 31.5 C 0 km/h
1629 19-07-2010 13:56:03 31.3 C 6.5 g/m*3 31.3 C 0 km/h
1630 19-07-2010 14:08:02 30.9 C 6.37 g/m*3 30.9 C 0 km/h
1631 19-07-2010 14:20:03 30.8 C 6.33 g/m*3 30.8 C 0 km/h
1632 19-07-2010 14:32:02 31 C 6.4 g/m*3 31 C 0 km/h
1633 19-07-2010 14:44:02 30.6 C 6.26 g/m*3 30.6 C 0 km/h
1634 19-07-2010 14:56:02 30.9 C 6.37 g/m*3 30.9 C 0 km/h
1635 19-07-2010 15:08:02 30.6 C 6.26 g/m*3 30.6 C 0 km/h
1636 19-07-2010 15:20:02 31.4 C 6.54 g/m*3 31.4 C 0 km/h
1637 19-07-2010 15:32:02 31.9 C 6.72 g/m*3 31.9 C 0 km/h
1638 19-07-2010 15:44:02 32.2 C 6.82 g/m*3 32.2 C 0 km/h
1639 19-07-2010 15:56:02 32.4 C 6.9 g/m*3 32.4 C 0 km/h
1640 19-07-2010 16:08:02 32.5 C 6.93 g/m*3 32.5 C 0 km/h
1641 19-07-2010 16:20:02 32.8 C 7.04 g/m*3 32.8 C 0 km/h
1642 19-07-2010 16:32:02 32.9 C 7.08 g/m*3 32.9 C 0 km/h
1643 19-07-2010 16:44:02 32.8 C 7.04 g/m*3 32.8 C 0 km/h
1644 19-07-2010 16:56:02 33.1 C 7.16 g/m*3 33.1 C 0 km/h
1645 19-07-2010 17:08:01 33.3 C 7.23 g/m*3 33.3 C 0 km/h
1646 19-07-2010 17:20:01 33.6 C 7.35 g/m*3 33.6 C 0 km/h
1647 19-07-2010 17:32:02 33.5 C 7.31 g/m*3 33.5 C 0 km/h
1648 19-07-2010 17:44:02 33.7 C 7.39 g/m*3 33.7 C 0 km/h
1649 19-07-2010 17:56:02 33.8 C 7.43 g/m*3 33.8 C 0 km/h
1650 19-07-2010 18:08:02 33.7 C 7.39 g/m*3 33.7 C 0 km/h
Sensor: Nr:Datum:Temp:Abs-Feuchte:Windchill:Wind:
Aussen-T/F 1651 19-07-2010 18:20:02 33.5 C 7.31 g/m*3 33.5 C 0 km/h
1652 19-07-2010 18:32:02 33.6 C 7.35 g/m*3 33.6 C 0 km/h
1653 19-07-2010 18:44:03 33.5 C 7.31 g/m*3 33.5 C 0 km/h
1654 19-07-2010 18:56:01 33.2 C 7.2 g/m*3 33.2 C 0 km/h
1655 19-07-2010 19:08:02 33.3 C 7.23 g/m*3 33.3 C 0 km/h
1656 19-07-2010 19:20:01 33 C 7.12 g/m*3 33 C 0 km/h
1657 19-07-2010 19:32:01 32.8 C 7.04 g/m*3 32.8 C 0 km/h
1658 19-07-2010 19:44:02 32.7 C 7.01 g/m*3 32.7 C 0 km/h
1659 19-07-2010 19:56:02 32.4 C 6.9 g/m*3 32.4 C 0 km/h
1660 19-07-2010 20:08:02 32 C 6.75 g/m*3 32 C 0 km/h
1661 19-07-2010 20:20:02 31.9 C 6.72 g/m*3 31.9 C 0 km/h
1662 19-07-2010 20:32:01 31.5 C 6.57 g/m*3 31.5 C 0 km/h
1663 19-07-2010 20:44:01 31.1 C 6.43 g/m*3 31.1 C 0 km/h
1664 19-07-2010 20:56:01 30.4 C 6.2 g/m*3 30.4 C 0 km/h
1665 19-07-2010 21:08:02 29.1 C 6.06 g/m*3 29.1 C 0 km/h
1666 19-07-2010 21:20:02 27.8 C 6.46 g/m*3 27.8 C 0 km/h
1667 19-07-2010 21:32:02 26.3 C 6.93 g/m*3 26.3 C 0 km/h
1668 19-07-2010 21:44:02 25.6 C 7.14 g/m*3 25.6 C 0 km/h
1669 19-07-2010 21:56:01 25.4 C 7.06 g/m*3 25.4 C 0 km/h
1670 19-07-2010 22:08:01 24.6 C 6.98 g/m*3 24.6 C 0 km/h
1671 19-07-2010 22:20:02 24.4 C 7.12 g/m*3 24.4 C 0 km/h
1672 19-07-2010 22:32:02 24 C 6.96 g/m*3 24 C 0 km/h
1673 19-07-2010 22:44:02 23.9 C 7.14 g/m*3 23.9 C 0 km/h
1674 19-07-2010 22:56:02 23.7 C 7.06 g/m*3 23.7 C 0 km/h
1675 19-07-2010 23:08:01 23.5 C 7.19 g/m*3 23.5 C 0 km/h
Sensor: Nr:Datum:Temp:Abs-Feuchte:Windchill:Wind:
Aussen-T/F 1676 19-07-2010 23:20:02 23.1 C 7.03 g/m*3 23.1 C 0 km/h
1677 19-07-2010 23:32:02 22.7 C 7.27 g/m*3 22.7 C 0 km/h
1678 19-07-2010 23:44:02 22.7 C 7.48 g/m*3 22.7 C 0 km/h
1679 19-07-2010 23:56:03 22.5 C 7.59 g/m*3 22.5 C 0 km/h
1680 20-07-2010 00:08:02 22.3 C 7.7 g/m*3 22.3 C 0 km/h
1681 20-07-2010 00:20:03 22 C 7.76 g/m*3 22 C 0 km/h
1682 20-07-2010 00:32:02 21.7 C 7.82 g/m*3 21.7 C 0 km/h
1683 20-07-2010 00:44:02 21.5 C 7.92 g/m*3 21.5 C 0 km/h
1684 20-07-2010 00:56:01 21.2 C 7.97 g/m*3 21.2 C 0 km/h
1685 20-07-2010 01:08:01 20.9 C 8.2 g/m*3 20.9 C 0 km/h
1686 20-07-2010 01:20:02 20.7 C 8.1 g/m*3 20.7 C 0 km/h
1687 20-07-2010 01:32:01 20.4 C 8.14 g/m*3 20.4 C 0 km/h
1688 20-07-2010 01:44:01 20.2 C 7.87 g/m*3 20.2 C 0 km/h
1689 20-07-2010 01:56:01 19.9 C 8.08 g/m*3 19.9 C 0 km/h
1690 20-07-2010 02:08:02 19.7 C 8.15 g/m*3 19.7 C 0 km/h
1691 20-07-2010 02:20:02 19.6 C 8.1 g/m*3 19.6 C 0 km/h
1692 20-07-2010 02:32:01 19.4 C 8.18 g/m*3 19.4 C 0 km/h
1693 20-07-2010 02:44:01 19.1 C 8.36 g/m*3 19.1 C 0 km/h
1694 20-07-2010 02:56:02 18.8 C 8.37 g/m*3 18.8 C 0 km/h
1695 20-07-2010 03:08:02 18.5 C 8.23 g/m*3 18.5 C 0 km/h
1696 20-07-2010 03:20:01 18.4 C 8.34 g/m*3 18.4 C 0 km/h
1697 20-07-2010 03:32:01 18.1 C 8.19 g/m*3 18.1 C 0 km/h
1698 20-07-2010 03:44:01 18.1 C 8.34 g/m*3 18.1 C 0 km/h
1699 20-07-2010 03:56:01 17.9 C 8.7 g/m*3 17.9 C 0 km/h
1700 20-07-2010 04:08:01 17.7 C 8.45 g/m*3 17.7 C 0 km/h
Sensor: Nr:Datum:Temp:Abs-Feuchte:Windchill:Wind:
Aussen-T/F 1701 20-07-2010 04:20:01 17.4 C 8.45 g/m*3 17.4 C 0 km/h
1702 20-07-2010 04:32:01 17.3 C 8.54 g/m*3 17.3 C 0 km/h
1703 20-07-2010 04:44:01 17 C 8.39 g/m*3 17 C 0 km/h
1704 20-07-2010 04:56:01 16.8 C 8.58 g/m*3 16.8 C 0 km/h
1705 20-07-2010 05:08:01 16.7 C 8.53 g/m*3 16.7 C 0 km/h
1706 20-07-2010 05:20:02 16.6 C 8.62 g/m*3 16.6 C 0 km/h
1707 20-07-2010 05:32:01 16.4 C 8.51 g/m*3 16.4 C 0 km/h
1708 20-07-2010 05:44:01 16.4 C 8.65 g/m*3 16.4 C 0 km/h
1709 20-07-2010 05:56:02 16.3 C 8.6 g/m*3 16.3 C 0 km/h
1710 20-07-2010 06:08:01 16.1 C 8.77 g/m*3 16.1 C 0 km/h
1711 20-07-2010 06:20:02 16 C 8.86 g/m*3 16 C 0 km/h
1712 20-07-2010 06:32:01 16.1 C 9.05 g/m*3 16.1 C 0 km/h
1713 20-07-2010 06:44:01 16.1 C 9.05 g/m*3 16.1 C 0 km/h
1714 20-07-2010 06:56:02 16.2 C 9.1 g/m*3 16.2 C 0 km/h
1715 20-07-2010 07:08:01 16.4 C 9.21 g/m*3 16.4 C 0 km/h
1716 20-07-2010 07:20:01 16.5 C 9.27 g/m*3 16.5 C 0 km/h
1717 20-07-2010 07:32:01 16.8 C 9.29 g/m*3 16.8 C 0 km/h
1718 20-07-2010 07:44:01 17.1 C 9.32 g/m*3 17.1 C 0 km/h
1719 20-07-2010 07:56:02 17.1 C 9.17 g/m*3 17.1 C 0 km/h
1720 20-07-2010 08:08:01 17.3 C 9.13 g/m*3 17.3 C 0 km/h
1721 20-07-2010 08:20:01 17.6 C 9.15 g/m*3 17.6 C 0 km/h
1722 20-07-2010 08:32:02 17.9 C 9.16 g/m*3 17.9 C 0 km/h
1723 20-07-2010 08:44:02 18.5 C 9.33 g/m*3 18.5 C 0 km/h
1724 20-07-2010 08:56:01 18.9 C 9.4 g/m*3 18.9 C 0 km/h
1725 20-07-2010 09:08:02 19.6 C 9.45 g/m*3 19.6 C 0 km/h
Sensor: Nr:Datum:Temp:Abs-Feuchte:Windchill:Wind:
Aussen-T/F 1726 20-07-2010 09:20:01 20.3 C 9.32 g/m*3 20.3 C 0 km/h
1727 20-07-2010 09:32:02 20.9 C 9.29 g/m*3 20.9 C 0 km/h
1728 20-07-2010 09:44:02 21.7 C 8.97 g/m*3 21.7 C 0 km/h
1729 20-07-2010 09:56:01 22.3 C 8.89 g/m*3 22.3 C 0 km/h
1730 20-07-2010 10:08:02 23.2 C 8.73 g/m*3 23.2 C 0 km/h
1731 20-07-2010 10:20:01 24.1 C 8.53 g/m*3 24.1 C 0 km/h
1732 20-07-2010 10:32:01 24.8 C 8.19 g/m*3 24.8 C 0 km/h
1733 20-07-2010 10:44:01 25.6 C 8.09 g/m*3 25.6 C 0 km/h
1734 20-07-2010 10:56:01 26.3 C 7.67 g/m*3 26.3 C 0 km/h
1735 20-07-2010 11:08:02 26.9 C 6.91 g/m*3 26.9 C 0 km/h
1736 20-07-2010 11:20:01 27.4 C 6.84 g/m*3 27.4 C 0 km/h
1737 20-07-2010 11:32:01 27.9 C 6.76 g/m*3 27.9 C 0 km/h
1738 20-07-2010 11:44:01 28.2 C 6.6 g/m*3 28.2 C 0 km/h
1739 20-07-2010 11:56:01 28.3 C 6.63 g/m*3 28.3 C 0 km/h
1740 20-07-2010 12:08:01 29 C 6.03 g/m*3 29 C 0 km/h
1741 20-07-2010 12:20:02 30 C 6.37 g/m*3 30 C 0 km/h
1742 20-07-2010 12:32:01 30.7 C 6.3 g/m*3 30.7 C 0 km/h
1743 20-07-2010 12:44:01 31 C 6.4 g/m*3 31 C 0 km/h
1744 20-07-2010 12:56:01 31.4 C 6.54 g/m*3 31.4 C 0 km/h
1745 20-07-2010 13:08:01 31.7 C 6.64 g/m*3 31.7 C 0 km/h
1746 20-07-2010 13:20:02 32.1 C 6.79 g/m*3 32.1 C 0 km/h
1747 20-07-2010 13:32:01 32.5 C 6.93 g/m*3 32.5 C 0 km/h
1748 20-07-2010 13:44:01 32.5 C 6.93 g/m*3 32.5 C 0 km/h
1749 20-07-2010 13:56:02 32.3 C 6.86 g/m*3 32.3 C 0 km/h
1750 20-07-2010 14:08:01 31.8 C 6.68 g/m*3 31.8 C 0 km/h
Sensor: Nr:Datum:Temp:Abs-Feuchte:Windchill:Wind:
Aussen-T/F 1751 20-07-2010 14:20:02 31.8 C 6.68 g/m*3 31.8 C 0 km/h
1752 20-07-2010 14:32:01 31.5 C 6.57 g/m*3 31.5 C 0 km/h
1753 20-07-2010 14:44:01 31.8 C 6.68 g/m*3 31.8 C 0 km/h
1754 20-07-2010 14:56:02 32 C 6.75 g/m*3 32 C 0 km/h
1755 20-07-2010 15:08:01 32 C 6.75 g/m*3 32 C 0 km/h
1756 20-07-2010 15:20:01 32.1 C 6.79 g/m*3 32.1 C 0 km/h
1757 20-07-2010 15:32:02 32.3 C 6.86 g/m*3 32.3 C 0 km/h
1758 20-07-2010 15:44:02 32.8 C 7.04 g/m*3 32.8 C 0 km/h
1759 20-07-2010 15:56:01 32.5 C 6.93 g/m*3 32.5 C 0 km/h
1760 20-07-2010 16:08:02 32.7 C 7.01 g/m*3 32.7 C 0 km/h
1761 20-07-2010 16:20:01 33.1 C 7.16 g/m*3 33.1 C 0 km/h
1762 20-07-2010 16:32:02 33 C 7.12 g/m*3 33 C 0 km/h
1763 20-07-2010 16:44:02 33 C 7.12 g/m*3 33 C 0 km/h
1764 20-07-2010 16:56:01 33.5 C 7.31 g/m*3 33.5 C 0 km/h
1765 20-07-2010 17:08:02 33.3 C 7.23 g/m*3 33.3 C 0 km/h
1766 20-07-2010 17:20:01 33.3 C 7.23 g/m*3 33.3 C 0 km/h
1767 20-07-2010 17:32:01 33.2 C 7.2 g/m*3 33.2 C 0 km/h
1768 20-07-2010 17:44:02 33.4 C 7.27 g/m*3 33.4 C 0 km/h
1769 20-07-2010 17:56:01 33.1 C 7.16 g/m*3 33.1 C 0 km/h
1770 20-07-2010 18:08:02 33.3 C 7.23 g/m*3 33.3 C 0 km/h
1771 20-07-2010 18:20:02 33.3 C 7.23 g/m*3 33.3 C 0 km/h
1772 20-07-2010 18:32:01 32.7 C 7.01 g/m*3 32.7 C 0 km/h
1773 20-07-2010 18:44:01 32.7 C 7.01 g/m*3 32.7 C 0 km/h
1774 20-07-2010 18:56:01 32.6 C 6.97 g/m*3 32.6 C 0 km/h
1775 20-07-2010 19:08:02 32.3 C 6.86 g/m*3 32.3 C 0 km/h
Sensor: Nr:Datum:Temp:Abs-Feuchte:Windchill:Wind:
Aussen-T/F 1776 20-07-2010 19:20:01 31.7 C 6.64 g/m*3 31.7 C 0 km/h
1777 20-07-2010 19:32:02 31.9 C 6.72 g/m*3 31.9 C 0 km/h
1778 20-07-2010 19:44:02 32.1 C 6.79 g/m*3 32.1 C 0 km/h
1779 20-07-2010 19:56:01 32.1 C 6.79 g/m*3 32.1 C 0 km/h
1780 20-07-2010 20:08:02 32 C 6.75 g/m*3 32 C 0 km/h
1781 20-07-2010 20:20:01 31.5 C 6.57 g/m*3 31.5 C 0 km/h
1782 20-07-2010 20:32:01 30.8 C 6.33 g/m*3 30.8 C 0 km/h
1783 20-07-2010 20:44:01 30 C 6.06 g/m*3 30 C 0 km/h
1784 20-07-2010 20:56:01 29.3 C 6.13 g/m*3 29.3 C 0 km/h
1785 20-07-2010 21:08:02 28.1 C 6.56 g/m*3 28.1 C 0 km/h
1786 20-07-2010 21:20:01 26.9 C 6.65 g/m*3 26.9 C 0 km/h
1787 20-07-2010 21:32:01 26.4 C 6.47 g/m*3 26.4 C 0 km/h
1788 20-07-2010 21:44:02 25.7 C 6.22 g/m*3 25.7 C 0 km/h
1789 20-07-2010 21:56:01 25.3 C 6.09 g/m*3 25.3 C 0 km/h
1790 20-07-2010 22:09:02 24.5 C 6.27 g/m*3 24.5 C 0 km/h
1791 20-07-2010 22:21:02 24.5 C 6.71 g/m*3 24.5 C 0 km/h
1792 20-07-2010 22:33:02 24.5 C 6.71 g/m*3 24.5 C 0 km/h
1793 20-07-2010 22:45:02 24.4 C 6.68 g/m*3 24.4 C 0 km/h
1794 20-07-2010 22:57:02 24.1 C 6.56 g/m*3 24.1 C 0 km/h
1795 20-07-2010 23:09:02 23.8 C 6.67 g/m*3 23.8 C 0 km/h
1796 20-07-2010 23:21:02 23.7 C 6.84 g/m*3 23.7 C 0 km/h
1797 20-07-2010 23:33:02 23.5 C 6.98 g/m*3 23.5 C 0 km/h
1798 20-07-2010 23:45:02 23.4 C 6.94 g/m*3 23.4 C 0 km/h
1799 20-07-2010 23:57:02 23 C 7.19 g/m*3 23 C 0 km/h
1800 21-07-2010 00:09:02 22.5 C 7.39 g/m*3 22.5 C 0 km/h
Sensor: Nr:Datum:Temp:Abs-Feuchte:Windchill:Wind:
Aussen-T/F 1801 21-07-2010 00:21:02 22.3 C 7.5 g/m*3 22.3 C 0 km/h
1802 21-07-2010 00:33:02 21.9 C 7.72 g/m*3 21.9 C 0 km/h
1803 21-07-2010 00:45:02 21.7 C 7.63 g/m*3 21.7 C 0 km/h
1804 21-07-2010 00:57:02 21.5 C 7.73 g/m*3 21.5 C 0 km/h
1805 21-07-2010 01:09:03 21.3 C 7.83 g/m*3 21.3 C 0 km/h
1806 21-07-2010 01:21:03 21.1 C 7.92 g/m*3 21.1 C 0 km/h
1807 21-07-2010 01:33:03 20.9 C 8.01 g/m*3 20.9 C 0 km/h
1808 21-07-2010 01:45:03 20.6 C 8.05 g/m*3 20.6 C 0 km/h
1809 21-07-2010 01:57:03 20.4 C 8.31 g/m*3 20.4 C 0 km/h
1810 21-07-2010 02:09:03 20 C 8.12 g/m*3 20 C 0 km/h
1811 21-07-2010 02:21:03 20 C 8.3 g/m*3 20 C 0 km/h
1812 21-07-2010 02:33:03 19.7 C 8.49 g/m*3 19.7 C 0 km/h
1813 21-07-2010 02:45:03 19.4 C 8.34 g/m*3 19.4 C 0 km/h
1814 21-07-2010 02:57:03 19.3 C 8.29 g/m*3 19.3 C 0 km/h
1815 21-07-2010 03:09:03 19.2 C 8.41 g/m*3 19.2 C 0 km/h
1816 21-07-2010 03:21:03 19 C 8.31 g/m*3 19 C 0 km/h
1817 21-07-2010 03:33:03 18.7 C 8.33 g/m*3 18.7 C 0 km/h
1818 21-07-2010 03:45:03 18.6 C 8.44 g/m*3 18.6 C 0 km/h
1819 21-07-2010 03:57:03 18.4 C 8.49 g/m*3 18.4 C 0 km/h
1820 21-07-2010 04:09:03 18.4 C 8.49 g/m*3 18.4 C 0 km/h
1821 21-07-2010 04:21:03 18.3 C 8.44 g/m*3 18.3 C 0 km/h
1822 21-07-2010 04:33:03 18.1 C 8.65 g/m*3 18.1 C 0 km/h
1823 21-07-2010 04:45:03 17.9 C 8.7 g/m*3 17.9 C 0 km/h
1824 21-07-2010 04:57:03 17.7 C 8.6 g/m*3 17.7 C 0 km/h
1825 21-07-2010 05:09:03 17.6 C 8.55 g/m*3 17.6 C 0 km/h
Sensor: Nr:Datum:Temp:Abs-Feuchte:Windchill:Wind:
Aussen-T/F 1826 21-07-2010 05:21:04 17.4 C 8.6 g/m*3 17.4 C 0 km/h
1827 21-07-2010 05:33:04 17.4 C 8.74 g/m*3 17.4 C 0 km/h
1828 21-07-2010 05:45:04 17.2 C 8.93 g/m*3 17.2 C 0 km/h
1829 21-07-2010 05:57:04 17.3 C 8.99 g/m*3 17.3 C 0 km/h
1830 21-07-2010 06:09:04 17.1 C 8.88 g/m*3 17.1 C 0 km/h
1831 21-07-2010 06:21:04 17 C 8.68 g/m*3 17 C 0 km/h
1832 21-07-2010 06:33:04 17.1 C 8.88 g/m*3 17.1 C 0 km/h
1833 21-07-2010 06:45:04 17.2 C 8.93 g/m*3 17.2 C 0 km/h
1834 21-07-2010 06:57:04 17.4 C 9.19 g/m*3 17.4 C 0 km/h
1835 21-07-2010 07:09:02 17.4 C 9.19 g/m*3 17.4 C 0 km/h
1836 21-07-2010 07:21:01 17.6 C 9.45 g/m*3 17.6 C 0 km/h
1837 21-07-2010 07:33:02 17.7 C 9.35 g/m*3 17.7 C 0 km/h
1838 21-07-2010 07:45:02 18 C 9.22 g/m*3 18 C 0 km/h
1839 21-07-2010 07:57:02 18.3 C 9.38 g/m*3 18.3 C 0 km/h
1840 21-07-2010 08:09:02 18.5 C 9.18 g/m*3 18.5 C 0 km/h
1841 21-07-2010 08:21:01 18.8 C 9.18 g/m*3 18.8 C 0 km/h
1842 21-07-2010 08:33:02 19.2 C 9.07 g/m*3 19.2 C 0 km/h
1843 21-07-2010 08:45:01 19.4 C 9.01 g/m*3 19.4 C 0 km/h
1844 21-07-2010 08:57:01 20.1 C 8.87 g/m*3 20.1 C 0 km/h
1845 21-07-2010 09:09:02 20.6 C 9.31 g/m*3 20.6 C 0 km/h
1846 21-07-2010 09:21:02 21.4 C 9.37 g/m*3 21.4 C 0 km/h
1847 21-07-2010 09:33:02 22.4 C 9.53 g/m*3 22.4 C 0 km/h
1848 21-07-2010 09:45:01 23.3 C 9.41 g/m*3 23.3 C 0 km/h
1849 21-07-2010 09:57:01 23.9 C 9.3 g/m*3 23.9 C 0 km/h
1850 21-07-2010 10:09:02 24.7 C 9.28 g/m*3 24.7 C 0 km/h
Sensor: Nr:Datum:Temp:Abs-Feuchte:Windchill:Wind:
Aussen-T/F 1851 21-07-2010 10:21:02 25.7 C 9.1 g/m*3 25.7 C 0 km/h
1852 21-07-2010 10:33:01 26.6 C 8.56 g/m*3 26.6 C 0 km/h
1853 21-07-2010 10:45:02 27.3 C 8.11 g/m*3 27.3 C 0 km/h
1854 21-07-2010 10:57:02 28.4 C 7.78 g/m*3 28.4 C 0 km/h
1855 21-07-2010 11:09:01 28.9 C 7.43 g/m*3 28.9 C 0 km/h
1856 21-07-2010 11:21:02 29.3 C 7.3 g/m*3 29.3 C 0 km/h
1857 21-07-2010 11:33:01 29.7 C 7.46 g/m*3 29.7 C 0 km/h
1858 21-07-2010 11:45:02 30 C 7.58 g/m*3 30 C 0 km/h
1859 21-07-2010 11:57:02 30.4 C 7.13 g/m*3 30.4 C 0 km/h
1860 21-07-2010 12:09:02 30.7 C 6.61 g/m*3 30.7 C 0 km/h
1861 21-07-2010 12:21:02 31.2 C 6.47 g/m*3 31.2 C 0 km/h
1862 21-07-2010 12:33:02 31.6 C 6.61 g/m*3 31.6 C 0 km/h
1863 21-07-2010 12:45:02 31.6 C 6.61 g/m*3 31.6 C 0 km/h
1864 21-07-2010 12:57:02 31.7 C 6.64 g/m*3 31.7 C 0 km/h
1865 21-07-2010 13:09:01 32.1 C 6.79 g/m*3 32.1 C 0 km/h
1866 21-07-2010 13:21:02 32.5 C 6.93 g/m*3 32.5 C 0 km/h
1867 21-07-2010 13:33:02 32.6 C 6.97 g/m*3 32.6 C 0 km/h
1868 21-07-2010 13:45:02 32.6 C 6.97 g/m*3 32.6 C 0 km/h
1869 21-07-2010 13:57:02 32.8 C 7.04 g/m*3 32.8 C 0 km/h
1870 21-07-2010 14:09:02 32.6 C 6.97 g/m*3 32.6 C 0 km/h
1871 21-07-2010 14:21:02 32.4 C 6.9 g/m*3 32.4 C 0 km/h
1872 21-07-2010 14:33:02 32.5 C 6.93 g/m*3 32.5 C 0 km/h
1873 21-07-2010 14:45:01 32.6 C 6.97 g/m*3 32.6 C 0 km/h
1874 21-07-2010 14:57:01 32.8 C 7.04 g/m*3 32.8 C 0 km/h
1875 21-07-2010 15:09:02 32.6 C 6.97 g/m*3 32.6 C 0 km/h
Sensor: Nr:Datum:Temp:Abs-Feuchte:Windchill:Wind:
Aussen-T/F 1876 21-07-2010 15:21:01 32.6 C 6.97 g/m*3 32.6 C 0 km/h
1877 21-07-2010 15:33:01 32.4 C 6.9 g/m*3 32.4 C 0 km/h
1878 21-07-2010 15:45:01 32.8 C 7.04 g/m*3 32.8 C 0 km/h
1879 21-07-2010 15:57:01 32.4 C 6.9 g/m*3 32.4 C 0 km/h
1880 21-07-2010 16:09:02 32.3 C 6.86 g/m*3 32.3 C 0 km/h
1881 21-07-2010 16:21:01 32.3 C 6.86 g/m*3 32.3 C 0 km/h
1882 21-07-2010 16:33:02 32.3 C 6.86 g/m*3 32.3 C 0 km/h
1883 21-07-2010 16:45:02 32.8 C 7.04 g/m*3 32.8 C 0 km/h
1884 21-07-2010 16:57:02 32.5 C 6.93 g/m*3 32.5 C 0 km/h
1885 21-07-2010 17:09:02 32.1 C 6.79 g/m*3 32.1 C 0 km/h
1886 21-07-2010 17:21:02 31.9 C 6.72 g/m*3 31.9 C 0 km/h
1887 21-07-2010 17:33:02 31.7 C 6.64 g/m*3 31.7 C 0 km/h
1888 21-07-2010 17:45:02 31.1 C 6.76 g/m*3 31.1 C 0 km/h
1889 21-07-2010 17:57:02 30.7 C 6.93 g/m*3 30.7 C 0 km/h
1890 21-07-2010 18:09:02 30.4 C 7.13 g/m*3 30.4 C 0 km/h
1891 21-07-2010 18:21:02 30.3 C 7.4 g/m*3 30.3 C 0 km/h
1892 21-07-2010 18:33:02 30.3 C 7.4 g/m*3 30.3 C 0 km/h
1893 21-07-2010 18:45:02 30 C 7.28 g/m*3 30 C 0 km/h
1894 21-07-2010 18:57:02 29.6 C 7.42 g/m*3 29.6 C 0 km/h
1895 21-07-2010 19:09:02 29.5 C 7.67 g/m*3 29.5 C 0 km/h
1896 21-07-2010 19:21:02 29.4 C 7.63 g/m*3 29.4 C 0 km/h
1897 21-07-2010 19:33:02 28.9 C 7.71 g/m*3 28.9 C 0 km/h
1898 21-07-2010 19:45:01 28.5 C 7.83 g/m*3 28.5 C 0 km/h
1899 21-07-2010 19:57:01 27.3 C 9.16 g/m*3 27.3 C 0 km/h
1900 21-07-2010 20:09:02 23.7 C 11.55 g/m*3 23.7 C 0 km/h
Sensor: Nr:Datum:Temp:Abs-Feuchte:Windchill:Wind:
Aussen-T/F 1901 21-07-2010 20:21:01 23.4 C 12.41 g/m*3 23.4 C 0 km/h
1902 21-07-2010 20:33:01 23.7 C 12.62 g/m*3 23.7 C 0 km/h
1903 21-07-2010 20:45:01 23.9 C 12.33 g/m*3 23.9 C 0 km/h
1904 21-07-2010 20:57:01 23.2 C 11.85 g/m*3 23.2 C 0 km/h
1905 21-07-2010 21:09:01 23.3 C 11.71 g/m*3 23.3 C 0 km/h
1906 21-07-2010 21:21:02 23.1 C 11.78 g/m*3 23.1 C 0 km/h
1907 21-07-2010 21:33:01 22.6 C 12.05 g/m*3 22.6 C 0 km/h
1908 21-07-2010 21:45:01 23 C 11.92 g/m*3 23 C 0 km/h
1909 21-07-2010 21:57:01 23.1 C 11.78 g/m*3 23.1 C 0 km/h
1910 21-07-2010 22:10:03 23.3 C 11.92 g/m*3 23.3 C 0 km/h
1911 21-07-2010 22:22:03 23 C 11.51 g/m*3 23 C 0 km/h
1912 21-07-2010 22:34:03 22.9 C 11.85 g/m*3 22.9 C 0 km/h
1913 21-07-2010 22:46:03 22.9 C 11.85 g/m*3 22.9 C 0 km/h
1914 21-07-2010 22:58:03 22.9 C 11.65 g/m*3 22.9 C 0 km/h
1915 21-07-2010 23:10:03 23 C 11.51 g/m*3 23 C 0 km/h
1916 21-07-2010 23:22:03 23 C 11.3 g/m*3 23 C 0 km/h
1917 21-07-2010 23:34:03 22.9 C 11.44 g/m*3 22.9 C 0 km/h
1918 21-07-2010 23:46:03 22.7 C 11.52 g/m*3 22.7 C 0 km/h
1919 21-07-2010 23:58:03 22.8 C 11.58 g/m*3 22.8 C 0 km/h
1920 22-07-2010 00:10:03 22.7 C 11.52 g/m*3 22.7 C 0 km/h
1921 22-07-2010 00:22:03 22.6 C 11.65 g/m*3 22.6 C 0 km/h
1922 22-07-2010 00:34:03 22.5 C 11.58 g/m*3 22.5 C 0 km/h
1923 22-07-2010 00:46:04 22.5 C 11.58 g/m*3 22.5 C 0 km/h
1924 22-07-2010 00:58:04 22.5 C 11.58 g/m*3 22.5 C 0 km/h
1925 22-07-2010 01:10:04 22.4 C 11.72 g/m*3 22.4 C 0 km/h
Sensor: Nr:Datum:Temp:Abs-Feuchte:Windchill:Wind:
Aussen-T/F 1926 22-07-2010 01:22:04 22.4 C 11.72 g/m*3 22.4 C 0 km/h
1927 22-07-2010 01:34:04 22.3 C 11.65 g/m*3 22.3 C 0 km/h
1928 22-07-2010 01:46:04 22 C 11.45 g/m*3 22 C 0 km/h
1929 22-07-2010 01:58:04 21.7 C 11.64 g/m*3 21.7 C 0 km/h
1930 22-07-2010 02:10:04 21.5 C 11.69 g/m*3 21.5 C 0 km/h
1931 22-07-2010 02:22:04 21.3 C 11.56 g/m*3 21.3 C 0 km/h
1932 22-07-2010 02:34:04 21.2 C 11.49 g/m*3 21.2 C 0 km/h
1933 22-07-2010 02:46:04 21.2 C 11.49 g/m*3 21.2 C 0 km/h
1934 22-07-2010 02:58:04 21.2 C 11.3 g/m*3 21.2 C 0 km/h
1935 22-07-2010 03:10:04 21.1 C 11.42 g/m*3 21.1 C 0 km/h
1936 22-07-2010 03:22:04 21.1 C 11.42 g/m*3 21.1 C 0 km/h
1937 22-07-2010 03:34:04 20.9 C 11.29 g/m*3 20.9 C 0 km/h
1938 22-07-2010 03:46:04 20.8 C 11.05 g/m*3 20.8 C 0 km/h
1939 22-07-2010 03:58:04 20.7 C 10.62 g/m*3 20.7 C 0 km/h
1940 22-07-2010 04:10:04 20.7 C 10.62 g/m*3 20.7 C 0 km/h
1941 22-07-2010 04:22:04 20.8 C 10.5 g/m*3 20.8 C 0 km/h
1942 22-07-2010 04:34:04 20.5 C 10.5 g/m*3 20.5 C 0 km/h
1943 22-07-2010 04:46:04 20.3 C 10.2 g/m*3 20.3 C 0 km/h
1944 22-07-2010 04:58:05 20.2 C 9.97 g/m*3 20.2 C 0 km/h
1945 22-07-2010 05:10:05 20.1 C 9.73 g/m*3 20.1 C 0 km/h
1946 22-07-2010 05:22:05 20.1 C 9.73 g/m*3 20.1 C 0 km/h
1947 22-07-2010 05:34:05 20 C 9.68 g/m*3 20 C 0 km/h
1948 22-07-2010 05:46:05 19.9 C 9.79 g/m*3 19.9 C 0 km/h
1949 22-07-2010 05:58:05 19.4 C 10.18 g/m*3 19.4 C 0 km/h
1950 22-07-2010 06:10:05 19.4 C 10.01 g/m*3 19.4 C 0 km/h
Sensor: Nr:Datum:Temp:Abs-Feuchte:Windchill:Wind:
Aussen-T/F 1951 22-07-2010 06:22:05 19.1 C 10.33 g/m*3 19.1 C 0 km/h
1952 22-07-2010 06:34:05 18.6 C 11.14 g/m*3 18.6 C 0 km/h
1953 22-07-2010 06:46:01 18.5 C 11.39 g/m*3 18.5 C 0 km/h
1954 22-07-2010 06:58:01 19 C 11.73 g/m*3 19 C 0 km/h
1955 22-07-2010 07:10:02 19 C 11.57 g/m*3 19 C 0 km/h
1956 22-07-2010 07:22:01 18.8 C 11.76 g/m*3 18.8 C 0 km/h
1957 22-07-2010 07:34:01 18.9 C 11.66 g/m*3 18.9 C 0 km/h
1958 22-07-2010 07:46:01 19.5 C 11.58 g/m*3 19.5 C 0 km/h
1959 22-07-2010 07:58:01 20 C 11.06 g/m*3 20 C 0 km/h
1960 22-07-2010 08:10:02 20.3 C 11.08 g/m*3 20.3 C 0 km/h
1961 22-07-2010 08:22:02 20.7 C 11.16 g/m*3 20.7 C 0 km/h
1962 22-07-2010 08:34:01 21 C 10.81 g/m*3 21 C 0 km/h
1963 22-07-2010 08:46:02 21.4 C 10.87 g/m*3 21.4 C 0 km/h
1964 22-07-2010 08:58:02 21.8 C 10.74 g/m*3 21.8 C 0 km/h
1965 22-07-2010 09:10:01 21.6 C 10.62 g/m*3 21.6 C 0 km/h
1966 22-07-2010 09:22:02 21.5 C 10.56 g/m*3 21.5 C 0 km/h
1967 22-07-2010 09:34:01 22.2 C 10.21 g/m*3 22.2 C 0 km/h
1968 22-07-2010 09:46:02 22.4 C 10.13 g/m*3 22.4 C 0 km/h
1969 22-07-2010 09:58:02 22.6 C 10.04 g/m*3 22.6 C 0 km/h
1970 22-07-2010 10:10:02 22.3 C 10.07 g/m*3 22.3 C 0 km/h
1971 22-07-2010 10:22:02 22.2 C 10.21 g/m*3 22.2 C 0 km/h
1972 22-07-2010 10:34:02 22.1 C 10.15 g/m*3 22.1 C 0 km/h
1973 22-07-2010 10:46:02 20.9 C 11.11 g/m*3 20.9 C 0 km/h
1974 22-07-2010 10:58:03 20.4 C 11.68 g/m*3 20.4 C 0 km/h
1975 22-07-2010 11:10:01 20.4 C 11.85 g/m*3 20.4 C 0 km/h
Sensor: Nr:Datum:Temp:Abs-Feuchte:Windchill:Wind:
Aussen-T/F 1976 22-07-2010 11:22:02 21.4 C 12.19 g/m*3 21.4 C 0 km/h
1977 22-07-2010 11:34:02 22 C 11.84 g/m*3 22 C 0 km/h
1978 22-07-2010 11:46:02 22.4 C 11.72 g/m*3 22.4 C 0 km/h
1979 22-07-2010 11:58:02 22.7 C 11.52 g/m*3 22.7 C 0 km/h
1980 22-07-2010 12:10:02 22.9 C 11.24 g/m*3 22.9 C 0 km/h
1981 22-07-2010 12:22:02 22.4 C 11.32 g/m*3 22.4 C 0 km/h
1982 22-07-2010 12:34:02 22.5 C 11.58 g/m*3 22.5 C 0 km/h
1983 22-07-2010 12:46:01 22.4 C 11.32 g/m*3 22.4 C 0 km/h
1984 22-07-2010 12:58:01 21.7 C 11.83 g/m*3 21.7 C 0 km/h
1985 22-07-2010 13:10:02 21.5 C 12.63 g/m*3 21.5 C 0 km/h
1986 22-07-2010 13:22:01 21 C 12.09 g/m*3 21 C 0 km/h
1987 22-07-2010 13:34:01 20.1 C 12.69 g/m*3 20.1 C 0 km/h
1988 22-07-2010 13:46:01 20.4 C 13.44 g/m*3 20.4 C 0 km/h
1989 22-07-2010 13:58:01 21.5 C 13.01 g/m*3 21.5 C 0 km/h
1990 22-07-2010 14:10:02 21.4 C 12.56 g/m*3 21.4 C 0 km/h
1991 22-07-2010 14:22:01 21.3 C 12.68 g/m*3 21.3 C 0 km/h
1992 22-07-2010 14:34:01 21.8 C 12.28 g/m*3 21.8 C 0 km/h
1993 22-07-2010 14:46:01 20.9 C 12.38 g/m*3 20.9 C 0 km/h
1994 22-07-2010 14:58:01 20.9 C 12.75 g/m*3 20.9 C 0 km/h
1995 22-07-2010 15:10:02 20.8 C 12.86 g/m*3 20.8 C 0 km/h
1996 22-07-2010 15:22:01 20.4 C 12.91 g/m*3 20.4 C 0 km/h
1997 22-07-2010 15:34:01 21.2 C 13.34 g/m*3 21.2 C 0 km/h
1998 22-07-2010 15:46:01 22 C 13 g/m*3 22 C 0 km/h
1999 22-07-2010 15:58:01 22.5 C 12.38 g/m*3 22.5 C 0 km/h
2000 22-07-2010 16:10:01 23.3 C 11.71 g/m*3 23.3 C 0 km/h
Sensor: Nr:Datum:Temp:Abs-Feuchte:Windchill:Wind:
Aussen-T/F 2001 22-07-2010 16:22:02 23.4 C 11.57 g/m*3 23.4 C 0 km/h
2002 22-07-2010 16:34:01 23.2 C 11.43 g/m*3 23.2 C 0 km/h
2003 22-07-2010 16:46:03 23.3 C 11.29 g/m*3 23.3 C 0 km/h
2004 22-07-2010 16:58:03 22.8 C 11.79 g/m*3 22.8 C 0 km/h
2005 22-07-2010 17:10:02 21.7 C 12.97 g/m*3 21.7 C 0 km/h
2006 22-07-2010 17:22:02 21.9 C 13.7 g/m*3 21.9 C 0 km/h
2007 22-07-2010 17:34:02 21.8 C 13.43 g/m*3 21.8 C 0 km/h
2008 22-07-2010 17:46:02 22.1 C 13.27 g/m*3 22.1 C 0 km/h
2009 22-07-2010 17:58:03 22.7 C 13.13 g/m*3 22.7 C 0 km/h
2010 22-07-2010 18:10:02 22.5 C 12.78 g/m*3 22.5 C 0 km/h
2011 22-07-2010 18:22:02 23.1 C 12.2 g/m*3 23.1 C 0 km/h
2012 22-07-2010 18:34:01 23.1 C 11.78 g/m*3 23.1 C 0 km/h
2013 22-07-2010 18:46:02 23 C 11.92 g/m*3 23 C 0 km/h
2014 22-07-2010 18:58:02 23.3 C 11.71 g/m*3 23.3 C 0 km/h
2015 22-07-2010 19:10:02 23.1 C 11.58 g/m*3 23.1 C 0 km/h
2016 22-07-2010 19:22:01 22.8 C 11.99 g/m*3 22.8 C 0 km/h
2017 22-07-2010 19:34:01 22.7 C 11.92 g/m*3 22.7 C 0 km/h
2018 22-07-2010 19:46:02 22.5 C 11.98 g/m*3 22.5 C 0 km/h
2019 22-07-2010 19:58:02 22.3 C 12.05 g/m*3 22.3 C 0 km/h
2020 22-07-2010 20:10:01 22.1 C 11.91 g/m*3 22.1 C 0 km/h
2021 22-07-2010 20:22:01 22 C 12.03 g/m*3 22 C 0 km/h
2022 22-07-2010 20:34:00 21.9 C 12.16 g/m*3 21.9 C 0 km/h
2023 22-07-2010 20:46:02 21.7 C 12.02 g/m*3 21.7 C 0 km/h
2024 22-07-2010 20:58:02 21.6 C 11.95 g/m*3 21.6 C 0 km/h
2025 22-07-2010 21:10:02 21.4 C 12 g/m*3 21.4 C 0 km/h
Sensor: Nr:Datum:Temp:Abs-Feuchte:Windchill:Wind:
Aussen-T/F 2026 22-07-2010 21:22:02 21.2 C 11.86 g/m*3 21.2 C 0 km/h
2027 22-07-2010 21:34:03 21 C 11.91 g/m*3 21 C 0 km/h
2028 22-07-2010 21:46:02 20.9 C 11.84 g/m*3 20.9 C 0 km/h
2029 22-07-2010 21:58:02 20.8 C 11.95 g/m*3 20.8 C 0 km/h
2030 22-07-2010 22:10:02 20.7 C 11.88 g/m*3 20.7 C 0 km/h
2031 22-07-2010 22:22:02 20.6 C 11.81 g/m*3 20.6 C 0 km/h
2032 22-07-2010 22:34:02 20.4 C 11.68 g/m*3 20.4 C 0 km/h
2033 22-07-2010 22:46:02 20.4 C 11.85 g/m*3 20.4 C 0 km/h
2034 22-07-2010 22:58:02 20.3 C 11.78 g/m*3 20.3 C 0 km/h
2035 22-07-2010 23:10:02 20.2 C 11.71 g/m*3 20.2 C 0 km/h
2036 22-07-2010 23:22:03 20.3 C 11.78 g/m*3 20.3 C 0 km/h
2037 22-07-2010 23:34:03 20.2 C 11.89 g/m*3 20.2 C 0 km/h
2038 22-07-2010 23:46:02 20.1 C 11.82 g/m*3 20.1 C 0 km/h
2039 22-07-2010 23:58:02 20.2 C 11.89 g/m*3 20.2 C 0 km/h
2040 23-07-2010 00:10:02 20.2 C 11.89 g/m*3 20.2 C 0 km/h
2041 23-07-2010 00:22:02 20.1 C 11.99 g/m*3 20.1 C 0 km/h
2042 23-07-2010 00:34:02 20 C 12.1 g/m*3 20 C 0 km/h
2043 23-07-2010 00:46:02 20.1 C 12.17 g/m*3 20.1 C 0 km/h
2044 23-07-2010 00:58:02 20.1 C 12.17 g/m*3 20.1 C 0 km/h
2045 23-07-2010 01:10:03 20 C 12.1 g/m*3 20 C 0 km/h
2046 23-07-2010 01:22:02 20 C 12.27 g/m*3 20 C 0 km/h
2047 23-07-2010 01:34:02 20 C 12.27 g/m*3 20 C 0 km/h
2048 23-07-2010 01:46:01 20 C 12.44 g/m*3 20 C 0 km/h
2049 23-07-2010 01:58:01 20 C 12.44 g/m*3 20 C 0 km/h
2050 23-07-2010 02:10:02 19.8 C 12.3 g/m*3 19.8 C 0 km/h
Sensor: Nr:Datum:Temp:Abs-Feuchte:Windchill:Wind:
Aussen-T/F 2051 23-07-2010 02:22:01 19.7 C 12.4 g/m*3 19.7 C 0 km/h
2052 23-07-2010 02:34:01 19.4 C 12.68 g/m*3 19.4 C 0 km/h
2053 23-07-2010 02:47:03 19 C 12.39 g/m*3 19 C 0 km/h
2054 23-07-2010 02:59:03 18.2 C 11.35 g/m*3 18.2 C 0 km/h
2055 23-07-2010 03:11:03 16.9 C 11.51 g/m*3 16.9 C 0 km/h
2056 23-07-2010 03:23:03 16.4 C 11.58 g/m*3 16.4 C 0 km/h
2057 23-07-2010 03:35:01 16.2 C 11.72 g/m*3 16.2 C 0 km/h
2058 23-07-2010 03:47:01 16.2 C 11.72 g/m*3 16.2 C 0 km/h
2059 23-07-2010 03:59:01 16 C 11.58 g/m*3 16 C 0 km/h
2060 23-07-2010 04:11:02 15.9 C 11.65 g/m*3 15.9 C 0 km/h
2061 23-07-2010 04:23:02 16 C 11.72 g/m*3 16 C 0 km/h
2062 23-07-2010 04:35:01 16.1 C 11.79 g/m*3 16.1 C 0 km/h
2063 23-07-2010 04:47:02 16.1 C 11.65 g/m*3 16.1 C 0 km/h
2064 23-07-2010 04:59:02 16.1 C 11.65 g/m*3 16.1 C 0 km/h
2065 23-07-2010 05:11:01 16 C 11.58 g/m*3 16 C 0 km/h
2066 23-07-2010 05:23:01 15.9 C 11.51 g/m*3 15.9 C 0 km/h
2067 23-07-2010 05:35:01 15.9 C 11.51 g/m*3 15.9 C 0 km/h
2068 23-07-2010 05:47:02 15.9 C 11.51 g/m*3 15.9 C 0 km/h
2069 23-07-2010 05:59:02 15.8 C 11.44 g/m*3 15.8 C 0 km/h
2070 23-07-2010 06:11:01 15.6 C 11.3 g/m*3 15.6 C 0 km/h
2071 23-07-2010 06:23:01 15.6 C 11.3 g/m*3 15.6 C 0 km/h
2072 23-07-2010 06:35:02 15.7 C 11.51 g/m*3 15.7 C 0 km/h
2073 23-07-2010 06:47:02 16 C 11.58 g/m*3 16 C 0 km/h
2074 23-07-2010 06:59:02 16.4 C 12 g/m*3 16.4 C 0 km/h
2075 23-07-2010 07:11:02 16.7 C 12.08 g/m*3 16.7 C 0 km/h
Sensor: Nr:Datum:Temp:Abs-Feuchte:Windchill:Wind:
Aussen-T/F 2076 23-07-2010 07:23:01 17 C 12.15 g/m*3 17 C 0 km/h
2077 23-07-2010 07:35:00 17.4 C 12.45 g/m*3 17.4 C 0 km/h
2078 23-07-2010 07:47:01 17.5 C 12.37 g/m*3 17.5 C 0 km/h
2079 23-07-2010 07:59:01 17.7 C 12.22 g/m*3 17.7 C 0 km/h
2080 23-07-2010 08:11:01 17.8 C 12.14 g/m*3 17.8 C 0 km/h
2081 23-07-2010 08:23:01 18 C 12.13 g/m*3 18 C 0 km/h
2082 23-07-2010 08:35:00 18 C 11.98 g/m*3 18 C 0 km/h
2083 23-07-2010 08:47:03 18.1 C 12.05 g/m*3 18.1 C 0 km/h
2084 23-07-2010 08:59:03 18.2 C 12.12 g/m*3 18.2 C 0 km/h
2085 23-07-2010 09:11:02 18.4 C 12.27 g/m*3 18.4 C 0 km/h
2086 23-07-2010 09:23:03 18.6 C 12.26 g/m*3 18.6 C 0 km/h
2087 23-07-2010 09:35:02 18.9 C 12.15 g/m*3 18.9 C 0 km/h
2088 23-07-2010 09:47:02 19.5 C 11.41 g/m*3 19.5 C 0 km/h
2089 23-07-2010 09:59:02 20 C 10.89 g/m*3 20 C 0 km/h
2090 23-07-2010 10:11:02 20.4 C 10.44 g/m*3 20.4 C 0 km/h
2091 23-07-2010 10:23:02 20.9 C 10.56 g/m*3 20.9 C 0 km/h
2092 23-07-2010 10:35:03 21.5 C 10.75 g/m*3 21.5 C 0 km/h
2093 23-07-2010 10:47:02 22 C 10.29 g/m*3 22 C 0 km/h
2094 23-07-2010 10:59:02 22.2 C 10.21 g/m*3 22.2 C 0 km/h
2095 23-07-2010 11:11:03 23.2 C 10.19 g/m*3 23.2 C 0 km/h
2096 23-07-2010 11:23:02 23.7 C 10.05 g/m*3 23.7 C 0 km/h
2097 23-07-2010 11:35:02 24.4 C 9.57 g/m*3 24.4 C 0 km/h
2098 23-07-2010 11:47:01 24.6 C 9.45 g/m*3 24.6 C 0 km/h
2099 23-07-2010 11:59:01 24.8 C 9.1 g/m*3 24.8 C 0 km/h
2100 23-07-2010 12:11:02 25.9 C 9.2 g/m*3 25.9 C 0 km/h
Sensor: Nr:Datum:Temp:Abs-Feuchte:Windchill:Wind:
Aussen-T/F 2101 23-07-2010 12:23:01 26.4 C 7.97 g/m*3 26.4 C 0 km/h
2102 23-07-2010 12:35:01 27.2 C 7.81 g/m*3 27.2 C 0 km/h
2103 23-07-2010 12:47:01 26.9 C 7.68 g/m*3 26.9 C 0 km/h
2104 23-07-2010 12:59:01 25.9 C 7.75 g/m*3 25.9 C 0 km/h
2105 23-07-2010 13:11:01 26.4 C 7.22 g/m*3 26.4 C 0 km/h
2106 23-07-2010 13:23:02 28.2 C 6.87 g/m*3 28.2 C 0 km/h
2107 23-07-2010 13:35:01 28.7 C 6.22 g/m*3 28.7 C 0 km/h
2108 23-07-2010 13:47:02 28 C 5.98 g/m*3 28 C 0 km/h
2109 23-07-2010 13:59:02 27.8 C 6.72 g/m*3 27.8 C 0 km/h
2110 23-07-2010 14:11:02 28.8 C 6.82 g/m*3 28.8 C 0 km/h
2111 23-07-2010 14:23:02 28.6 C 6.74 g/m*3 28.6 C 0 km/h
2112 23-07-2010 14:35:02 29.5 C 6.49 g/m*3 29.5 C 0 km/h
2113 23-07-2010 14:47:03 29.7 C 6.56 g/m*3 29.7 C 0 km/h
2114 23-07-2010 14:59:03 30.1 C 6.1 g/m*3 30.1 C 0 km/h
2115 23-07-2010 15:11:02 28.9 C 5.71 g/m*3 28.9 C 0 km/h
2116 23-07-2010 15:23:02 28.9 C 6.57 g/m*3 28.9 C 0 km/h
2117 23-07-2010 15:35:02 28.5 C 6.43 g/m*3 28.5 C 0 km/h
2118 23-07-2010 15:47:02 27.8 C 6.46 g/m*3 27.8 C 0 km/h
2119 23-07-2010 15:59:02 27.9 C 6.76 g/m*3 27.9 C 0 km/h
2120 23-07-2010 16:11:02 28.8 C 6.25 g/m*3 28.8 C 0 km/h
2121 23-07-2010 16:23:03 29.5 C 6.2 g/m*3 29.5 C 0 km/h
2122 23-07-2010 16:35:02 28.7 C 6.22 g/m*3 28.7 C 0 km/h
2123 23-07-2010 16:47:02 28.2 C 6.32 g/m*3 28.2 C 0 km/h
2124 23-07-2010 16:59:02 27.5 C 6.61 g/m*3 27.5 C 0 km/h
2125 23-07-2010 17:11:02 26.4 C 7.22 g/m*3 26.4 C 0 km/h
Sensor: Nr:Datum:Temp:Abs-Feuchte:Windchill:Wind:
Aussen-T/F 2126 23-07-2010 17:23:02 24.5 C 6.94 g/m*3 24.5 C 0 km/h
2127 23-07-2010 17:35:03 21.9 C 8.88 g/m*3 21.9 C 0 km/h
2128 23-07-2010 17:47:02 20.1 C 10.26 g/m*3 20.1 C 0 km/h
2129 23-07-2010 17:59:02 18.7 C 11.37 g/m*3 18.7 C 0 km/h
2130 23-07-2010 18:11:02 18.3 C 11.26 g/m*3 18.3 C 0 km/h
2131 23-07-2010 18:23:02 18 C 11.52 g/m*3 18 C 0 km/h
2132 23-07-2010 18:35:02 18 C 11.67 g/m*3 18 C 0 km/h
2133 23-07-2010 18:47:02 18.2 C 11.66 g/m*3 18.2 C 0 km/h
2134 23-07-2010 18:59:02 18 C 11.52 g/m*3 18 C 0 km/h
2135 23-07-2010 19:11:01 17.3 C 11.79 g/m*3 17.3 C 0 km/h
2136 23-07-2010 19:23:02 17.5 C 12.37 g/m*3 17.5 C 0 km/h
2137 23-07-2010 19:35:01 17 C 12.15 g/m*3 17 C 0 km/h
2138 23-07-2010 19:47:01 16.8 C 12.44 g/m*3 16.8 C 0 km/h
2139 23-07-2010 19:59:01 16.2 C 12.14 g/m*3 16.2 C 0 km/h
2140 23-07-2010 20:11:01 16 C 12.13 g/m*3 16 C 0 km/h
2141 23-07-2010 20:23:02 15.9 C 12.19 g/m*3 15.9 C 0 km/h
2142 23-07-2010 20:35:01 16 C 12.26 g/m*3 16 C 0 km/h
2143 23-07-2010 20:47:02 16.1 C 12.47 g/m*3 16.1 C 0 km/h
2144 23-07-2010 20:59:02 15.9 C 12.46 g/m*3 15.9 C 0 km/h
2145 23-07-2010 21:11:01 15.9 C 12.46 g/m*3 15.9 C 0 km/h
2146 23-07-2010 21:23:02 15.8 C 12.38 g/m*3 15.8 C 0 km/h
2147 23-07-2010 21:35:01 15.6 C 12.23 g/m*3 15.6 C 0 km/h
2148 23-07-2010 21:47:01 15.4 C 12.09 g/m*3 15.4 C 0 km/h
2149 23-07-2010 21:59:01 15.2 C 12.07 g/m*3 15.2 C 0 km/h
2150 23-07-2010 22:11:01 15.1 C 12 g/m*3 15.1 C 0 km/h
Sensor: Nr:Datum:Temp:Abs-Feuchte:Windchill:Wind:
Aussen-T/F 2151 23-07-2010 22:23:02 15.2 C 12.07 g/m*3 15.2 C 0 km/h
2152 23-07-2010 22:35:01 15.1 C 12 g/m*3 15.1 C 0 km/h
2153 23-07-2010 22:48:02 15.1 C 12 g/m*3 15.1 C 0 km/h
2154 23-07-2010 23:00:02 15.3 C 12.14 g/m*3 15.3 C 0 km/h
2155 23-07-2010 23:12:02 15.1 C 12 g/m*3 15.1 C 0 km/h
2156 23-07-2010 23:24:02 15.1 C 12.13 g/m*3 15.1 C 0 km/h
2157 23-07-2010 23:36:02 15 C 12.05 g/m*3 15 C 0 km/h
2158 23-07-2010 23:48:02 15 C 12.05 g/m*3 15 C 0 km/h
2159 24-07-2010 00:00:02 15 C 12.05 g/m*3 15 C 0 km/h
2160 24-07-2010 00:12:02 15 C 12.05 g/m*3 15 C 0 km/h
2161 24-07-2010 00:24:02 15 C 12.05 g/m*3 15 C 0 km/h
2162 24-07-2010 00:36:02 15 C 12.05 g/m*3 15 C 0 km/h
2163 24-07-2010 00:48:03 15.1 C 12.13 g/m*3 15.1 C 0 km/h
2164 24-07-2010 01:00:03 15 C 12.05 g/m*3 15 C 0 km/h
2165 24-07-2010 01:12:03 15 C 12.05 g/m*3 15 C 0 km/h
2166 24-07-2010 01:24:03 15.2 C 12.2 g/m*3 15.2 C 0 km/h
2167 24-07-2010 01:36:03 15.2 C 12.2 g/m*3 15.2 C 0 km/h
2168 24-07-2010 01:48:03 15.2 C 12.2 g/m*3 15.2 C 0 km/h
2169 24-07-2010 02:00:03 15.2 C 12.33 g/m*3 15.2 C 0 km/h
2170 24-07-2010 02:12:03 15.2 C 12.33 g/m*3 15.2 C 0 km/h
2171 24-07-2010 02:24:03 15.2 C 12.33 g/m*3 15.2 C 0 km/h
2172 24-07-2010 02:36:03 15.3 C 12.41 g/m*3 15.3 C 0 km/h
2173 24-07-2010 02:48:03 15.4 C 12.48 g/m*3 15.4 C 0 km/h
2174 24-07-2010 03:00:03 15.4 C 12.48 g/m*3 15.4 C 0 km/h
2175 24-07-2010 03:12:03 15.4 C 12.48 g/m*3 15.4 C 0 km/h
Sensor: Nr:Datum:Temp:Abs-Feuchte:Windchill:Wind:
Aussen-T/F 2176 24-07-2010 03:24:03 15.6 C 12.63 g/m*3 15.6 C 0 km/h
2177 24-07-2010 03:36:03 15.7 C 12.71 g/m*3 15.7 C 0 km/h
2178 24-07-2010 03:48:03 15.7 C 12.71 g/m*3 15.7 C 0 km/h
2179 24-07-2010 04:00:03 15.7 C 12.71 g/m*3 15.7 C 0 km/h
2180 24-07-2010 04:12:03 15.6 C 12.5 g/m*3 15.6 C 0 km/h
2181 24-07-2010 04:24:03 15.7 C 12.44 g/m*3 15.7 C 0 km/h
2182 24-07-2010 04:36:03 15.6 C 12.23 g/m*3 15.6 C 0 km/h
2183 24-07-2010 04:48:03 15.6 C 12.1 g/m*3 15.6 C 0 km/h
2184 24-07-2010 05:00:03 15.6 C 12.1 g/m*3 15.6 C 0 km/h
2185 24-07-2010 05:12:04 15.6 C 11.97 g/m*3 15.6 C 0 km/h
2186 24-07-2010 05:24:04 15.5 C 11.9 g/m*3 15.5 C 0 km/h
2187 24-07-2010 05:36:04 15.5 C 11.9 g/m*3 15.5 C 0 km/h
2188 24-07-2010 05:48:04 15.5 C 11.9 g/m*3 15.5 C 0 km/h
2189 24-07-2010 06:00:04 15.4 C 11.82 g/m*3 15.4 C 0 km/h
2190 24-07-2010 06:12:04 15.4 C 11.69 g/m*3 15.4 C 0 km/h
2191 24-07-2010 06:24:04 15.4 C 11.56 g/m*3 15.4 C 0 km/h
2192 24-07-2010 06:36:04 15.5 C 11.63 g/m*3 15.5 C 0 km/h
2193 24-07-2010 06:48:04 15.4 C 11.56 g/m*3 15.4 C 0 km/h
2194 24-07-2010 07:00:04 15.4 C 11.56 g/m*3 15.4 C 0 km/h
2195 24-07-2010 07:12:04 15.4 C 11.56 g/m*3 15.4 C 0 km/h
2196 24-07-2010 07:24:04 15.5 C 11.63 g/m*3 15.5 C 0 km/h
2197 24-07-2010 07:36:04 15.6 C 11.57 g/m*3 15.6 C 0 km/h
2198 24-07-2010 07:48:04 15.6 C 11.57 g/m*3 15.6 C 0 km/h
2199 24-07-2010 08:00:04 15.8 C 11.58 g/m*3 15.8 C 0 km/h
2200 24-07-2010 08:12:04 16 C 11.31 g/m*3 16 C 0 km/h
Sensor: Nr:Datum:Temp:Abs-Feuchte:Windchill:Wind:
Aussen-T/F 2201 24-07-2010 08:24:04 16.1 C 11.24 g/m*3 16.1 C 0 km/h
2202 24-07-2010 08:36:02 16.4 C 11.31 g/m*3 16.4 C 0 km/h
2203 24-07-2010 08:48:02 16.5 C 11.09 g/m*3 16.5 C 0 km/h
2204 24-07-2010 09:00:02 16.6 C 11.02 g/m*3 16.6 C 0 km/h
2205 24-07-2010 09:12:02 17 C 11 g/m*3 17 C 0 km/h
2206 24-07-2010 09:24:02 17.4 C 11.12 g/m*3 17.4 C 0 km/h
2207 24-07-2010 09:36:03 17.6 C 10.65 g/m*3 17.6 C 0 km/h
2208 24-07-2010 09:48:02 17.6 C 10.2 g/m*3 17.6 C 0 km/h
2209 24-07-2010 10:00:02 17.6 C 9.9 g/m*3 17.6 C 0 km/h
2210 24-07-2010 10:12:02 18.4 C 10.22 g/m*3 18.4 C 0 km/h
2211 24-07-2010 10:24:02 18.9 C 9.88 g/m*3 18.9 C 0 km/h
2212 24-07-2010 10:36:02 19.2 C 9.56 g/m*3 19.2 C 0 km/h
2213 24-07-2010 10:48:02 19 C 8.64 g/m*3 19 C 0 km/h
2214 24-07-2010 11:00:02 19.8 C 9.39 g/m*3 19.8 C 0 km/h
2215 24-07-2010 11:12:02 19.9 C 8.76 g/m*3 19.9 C 0 km/h
2216 24-07-2010 11:24:02 18.7 C 8.97 g/m*3 18.7 C 0 km/h
2217 24-07-2010 11:36:02 19.4 C 8.51 g/m*3 19.4 C 0 km/h
2218 24-07-2010 11:48:02 19.4 C 8.51 g/m*3 19.4 C 0 km/h
2219 24-07-2010 12:00:02 19.5 C 8.39 g/m*3 19.5 C 0 km/h
2220 24-07-2010 12:12:01 20.5 C 8.36 g/m*3 20.5 C 0 km/h
2221 24-07-2010 12:24:01 20.3 C 8.09 g/m*3 20.3 C 0 km/h
2222 24-07-2010 12:36:01 20.8 C 8.33 g/m*3 20.8 C 0 km/h
2223 24-07-2010 12:48:02 21.5 C 7.73 g/m*3 21.5 C 0 km/h
2224 24-07-2010 13:00:02 20.9 C 7.1 g/m*3 20.9 C 0 km/h
2225 24-07-2010 13:12:02 22.9 C 6.95 g/m*3 22.9 C 0 km/h
Sensor: Nr:Datum:Temp:Abs-Feuchte:Windchill:Wind:
Aussen-T/F 2226 24-07-2010 13:24:02 24.3 C 6.2 g/m*3 24.3 C 0 km/h
2227 24-07-2010 13:36:01 23.4 C 6.31 g/m*3 23.4 C 0 km/h
2228 24-07-2010 13:48:02 22.1 C 6.44 g/m*3 22.1 C 0 km/h
2229 24-07-2010 14:00:02 23.8 C 6.02 g/m*3 23.8 C 0 km/h
2230 24-07-2010 14:12:01 23.4 C 5.89 g/m*3 23.4 C 0 km/h
2231 24-07-2010 14:24:02 23.1 C 6.41 g/m*3 23.1 C 0 km/h
2232 24-07-2010 14:36:01 22.8 C 6.3 g/m*3 22.8 C 0 km/h
2233 24-07-2010 14:48:02 24.3 C 6.2 g/m*3 24.3 C 0 km/h
2234 24-07-2010 15:00:02 24 C 5.66 g/m*3 24 C 0 km/h
2235 24-07-2010 15:12:02 23.2 C 5.61 g/m*3 23.2 C 0 km/h
2236 24-07-2010 15:24:02 24.5 C 6.27 g/m*3 24.5 C 0 km/h
2237 24-07-2010 15:36:02 25.1 C 5.32 g/m*3 25.1 C 0 km/h
2238 24-07-2010 15:48:01 23.7 C 4.49 g/m*3 23.7 C 0 km/h
2239 24-07-2010 16:00:01 23.2 C 5.2 g/m*3 23.2 C 0 km/h
2240 24-07-2010 16:12:02 23.6 C 4.68 g/m*3 23.6 C 0 km/h
2241 24-07-2010 16:24:01 24.8 C 4.55 g/m*3 24.8 C 0 km/h
2242 24-07-2010 16:36:01 23.6 C 4.47 g/m*3 23.6 C 0 km/h
2243 24-07-2010 16:48:01 24.1 C 4.38 g/m*3 24.1 C 0 km/h
2244 24-07-2010 17:00:01 24.2 C 4.4 g/m*3 24.2 C 0 km/h
2245 24-07-2010 17:12:02 25.5 C 4.73 g/m*3 25.5 C 0 km/h
2246 24-07-2010 17:24:02 25.1 C 4.63 g/m*3 25.1 C 0 km/h
2247 24-07-2010 17:36:01 24.1 C 4.38 g/m*3 24.1 C 0 km/h
2248 24-07-2010 17:48:02 22.9 C 4.09 g/m*3 22.9 C 0 km/h
2249 24-07-2010 18:00:02 23 C 4.11 g/m*3 23 C 0 km/h
2250 24-07-2010 18:12:01 23.8 C 4.3 g/m*3 23.8 C 0 km/h
Sensor: Nr:Datum:Temp:Abs-Feuchte:Windchill:Wind:
Aussen-T/F 2251 24-07-2010 18:24:02 24.1 C 4.38 g/m*3 24.1 C 0 km/h
2252 24-07-2010 18:36:01 23.4 C 4.21 g/m*3 23.4 C 0 km/h
2253 24-07-2010 18:48:02 23.1 C 4.13 g/m*3 23.1 C 0 km/h
2254 24-07-2010 19:00:02 23.6 C 4.25 g/m*3 23.6 C 0 km/h
2255 24-07-2010 19:12:02 23.5 C 4.23 g/m*3 23.5 C 0 km/h
2256 24-07-2010 19:24:02 23.4 C 4.21 g/m*3 23.4 C 0 km/h
2257 24-07-2010 19:36:02 22.7 C 4.04 g/m*3 22.7 C 0 km/h
2258 24-07-2010 19:48:02 22.9 C 4.09 g/m*3 22.9 C 0 km/h
2259 24-07-2010 20:00:02 23 C 4.11 g/m*3 23 C 0 km/h
2260 24-07-2010 20:12:02 23.1 C 4.13 g/m*3 23.1 C 0 km/h
2261 24-07-2010 20:24:01 22.8 C 4.06 g/m*3 22.8 C 0 km/h
2262 24-07-2010 20:36:02 22.6 C 4.02 g/m*3 22.6 C 0 km/h
2263 24-07-2010 20:48:02 22.1 C 3.9 g/m*3 22.1 C 0 km/h
2264 24-07-2010 21:00:02 21.2 C 3.71 g/m*3 21.2 C 0 km/h
2265 24-07-2010 21:12:02 20.3 C 4.4 g/m*3 20.3 C 0 km/h
2266 24-07-2010 21:24:01 19.7 C 4.58 g/m*3 19.7 C 0 km/h
2267 24-07-2010 21:36:02 19 C 4.73 g/m*3 19 C 0 km/h
2268 24-07-2010 21:48:01 18.6 C 4.93 g/m*3 18.6 C 0 km/h
2269 24-07-2010 22:00:01 18.1 C 5.1 g/m*3 18.1 C 0 km/h
2270 24-07-2010 22:12:02 17.6 C 5.25 g/m*3 17.6 C 0 km/h
2271 24-07-2010 22:24:01 17.5 C 5.07 g/m*3 17.5 C 0 km/h
2272 24-07-2010 22:36:02 17.2 C 5.13 g/m*3 17.2 C 0 km/h
2273 24-07-2010 22:49:02 17.1 C 5.39 g/m*3 17.1 C 0 km/h
2274 24-07-2010 23:01:02 16.7 C 5.83 g/m*3 16.7 C 0 km/h
2275 24-07-2010 23:13:02 16.3 C 5.83 g/m*3 16.3 C 0 km/h
Sensor: Nr:Datum:Temp:Abs-Feuchte:Windchill:Wind:
Aussen-T/F 2276 24-07-2010 23:25:02 15.9 C 6.23 g/m*3 15.9 C 0 km/h
2277 24-07-2010 23:37:02 15.5 C 6.34 g/m*3 15.5 C 0 km/h
2278 24-07-2010 23:49:02 15.2 C 6.23 g/m*3 15.2 C 0 km/h
2279 25-07-2010 00:01:02 15 C 6.41 g/m*3 15 C 0 km/h
2280 25-07-2010 00:13:02 14.8 C 6.71 g/m*3 14.8 C 0 km/h
2281 25-07-2010 00:25:02 14.6 C 6.76 g/m*3 14.6 C 0 km/h
2282 25-07-2010 00:37:02 14.2 C 6.47 g/m*3 14.2 C 0 km/h
2283 25-07-2010 00:49:02 14.1 C 6.55 g/m*3 14.1 C 0 km/h
2284 25-07-2010 01:01:02 13.8 C 6.79 g/m*3 13.8 C 0 km/h
2285 25-07-2010 01:13:03 13.7 C 6.87 g/m*3 13.7 C 0 km/h
2286 25-07-2010 01:25:03 13.5 C 6.78 g/m*3 13.5 C 0 km/h
2287 25-07-2010 01:37:03 13.3 C 6.82 g/m*3 13.3 C 0 km/h
2288 25-07-2010 01:49:03 13.2 C 6.77 g/m*3 13.2 C 0 km/h
2289 25-07-2010 02:01:03 13.1 C 6.96 g/m*3 13.1 C 0 km/h
2290 25-07-2010 02:13:03 12.9 C 6.99 g/m*3 12.9 C 0 km/h
2291 25-07-2010 02:25:03 12.7 C 7.01 g/m*3 12.7 C 0 km/h
2292 25-07-2010 02:37:03 12.5 C 6.93 g/m*3 12.5 C 0 km/h
2293 25-07-2010 02:49:03 12.3 C 6.95 g/m*3 12.3 C 0 km/h
2294 25-07-2010 03:01:03 12.2 C 7.01 g/m*3 12.2 C 0 km/h
2295 25-07-2010 03:13:03 12 C 7.14 g/m*3 12 C 0 km/h
2296 25-07-2010 03:25:03 11.8 C 7.05 g/m*3 11.8 C 0 km/h
2297 25-07-2010 03:37:03 11.8 C 7.05 g/m*3 11.8 C 0 km/h
2298 25-07-2010 03:49:03 11.5 C 7.02 g/m*3 11.5 C 0 km/h
2299 25-07-2010 04:01:03 11.3 C 7.14 g/m*3 11.3 C 0 km/h
2300 25-07-2010 04:13:03 11.1 C 7.25 g/m*3 11.1 C 0 km/h
Sensor: Nr:Datum:Temp:Abs-Feuchte:Windchill:Wind:
Aussen-T/F 2301 25-07-2010 04:25:03 11 C 7.31 g/m*3 11 C 0 km/h
2302 25-07-2010 04:37:03 10.8 C 7.41 g/m*3 10.8 C 0 km/h
2303 25-07-2010 04:49:03 10.6 C 7.42 g/m*3 10.6 C 0 km/h
2304 25-07-2010 05:01:03 10.5 C 7.47 g/m*3 10.5 C 0 km/h
2305 25-07-2010 05:13:03 10.3 C 7.37 g/m*3 10.3 C 0 km/h
2306 25-07-2010 05:25:03 10.1 C 7.38 g/m*3 10.1 C 0 km/h
2307 25-07-2010 05:37:04 10 C 7.33 g/m*3 10 C 0 km/h
2308 25-07-2010 05:49:04 9.9 C 7.38 g/m*3 9.9 C 0 km/h
2309 25-07-2010 06:01:04 10 C 7.33 g/m*3 10 C 0 km/h
2310 25-07-2010 06:13:04 10 C 7.42 g/m*3 10 C 0 km/h
2311 25-07-2010 06:25:04 10 C 7.42 g/m*3 10 C 0 km/h
2312 25-07-2010 06:37:04 10 C 7.42 g/m*3 10 C 0 km/h
2313 25-07-2010 06:49:04 10.2 C 7.42 g/m*3 10.2 C 0 km/h
2314 25-07-2010 07:01:04 10.3 C 7.47 g/m*3 10.3 C 0 km/h
2315 25-07-2010 07:13:04 10.7 C 7.56 g/m*3 10.7 C 0 km/h
2316 25-07-2010 07:25:04 11 C 7.61 g/m*3 11 C 0 km/h
2317 25-07-2010 07:37:04 11.2 C 7.5 g/m*3 11.2 C 0 km/h
2318 25-07-2010 07:49:04 11.4 C 7.6 g/m*3 11.4 C 0 km/h
2319 25-07-2010 08:01:04 11.5 C 7.75 g/m*3 11.5 C 0 km/h
2320 25-07-2010 08:13:04 11.5 C 7.95 g/m*3 11.5 C 0 km/h
2321 25-07-2010 08:25:04 12 C 7.99 g/m*3 12 C 0 km/h
2322 25-07-2010 08:37:04 12.5 C 7.92 g/m*3 12.5 C 0 km/h
2323 25-07-2010 08:49:04 13.1 C 7.87 g/m*3 13.1 C 0 km/h
2324 25-07-2010 09:01:04 13.8 C 7.86 g/m*3 13.8 C 0 km/h
2325 25-07-2010 09:13:04 14.3 C 7.49 g/m*3 14.3 C 0 km/h
Sensor: Nr:Datum:Temp:Abs-Feuchte:Windchill:Wind:
Aussen-T/F 2326 25-07-2010 09:25:04 14.8 C 7.6 g/m*3 14.8 C 0 km/h
2327 25-07-2010 09:37:04 15.6 C 7.58 g/m*3 15.6 C 0 km/h
2328 25-07-2010 09:49:02 16.2 C 7.45 g/m*3 16.2 C 0 km/h
2329 25-07-2010 10:01:02 16.6 C 7.2 g/m*3 16.6 C 0 km/h
2330 25-07-2010 10:13:02 17.5 C 7.01 g/m*3 17.5 C 0 km/h
2331 25-07-2010 10:25:02 17.8 C 6.68 g/m*3 17.8 C 0 km/h
2332 25-07-2010 10:37:02 18.4 C 6.45 g/m*3 18.4 C 0 km/h
2333 25-07-2010 10:49:02 18.7 C 6.4 g/m*3 18.7 C 0 km/h
2334 25-07-2010 11:01:02 19.3 C 6.3 g/m*3 19.3 C 0 km/h
2335 25-07-2010 11:13:02 20.9 C 6.37 g/m*3 20.9 C 0 km/h
2336 25-07-2010 11:25:03 21.2 C 5.93 g/m*3 21.2 C 0 km/h
2337 25-07-2010 11:37:02 21.2 C 5.93 g/m*3 21.2 C 0 km/h
2338 25-07-2010 11:49:03 21.7 C 6.1 g/m*3 21.7 C 0 km/h
2339 25-07-2010 12:01:02 21.5 C 6.03 g/m*3 21.5 C 0 km/h
2340 25-07-2010 12:13:03 22.3 C 6.12 g/m*3 22.3 C 0 km/h
2341 25-07-2010 12:25:02 23.2 C 5.82 g/m*3 23.2 C 0 km/h
2342 25-07-2010 12:37:02 24.2 C 5.72 g/m*3 24.2 C 0 km/h
2343 25-07-2010 12:49:02 23.5 C 5.71 g/m*3 23.5 C 0 km/h
2344 25-07-2010 13:01:02 23.5 C 6.13 g/m*3 23.5 C 0 km/h
2345 25-07-2010 13:13:02 23.3 C 6.06 g/m*3 23.3 C 0 km/h
2346 25-07-2010 13:25:03 23.2 C 6.24 g/m*3 23.2 C 0 km/h
2347 25-07-2010 13:37:02 23.5 C 6.34 g/m*3 23.5 C 0 km/h
2348 25-07-2010 13:49:03 23.4 C 6.31 g/m*3 23.4 C 0 km/h
2349 25-07-2010 14:01:02 23.2 C 6.44 g/m*3 23.2 C 0 km/h
2350 25-07-2010 14:13:02 22.6 C 7.43 g/m*3 22.6 C 0 km/h
Sensor: Nr:Datum:Temp:Abs-Feuchte:Windchill:Wind:
Aussen-T/F 2351 25-07-2010 14:25:02 21.5 C 6.79 g/m*3 21.5 C 0 km/h
2352 25-07-2010 14:37:02 21.6 C 7.21 g/m*3 21.6 C 0 km/h
2353 25-07-2010 14:49:02 22.1 C 6.83 g/m*3 22.1 C 0 km/h
2354 25-07-2010 15:01:02 22.2 C 6.87 g/m*3 22.2 C 0 km/h
2355 25-07-2010 15:13:02 22.2 C 6.68 g/m*3 22.2 C 0 km/h
2356 25-07-2010 15:25:02 21.6 C 6.83 g/m*3 21.6 C 0 km/h
2357 25-07-2010 15:37:01 21 C 7.14 g/m*3 21 C 0 km/h
2358 25-07-2010 15:49:02 20.9 C 7.47 g/m*3 20.9 C 0 km/h
2359 25-07-2010 16:01:01 21.6 C 7.21 g/m*3 21.6 C 0 km/h
2360 25-07-2010 16:13:01 21.9 C 7.14 g/m*3 21.9 C 0 km/h
2361 25-07-2010 16:25:02 22.1 C 6.83 g/m*3 22.1 C 0 km/h
2362 25-07-2010 16:37:02 22.1 C 7.03 g/m*3 22.1 C 0 km/h
2363 25-07-2010 16:49:02 22.2 C 7.46 g/m*3 22.2 C 0 km/h
2364 25-07-2010 17:01:03 23.5 C 6.77 g/m*3 23.5 C 0 km/h
2365 25-07-2010 17:13:03 23.7 C 6.63 g/m*3 23.7 C 0 km/h
2366 25-07-2010 17:25:02 23.3 C 6.69 g/m*3 23.3 C 0 km/h
2367 25-07-2010 17:37:02 23.4 C 6.31 g/m*3 23.4 C 0 km/h
2368 25-07-2010 17:49:01 23.1 C 6.61 g/m*3 23.1 C 0 km/h
2369 25-07-2010 18:01:02 22.8 C 7.32 g/m*3 22.8 C 0 km/h
2370 25-07-2010 18:13:02 22.5 C 7.39 g/m*3 22.5 C 0 km/h
2371 25-07-2010 18:25:01 22.4 C 7.35 g/m*3 22.4 C 0 km/h
2372 25-07-2010 18:37:01 22 C 7.57 g/m*3 22 C 0 km/h
2373 25-07-2010 18:49:01 21.6 C 7.97 g/m*3 21.6 C 0 km/h
2374 25-07-2010 19:01:02 21.3 C 8.2 g/m*3 21.3 C 0 km/h
2375 25-07-2010 19:13:02 20.9 C 8.2 g/m*3 20.9 C 0 km/h
Sensor: Nr:Datum:Temp:Abs-Feuchte:Windchill:Wind:
Aussen-T/F 2376 25-07-2010 19:25:02 20.6 C 8.59 g/m*3 20.6 C 0 km/h
2377 25-07-2010 19:37:01 20.6 C 7.34 g/m*3 20.6 C 0 km/h
2378 25-07-2010 19:49:01 20.6 C 7.16 g/m*3 20.6 C 0 km/h
2379 25-07-2010 20:01:01 20.6 C 7.34 g/m*3 20.6 C 0 km/h
2380 25-07-2010 20:13:01 20.5 C 7.3 g/m*3 20.5 C 0 km/h
2381 25-07-2010 20:25:02 20.4 C 7.43 g/m*3 20.4 C 0 km/h
2382 25-07-2010 20:37:01 19.9 C 8.08 g/m*3 19.9 C 0 km/h
2383 25-07-2010 20:49:02 19.4 C 8.84 g/m*3 19.4 C 0 km/h
2384 25-07-2010 21:01:01 19.1 C 9.18 g/m*3 19.1 C 0 km/h
2385 25-07-2010 21:13:01 19.2 C 9.23 g/m*3 19.2 C 0 km/h
2386 25-07-2010 21:25:02 19.1 C 9.51 g/m*3 19.1 C 0 km/h
2387 25-07-2010 21:37:01 19.1 C 9.51 g/m*3 19.1 C 0 km/h
2388 25-07-2010 21:49:01 18.9 C 9.72 g/m*3 18.9 C 0 km/h
2389 25-07-2010 22:01:01 18.8 C 9.82 g/m*3 18.8 C 0 km/h
2390 25-07-2010 22:13:01 18.5 C 9.97 g/m*3 18.5 C 0 km/h
2391 25-07-2010 22:26:02 18.3 C 10.16 g/m*3 18.3 C 0 km/h
2392 25-07-2010 22:38:02 18.2 C 10.41 g/m*3 18.2 C 0 km/h
2393 25-07-2010 22:50:02 18.1 C 10.51 g/m*3 18.1 C 0 km/h
2394 25-07-2010 23:02:03 17.9 C 10.54 g/m*3 17.9 C 0 km/h
2395 25-07-2010 23:14:03 18 C 10.29 g/m*3 18 C 0 km/h
2396 25-07-2010 23:26:03 17.9 C 10.23 g/m*3 17.9 C 0 km/h
2397 25-07-2010 23:38:03 17.8 C 10.17 g/m*3 17.8 C 0 km/h
2398 25-07-2010 23:50:03 17.8 C 10.17 g/m*3 17.8 C 0 km/h
2399 26-07-2010 00:02:03 17.6 C 9.9 g/m*3 17.6 C 0 km/h
2400 26-07-2010 00:14:03 17.6 C 9.9 g/m*3 17.6 C 0 km/h
Sensor: Nr:Datum:Temp:Abs-Feuchte:Windchill:Wind:
Aussen-T/F 2401 26-07-2010 00:26:03 17.6 C 9.9 g/m*3 17.6 C 0 km/h
2402 26-07-2010 00:38:03 17.6 C 10.05 g/m*3 17.6 C 0 km/h
2403 26-07-2010 00:50:03 17.4 C 9.93 g/m*3 17.4 C 0 km/h
2404 26-07-2010 01:02:03 17.3 C 9.87 g/m*3 17.3 C 0 km/h
2405 26-07-2010 01:14:03 17.2 C 9.96 g/m*3 17.2 C 0 km/h
2406 26-07-2010 01:26:03 17.2 C 9.96 g/m*3 17.2 C 0 km/h
2407 26-07-2010 01:38:03 17.3 C 10.02 g/m*3 17.3 C 0 km/h
2408 26-07-2010 01:50:03 17.3 C 10.16 g/m*3 17.3 C 0 km/h
2409 26-07-2010 02:02:03 17 C 9.98 g/m*3 17 C 0 km/h
2410 26-07-2010 02:14:03 16.9 C 10.07 g/m*3 16.9 C 0 km/h
2411 26-07-2010 02:26:03 16.8 C 10.01 g/m*3 16.8 C 0 km/h
2412 26-07-2010 02:38:03 16.8 C 10.15 g/m*3 16.8 C 0 km/h
2413 26-07-2010 02:50:03 16.5 C 9.97 g/m*3 16.5 C 0 km/h
2414 26-07-2010 03:02:03 16.4 C 10.05 g/m*3 16.4 C 0 km/h
2415 26-07-2010 03:14:03 16.4 C 10.19 g/m*3 16.4 C 0 km/h
2416 26-07-2010 03:26:03 16.4 C 10.33 g/m*3 16.4 C 0 km/h
2417 26-07-2010 03:38:04 16.4 C 10.33 g/m*3 16.4 C 0 km/h
2418 26-07-2010 03:50:04 16.5 C 10.11 g/m*3 16.5 C 0 km/h
2419 26-07-2010 04:02:04 16.6 C 10.17 g/m*3 16.6 C 0 km/h
2420 26-07-2010 04:14:04 16.4 C 10.47 g/m*3 16.4 C 0 km/h
2421 26-07-2010 04:26:04 16.4 C 10.61 g/m*3 16.4 C 0 km/h
2422 26-07-2010 04:38:04 16.1 C 10.69 g/m*3 16.1 C 0 km/h
2423 26-07-2010 04:50:04 15.7 C 10.97 g/m*3 15.7 C 0 km/h
2424 26-07-2010 05:02:04 15.6 C 11.04 g/m*3 15.6 C 0 km/h
2425 26-07-2010 05:14:04 15.6 C 11.3 g/m*3 15.6 C 0 km/h
Sensor: Nr:Datum:Temp:Abs-Feuchte:Windchill:Wind:
Aussen-T/F 2426 26-07-2010 05:26:04 15.5 C 11.37 g/m*3 15.5 C 0 km/h
2427 26-07-2010 05:38:04 15.6 C 11.44 g/m*3 15.6 C 0 km/h
2428 26-07-2010 05:50:04 15.3 C 11.23 g/m*3 15.3 C 0 km/h
2429 26-07-2010 06:02:04 15.4 C 11.3 g/m*3 15.4 C 0 km/h
2430 26-07-2010 06:14:04 15.4 C 11.43 g/m*3 15.4 C 0 km/h
2431 26-07-2010 06:26:04 15.4 C 11.43 g/m*3 15.4 C 0 km/h
2432 26-07-2010 06:38:04 15.4 C 11.56 g/m*3 15.4 C 0 km/h
2433 26-07-2010 06:50:04 15.4 C 11.56 g/m*3 15.4 C 0 km/h
2434 26-07-2010 07:02:02 15.7 C 11.91 g/m*3 15.7 C 0 km/h
2435 26-07-2010 07:14:02 16 C 11.99 g/m*3 16 C 0 km/h
2436 26-07-2010 07:26:03 16 C 11.99 g/m*3 16 C 0 km/h
2437 26-07-2010 07:38:02 16.1 C 11.93 g/m*3 16.1 C 0 km/h
2438 26-07-2010 07:50:02 16.3 C 11.93 g/m*3 16.3 C 0 km/h
2439 26-07-2010 08:02:02 16.5 C 11.94 g/m*3 16.5 C 0 km/h
2440 26-07-2010 08:14:02 16.6 C 11.87 g/m*3 16.6 C 0 km/h
2441 26-07-2010 08:26:02 16.9 C 11.94 g/m*3 16.9 C 0 km/h
2442 26-07-2010 08:38:02 17.5 C 12.08 g/m*3 17.5 C 0 km/h
2443 26-07-2010 08:50:01 17.4 C 11.71 g/m*3 17.4 C 0 km/h
2444 26-07-2010 09:02:02 17.8 C 11.84 g/m*3 17.8 C 0 km/h
2445 26-07-2010 09:14:02 18.2 C 11.81 g/m*3 18.2 C 0 km/h
2446 26-07-2010 09:26:01 18.3 C 11.57 g/m*3 18.3 C 0 km/h
2447 26-07-2010 09:38:01 18.8 C 11.92 g/m*3 18.8 C 0 km/h
2448 26-07-2010 09:50:02 18.8 C 11.43 g/m*3 18.8 C 0 km/h
2449 26-07-2010 10:02:02 18.7 C 11.37 g/m*3 18.7 C 0 km/h
2450 26-07-2010 10:14:02 19.1 C 10.98 g/m*3 19.1 C 0 km/h
Sensor: Nr:Datum:Temp:Abs-Feuchte:Windchill:Wind:
Aussen-T/F 2451 26-07-2010 10:26:02 20.2 C 11.02 g/m*3 20.2 C 0 km/h
2452 26-07-2010 10:38:02 21.1 C 10.32 g/m*3 21.1 C 0 km/h
2453 26-07-2010 10:50:02 22.1 C 9.76 g/m*3 22.1 C 0 km/h
2454 26-07-2010 11:02:01 21.8 C 9.78 g/m*3 21.8 C 0 km/h
2455 26-07-2010 11:14:01 22.6 C 10.04 g/m*3 22.6 C 0 km/h
2456 26-07-2010 11:26:02 22.5 C 9.59 g/m*3 22.5 C 0 km/h
2457 26-07-2010 11:38:02 19.4 C 10.68 g/m*3 19.4 C 0 km/h
2458 26-07-2010 11:50:02 18.4 C 12.11 g/m*3 18.4 C 0 km/h
2459 26-07-2010 12:02:02 19.1 C 13.11 g/m*3 19.1 C 0 km/h
2460 26-07-2010 12:14:02 19.5 C 12.59 g/m*3 19.5 C 0 km/h
2461 26-07-2010 12:26:02 19.5 C 12.25 g/m*3 19.5 C 0 km/h
2462 26-07-2010 12:38:02 18.5 C 12.18 g/m*3 18.5 C 0 km/h
2463 26-07-2010 12:50:01 18.6 C 12.57 g/m*3 18.6 C 0 km/h
2464 26-07-2010 13:02:01 19 C 13.04 g/m*3 19 C 0 km/h
2465 26-07-2010 13:14:01 18.5 C 12.34 g/m*3 18.5 C 0 km/h
2466 26-07-2010 13:26:01 18 C 12.44 g/m*3 18 C 0 km/h
2467 26-07-2010 13:38:01 17.8 C 12.9 g/m*3 17.8 C 0 km/h
2468 26-07-2010 13:50:01 17.5 C 12.82 g/m*3 17.5 C 0 km/h
2469 26-07-2010 14:02:01 17.5 C 12.97 g/m*3 17.5 C 0 km/h
2470 26-07-2010 14:14:01 17.7 C 13.43 g/m*3 17.7 C 0 km/h
2471 26-07-2010 14:26:02 17.3 C 13.11 g/m*3 17.3 C 0 km/h
2472 26-07-2010 14:38:01 17.1 C 13.1 g/m*3 17.1 C 0 km/h
2473 26-07-2010 14:50:02 17.2 C 13.18 g/m*3 17.2 C 0 km/h
2474 26-07-2010 15:02:02 17.4 C 13.49 g/m*3 17.4 C 0 km/h
2475 26-07-2010 15:14:02 17.3 C 13.41 g/m*3 17.3 C 0 km/h
Sensor: Nr:Datum:Temp:Abs-Feuchte:Windchill:Wind:
Aussen-T/F 2476 26-07-2010 15:26:02 17.6 C 13.65 g/m*3 17.6 C 0 km/h
2477 26-07-2010 15:38:03 18.2 C 13.83 g/m*3 18.2 C 0 km/h
2478 26-07-2010 15:50:02 19.1 C 14.1 g/m*3 19.1 C 0 km/h
2479 26-07-2010 16:02:02 19.1 C 13.77 g/m*3 19.1 C 0 km/h
2480 26-07-2010 16:14:02 19.5 C 13.26 g/m*3 19.5 C 0 km/h
2481 26-07-2010 16:26:02 19.1 C 12.79 g/m*3 19.1 C 0 km/h
2482 26-07-2010 16:38:02 19.5 C 13.43 g/m*3 19.5 C 0 km/h
2483 26-07-2010 16:50:02 21.2 C 13.71 g/m*3 21.2 C 0 km/h
2484 26-07-2010 17:02:02 21 C 12.64 g/m*3 21 C 0 km/h
2485 26-07-2010 17:14:02 19.5 C 10.74 g/m*3 19.5 C 0 km/h
2486 26-07-2010 17:26:02 18.7 C 10.73 g/m*3 18.7 C 0 km/h
2487 26-07-2010 17:38:02 18.1 C 11.28 g/m*3 18.1 C 0 km/h
2488 26-07-2010 17:50:02 18.1 C 11.28 g/m*3 18.1 C 0 km/h
2489 26-07-2010 18:02:02 18.2 C 11.19 g/m*3 18.2 C 0 km/h
2490 26-07-2010 18:14:02 17.3 C 11.05 g/m*3 17.3 C 0 km/h
2491 26-07-2010 18:26:03 16.8 C 11.29 g/m*3 16.8 C 0 km/h
2492 26-07-2010 18:38:02 16.8 C 11.44 g/m*3 16.8 C 0 km/h
2493 26-07-2010 18:50:03 16.7 C 11.65 g/m*3 16.7 C 0 km/h
2494 26-07-2010 19:02:02 16.8 C 11.72 g/m*3 16.8 C 0 km/h
2495 26-07-2010 19:14:02 17.1 C 11.79 g/m*3 17.1 C 0 km/h
2496 26-07-2010 19:26:02 17.1 C 11.65 g/m*3 17.1 C 0 km/h
2497 26-07-2010 19:38:02 16.8 C 11.58 g/m*3 16.8 C 0 km/h
2498 26-07-2010 19:50:02 16.8 C 11.29 g/m*3 16.8 C 0 km/h
2499 26-07-2010 20:02:01 16.7 C 10.94 g/m*3 16.7 C 0 km/h
2500 26-07-2010 20:14:01 16.4 C 11.03 g/m*3 16.4 C 0 km/h
Sensor: Nr:Datum:Temp:Abs-Feuchte:Windchill:Wind:
Aussen-T/F 2501 26-07-2010 20:26:02 16.2 C 11.17 g/m*3 16.2 C 0 km/h
2502 26-07-2010 20:38:02 15.9 C 11.24 g/m*3 15.9 C 0 km/h
2503 26-07-2010 20:50:01 15.6 C 11.17 g/m*3 15.6 C 0 km/h
2504 26-07-2010 21:02:02 15.4 C 11.04 g/m*3 15.4 C 0 km/h
2505 26-07-2010 21:14:02 15.4 C 11.3 g/m*3 15.4 C 0 km/h
2506 26-07-2010 21:26:01 15.3 C 11.36 g/m*3 15.3 C 0 km/h
2507 26-07-2010 21:38:01 15.2 C 11.29 g/m*3 15.2 C 0 km/h
2508 26-07-2010 21:50:01 15.2 C 11.42 g/m*3 15.2 C 0 km/h
2509 26-07-2010 22:02:02 15.3 C 11.36 g/m*3 15.3 C 0 km/h
2510 26-07-2010 22:14:02 15.3 C 10.97 g/m*3 15.3 C 0 km/h
2511 26-07-2010 22:27:04 15.2 C 10.77 g/m*3 15.2 C 0 km/h
2512 26-07-2010 22:39:04 15.2 C 10.64 g/m*3 15.2 C 0 km/h
2513 26-07-2010 22:51:04 15.1 C 10.58 g/m*3 15.1 C 0 km/h
2514 26-07-2010 23:03:04 15.1 C 10.58 g/m*3 15.1 C 0 km/h
2515 26-07-2010 23:15:04 15.1 C 10.71 g/m*3 15.1 C 0 km/h
2516 26-07-2010 23:27:04 15.3 C 10.84 g/m*3 15.3 C 0 km/h
2517 26-07-2010 23:39:04 15.4 C 11.04 g/m*3 15.4 C 0 km/h
2518 26-07-2010 23:51:04 15.4 C 11.04 g/m*3 15.4 C 0 km/h
2519 27-07-2010 00:03:04 15.4 C 11.04 g/m*3 15.4 C 0 km/h
2520 27-07-2010 00:15:04 15.4 C 11.04 g/m*3 15.4 C 0 km/h
2521 27-07-2010 00:27:04 15.3 C 11.1 g/m*3 15.3 C 0 km/h
2522 27-07-2010 00:39:05 15.4 C 11.3 g/m*3 15.4 C 0 km/h
2523 27-07-2010 00:51:05 15.2 C 11.16 g/m*3 15.2 C 0 km/h
2524 27-07-2010 01:03:05 15.3 C 11.23 g/m*3 15.3 C 0 km/h
2525 27-07-2010 01:15:05 15.3 C 11.23 g/m*3 15.3 C 0 km/h
Sensor: Nr:Datum:Temp:Abs-Feuchte:Windchill:Wind:
Aussen-T/F 2526 27-07-2010 01:27:05 15.6 C 11.3 g/m*3 15.6 C 0 km/h
2527 27-07-2010 01:39:05 15.6 C 11.17 g/m*3 15.6 C 0 km/h
2528 27-07-2010 01:51:05 15.6 C 11.04 g/m*3 15.6 C 0 km/h
2529 27-07-2010 02:03:05 15.6 C 11.04 g/m*3 15.6 C 0 km/h
2530 27-07-2010 02:15:05 15.6 C 11.04 g/m*3 15.6 C 0 km/h
2531 27-07-2010 02:27:05 15.6 C 11.04 g/m*3 15.6 C 0 km/h
2532 27-07-2010 02:39:05 15.6 C 11.04 g/m*3 15.6 C 0 km/h
2533 27-07-2010 02:51:05 15.6 C 11.04 g/m*3 15.6 C 0 km/h
2534 27-07-2010 03:03:05 15.6 C 11.04 g/m*3 15.6 C 0 km/h
2535 27-07-2010 03:15:05 15.5 C 10.97 g/m*3 15.5 C 0 km/h
2536 27-07-2010 03:27:05 15.4 C 10.9 g/m*3 15.4 C 0 km/h
2537 27-07-2010 03:39:05 15.3 C 10.84 g/m*3 15.3 C 0 km/h
2538 27-07-2010 03:51:05 15.3 C 11.1 g/m*3 15.3 C 0 km/h
2539 27-07-2010 04:03:05 15.4 C 11.04 g/m*3 15.4 C 0 km/h
2540 27-07-2010 04:15:05 15.3 C 10.84 g/m*3 15.3 C 0 km/h
2541 27-07-2010 04:27:05 15.4 C 10.9 g/m*3 15.4 C 0 km/h
2542 27-07-2010 04:39:06 15.2 C 10.77 g/m*3 15.2 C 0 km/h
2543 27-07-2010 04:51:06 15 C 10.64 g/m*3 15 C 0 km/h
2544 27-07-2010 05:03:06 15.2 C 10.9 g/m*3 15.2 C 0 km/h
2545 27-07-2010 05:15:06 15.2 C 10.9 g/m*3 15.2 C 0 km/h
2546 27-07-2010 05:27:06 15.2 C 10.9 g/m*3 15.2 C 0 km/h
2547 27-07-2010 05:39:06 15 C 10.77 g/m*3 15 C 0 km/h
2548 27-07-2010 05:51:06 15.1 C 10.71 g/m*3 15.1 C 0 km/h
2549 27-07-2010 06:03:06 15.2 C 10.77 g/m*3 15.2 C 0 km/h
2550 27-07-2010 06:15:06 15.3 C 10.84 g/m*3 15.3 C 0 km/h
Sensor: Nr:Datum:Temp:Abs-Feuchte:Windchill:Wind:
Aussen-T/F 2551 27-07-2010 06:27:06 15.3 C 10.84 g/m*3 15.3 C 0 km/h
2552 27-07-2010 06:39:06 15.3 C 10.71 g/m*3 15.3 C 0 km/h
2553 27-07-2010 06:51:02 15.3 C 10.71 g/m*3 15.3 C 0 km/h
2554 27-07-2010 07:03:01 15.4 C 10.64 g/m*3 15.4 C 0 km/h
2555 27-07-2010 07:15:01 15.6 C 10.77 g/m*3 15.6 C 0 km/h
2556 27-07-2010 07:27:01 15.6 C 10.51 g/m*3 15.6 C 0 km/h
2557 27-07-2010 07:39:02 15.8 C 10.63 g/m*3 15.8 C 0 km/h
2558 27-07-2010 07:51:02 16 C 10.63 g/m*3 16 C 0 km/h
2559 27-07-2010 08:03:02 16.1 C 10.55 g/m*3 16.1 C 0 km/h
2560 27-07-2010 08:15:02 16.1 C 10.55 g/m*3 16.1 C 0 km/h
2561 27-07-2010 08:27:02 16.4 C 10.75 g/m*3 16.4 C 0 km/h
2562 27-07-2010 08:39:02 16.3 C 10.54 g/m*3 16.3 C 0 km/h
2563 27-07-2010 08:51:02 16.2 C 10.62 g/m*3 16.2 C 0 km/h
2564 27-07-2010 09:03:02 16.5 C 10.67 g/m*3 16.5 C 0 km/h
2565 27-07-2010 09:15:03 16.6 C 10.59 g/m*3 16.6 C 0 km/h
2566 27-07-2010 09:27:03 16.6 C 10.45 g/m*3 16.6 C 0 km/h
2567 27-07-2010 09:39:02 17.3 C 10.61 g/m*3 17.3 C 0 km/h
2568 27-07-2010 09:51:01 17.4 C 10.37 g/m*3 17.4 C 0 km/h
2569 27-07-2010 10:03:01 18 C 10.29 g/m*3 18 C 0 km/h
2570 27-07-2010 10:15:02 17.9 C 10.23 g/m*3 17.9 C 0 km/h
2571 27-07-2010 10:27:02 18.5 C 10.28 g/m*3 18.5 C 0 km/h
2572 27-07-2010 10:39:01 19.2 C 9.89 g/m*3 19.2 C 0 km/h
2573 27-07-2010 10:51:01 19 C 9.61 g/m*3 19 C 0 km/h
2574 27-07-2010 11:03:01 19.2 C 9.73 g/m*3 19.2 C 0 km/h
2575 27-07-2010 11:15:02 19.8 C 9.74 g/m*3 19.8 C 0 km/h
Sensor: Nr:Datum:Temp:Abs-Feuchte:Windchill:Wind:
Aussen-T/F 2576 27-07-2010 11:27:02 20.4 C 9.73 g/m*3 20.4 C 0 km/h
2577 27-07-2010 11:39:01 20.5 C 9.25 g/m*3 20.5 C 0 km/h
2578 27-07-2010 11:51:02 21 C 9.34 g/m*3 21 C 0 km/h
2579 27-07-2010 12:03:02 21.8 C 9.4 g/m*3 21.8 C 0 km/h
2580 27-07-2010 12:15:02 22.5 C 8.99 g/m*3 22.5 C 0 km/h
2581 27-07-2010 12:27:02 21.8 C 8.83 g/m*3 21.8 C 0 km/h
2582 27-07-2010 12:39:02 21.6 C 9.29 g/m*3 21.6 C 0 km/h
2583 27-07-2010 12:51:02 22.7 C 8.89 g/m*3 22.7 C 0 km/h
2584 27-07-2010 13:03:02 23.5 C 8.46 g/m*3 23.5 C 0 km/h
2585 27-07-2010 13:15:01 22.7 C 7.88 g/m*3 22.7 C 0 km/h
2586 27-07-2010 13:27:01 23.1 C 8.27 g/m*3 23.1 C 0 km/h
2587 27-07-2010 13:39:02 25.5 C 7.1 g/m*3 25.5 C 0 km/h
2588 27-07-2010 13:51:02 25 C 7.6 g/m*3 25 C 0 km/h
2589 27-07-2010 14:03:02 23.8 C 7.53 g/m*3 23.8 C 0 km/h
2590 27-07-2010 14:15:01 24.4 C 7.79 g/m*3 24.4 C 0 km/h
2591 27-07-2010 14:27:01 25.2 C 7.68 g/m*3 25.2 C 0 km/h
2592 27-07-2010 14:39:02 24.4 C 7.57 g/m*3 24.4 C 0 km/h
2593 27-07-2010 14:51:01 24.3 C 7.75 g/m*3 24.3 C 0 km/h
2594 27-07-2010 15:03:02 24.3 C 7.75 g/m*3 24.3 C 0 km/h
2595 27-07-2010 15:15:02 25.6 C 7.86 g/m*3 25.6 C 0 km/h
2596 27-07-2010 15:27:02 25.4 C 7.53 g/m*3 25.4 C 0 km/h
2597 27-07-2010 15:39:01 25.7 C 7.42 g/m*3 25.7 C 0 km/h
2598 27-07-2010 15:51:02 25.9 C 7.26 g/m*3 25.9 C 0 km/h
2599 27-07-2010 16:03:01 26.6 C 7.05 g/m*3 26.6 C 0 km/h
2600 27-07-2010 16:15:02 28.5 C 7.27 g/m*3 28.5 C 0 km/h
Sensor: Nr:Datum:Temp:Abs-Feuchte:Windchill:Wind:
Aussen-T/F 2601 27-07-2010 16:27:03 28.2 C 6.87 g/m*3 28.2 C 0 km/h
2602 27-07-2010 16:39:01 28 C 6.8 g/m*3 28 C 0 km/h
2603 27-07-2010 16:51:02 28.2 C 6.05 g/m*3 28.2 C 0 km/h
2604 27-07-2010 17:03:02 28.7 C 5.93 g/m*3 28.7 C 0 km/h
2605 27-07-2010 17:15:02 29.4 C 6.16 g/m*3 29.4 C 0 km/h
2606 27-07-2010 17:27:02 28 C 5.71 g/m*3 28 C 0 km/h
2607 27-07-2010 17:39:03 28.2 C 5.77 g/m*3 28.2 C 0 km/h
2608 27-07-2010 17:51:02 27.3 C 7.33 g/m*3 27.3 C 0 km/h
2609 27-07-2010 18:03:02 26.1 C 6.37 g/m*3 26.1 C 0 km/h
2610 27-07-2010 18:15:01 25.8 C 7.46 g/m*3 25.8 C 0 km/h
2611 27-07-2010 18:27:01 24.8 C 8.19 g/m*3 24.8 C 0 km/h
2612 27-07-2010 18:39:02 24.3 C 7.97 g/m*3 24.3 C 0 km/h
2613 27-07-2010 18:51:02 24.3 C 8.19 g/m*3 24.3 C 0 km/h
2614 27-07-2010 19:03:02 24.2 C 8.58 g/m*3 24.2 C 0 km/h
2615 27-07-2010 19:15:01 23.6 C 8.72 g/m*3 23.6 C 0 km/h
2616 27-07-2010 19:27:01 23.3 C 8.78 g/m*3 23.3 C 0 km/h
2617 27-07-2010 19:39:02 23 C 8.63 g/m*3 23 C 0 km/h
2618 27-07-2010 19:51:01 23 C 8.43 g/m*3 23 C 0 km/h
2619 27-07-2010 20:03:02 22.9 C 8.38 g/m*3 22.9 C 0 km/h
2620 27-07-2010 20:15:02 22.2 C 8.25 g/m*3 22.2 C 0 km/h
2621 27-07-2010 20:27:02 21.7 C 8.2 g/m*3 21.7 C 0 km/h
2622 27-07-2010 20:39:01 21.7 C 8.58 g/m*3 21.7 C 0 km/h
2623 27-07-2010 20:51:02 21.5 C 8.49 g/m*3 21.5 C 0 km/h
2624 27-07-2010 21:03:01 21.2 C 8.52 g/m*3 21.2 C 0 km/h
2625 27-07-2010 21:15:02 21 C 8.79 g/m*3 21 C 0 km/h
Sensor: Nr:Datum:Temp:Abs-Feuchte:Windchill:Wind:
Aussen-T/F 2626 27-07-2010 21:27:03 20.4 C 8.49 g/m*3 20.4 C 0 km/h
2627 27-07-2010 21:39:01 20 C 8.47 g/m*3 20 C 0 km/h
2628 27-07-2010 21:51:03 19.7 C 9.17 g/m*3 19.7 C 0 km/h
2629 27-07-2010 22:04:04 19.7 C 9.34 g/m*3 19.7 C 0 km/h
2630 27-07-2010 22:16:04 19.3 C 9.12 g/m*3 19.3 C 0 km/h
2631 27-07-2010 22:28:04 19 C 8.8 g/m*3 19 C 0 km/h
2632 27-07-2010 22:40:05 18.8 C 9.18 g/m*3 18.8 C 0 km/h
2633 27-07-2010 22:52:05 18.8 C 9.34 g/m*3 18.8 C 0 km/h
2634 27-07-2010 23:04:05 18.6 C 9.39 g/m*3 18.6 C 0 km/h
2635 27-07-2010 23:16:05 18.4 C 9.28 g/m*3 18.4 C 0 km/h
2636 27-07-2010 23:28:05 18.4 C 9.44 g/m*3 18.4 C 0 km/h
2637 27-07-2010 23:40:05 18.4 C 9.12 g/m*3 18.4 C 0 km/h
2638 27-07-2010 23:52:05 18.4 C 9.44 g/m*3 18.4 C 0 km/h
2639 28-07-2010 00:04:05 18.5 C 9.65 g/m*3 18.5 C 0 km/h
2640 28-07-2010 00:16:05 18.5 C 9.81 g/m*3 18.5 C 0 km/h
2641 28-07-2010 00:28:05 18.3 C 9.85 g/m*3 18.3 C 0 km/h
2642 28-07-2010 00:40:05 18 C 9.83 g/m*3 18 C 0 km/h
2643 28-07-2010 00:52:05 17.7 C 9.81 g/m*3 17.7 C 0 km/h
2644 28-07-2010 01:04:05 17.5 C 9.69 g/m*3 17.5 C 0 km/h
2645 28-07-2010 01:16:05 17.3 C 9.58 g/m*3 17.3 C 0 km/h
2646 28-07-2010 01:28:05 17.2 C 9.81 g/m*3 17.2 C 0 km/h
2647 28-07-2010 01:40:05 17.1 C 10.04 g/m*3 17.1 C 0 km/h
2648 28-07-2010 01:52:05 16.7 C 10.09 g/m*3 16.7 C 0 km/h
2649 28-07-2010 02:04:05 16.9 C 10.21 g/m*3 16.9 C 0 km/h
2650 28-07-2010 02:16:05 17 C 9.98 g/m*3 17 C 0 km/h
Sensor: Nr:Datum:Temp:Abs-Feuchte:Windchill:Wind:
Aussen-T/F 2651 28-07-2010 02:28:05 16.9 C 10.36 g/m*3 16.9 C 0 km/h
2652 28-07-2010 02:40:05 17 C 10.27 g/m*3 17 C 0 km/h
2653 28-07-2010 02:52:06 17 C 10.27 g/m*3 17 C 0 km/h
2654 28-07-2010 03:04:06 17 C 10.27 g/m*3 17 C 0 km/h
2655 28-07-2010 03:16:06 17 C 10.13 g/m*3 17 C 0 km/h
2656 28-07-2010 03:28:06 17 C 10.27 g/m*3 17 C 0 km/h
2657 28-07-2010 03:40:06 17.1 C 10.48 g/m*3 17.1 C 0 km/h
2658 28-07-2010 03:52:06 17.1 C 10.48 g/m*3 17.1 C 0 km/h
2659 28-07-2010 04:04:06 17 C 10.42 g/m*3 17 C 0 km/h
2660 28-07-2010 04:16:06 17.1 C 10.48 g/m*3 17.1 C 0 km/h
2661 28-07-2010 04:28:06 17 C 10.42 g/m*3 17 C 0 km/h
2662 28-07-2010 04:40:06 16.9 C 10.5 g/m*3 16.9 C 0 km/h
2663 28-07-2010 04:52:06 16.8 C 10.58 g/m*3 16.8 C 0 km/h
2664 28-07-2010 05:04:06 16.8 C 10.58 g/m*3 16.8 C 0 km/h
2665 28-07-2010 05:16:06 16.8 C 10.58 g/m*3 16.8 C 0 km/h
2666 28-07-2010 05:28:06 16.8 C 10.58 g/m*3 16.8 C 0 km/h
2667 28-07-2010 05:40:06 16.8 C 10.58 g/m*3 16.8 C 0 km/h
2668 28-07-2010 05:52:06 17 C 10.56 g/m*3 17 C 0 km/h
2669 28-07-2010 06:04:06 17.1 C 10.48 g/m*3 17.1 C 0 km/h
2670 28-07-2010 06:16:06 17.2 C 10.54 g/m*3 17.2 C 0 km/h
2671 28-07-2010 06:28:06 17.2 C 10.54 g/m*3 17.2 C 0 km/h
2672 28-07-2010 06:40:06 16.9 C 11.08 g/m*3 16.9 C 0 km/h
2673 28-07-2010 06:52:07 16.7 C 11.37 g/m*3 16.7 C 0 km/h
2674 28-07-2010 07:04:04 16.4 C 11.58 g/m*3 16.4 C 0 km/h
2675 28-07-2010 07:16:03 16.2 C 11.86 g/m*3 16.2 C 0 km/h
Sensor: Nr:Datum:Temp:Abs-Feuchte:Windchill:Wind:
Aussen-T/F 2676 28-07-2010 07:28:03 16.3 C 12.21 g/m*3 16.3 C 0 km/h
2677 28-07-2010 07:40:04 16.3 C 12.35 g/m*3 16.3 C 0 km/h
2678 28-07-2010 07:52:01 16.4 C 12.56 g/m*3 16.4 C 0 km/h
2679 28-07-2010 08:04:02 16.5 C 12.64 g/m*3 16.5 C 0 km/h
2680 28-07-2010 08:16:02 16.6 C 12.71 g/m*3 16.6 C 0 km/h
2681 28-07-2010 08:28:02 17 C 13.02 g/m*3 17 C 0 km/h
2682 28-07-2010 08:40:01 17.6 C 13.5 g/m*3 17.6 C 0 km/h
2683 28-07-2010 08:52:02 17.8 C 13.2 g/m*3 17.8 C 0 km/h
2684 28-07-2010 09:04:01 18.1 C 12.98 g/m*3 18.1 C 0 km/h
2685 28-07-2010 09:16:02 17.9 C 12.83 g/m*3 17.9 C 0 km/h
2686 28-07-2010 09:28:02 17.4 C 12.6 g/m*3 17.4 C 0 km/h
2687 28-07-2010 09:40:01 17.1 C 12.66 g/m*3 17.1 C 0 km/h
2688 28-07-2010 09:52:02 17.3 C 12.82 g/m*3 17.3 C 0 km/h
2689 28-07-2010 10:04:02 17.3 C 12.96 g/m*3 17.3 C 0 km/h
2690 28-07-2010 10:16:02 17.6 C 13.2 g/m*3 17.6 C 0 km/h
2691 28-07-2010 10:28:02 17.6 C 13.05 g/m*3 17.6 C 0 km/h
2692 28-07-2010 10:40:02 17.9 C 13.59 g/m*3 17.9 C 0 km/h
2693 28-07-2010 10:52:01 18.1 C 13.44 g/m*3 18.1 C 0 km/h
2694 28-07-2010 11:04:02 18.8 C 14.01 g/m*3 18.8 C 0 km/h
2695 28-07-2010 11:16:01 19.7 C 13.92 g/m*3 19.7 C 0 km/h
2696 28-07-2010 11:28:01 20.6 C 13.24 g/m*3 20.6 C 0 km/h
2697 28-07-2010 11:40:01 20.7 C 13.14 g/m*3 20.7 C 0 km/h
2698 28-07-2010 11:52:01 21.5 C 13.39 g/m*3 21.5 C 0 km/h
2699 28-07-2010 12:04:01 21.3 C 13.23 g/m*3 21.3 C 0 km/h
2700 28-07-2010 12:16:02 20.8 C 12.86 g/m*3 20.8 C 0 km/h
Sensor: Nr:Datum:Temp:Abs-Feuchte:Windchill:Wind:
Aussen-T/F 2701 28-07-2010 12:28:02 21.5 C 12.82 g/m*3 21.5 C 0 km/h
2702 28-07-2010 12:40:01 21.4 C 13.12 g/m*3 21.4 C 0 km/h
2703 28-07-2010 12:52:02 21.1 C 13.08 g/m*3 21.1 C 0 km/h
2704 28-07-2010 13:04:02 21 C 12.82 g/m*3 21 C 0 km/h
2705 28-07-2010 13:16:02 21.5 C 13.39 g/m*3 21.5 C 0 km/h
2706 28-07-2010 13:28:02 24.7 C 12.9 g/m*3 24.7 C 0 km/h
2707 28-07-2010 13:40:02 25.7 C 11.25 g/m*3 25.7 C 0 km/h
2708 28-07-2010 13:52:02 25.8 C 9.87 g/m*3 25.8 C 0 km/h
2709 28-07-2010 14:04:02 24.7 C 10.41 g/m*3 24.7 C 0 km/h
2710 28-07-2010 14:16:02 25.4 C 9.89 g/m*3 25.4 C 0 km/h
2711 28-07-2010 14:28:02 25.8 C 9.15 g/m*3 25.8 C 0 km/h
2712 28-07-2010 14:40:02 26.3 C 8.66 g/m*3 26.3 C 0 km/h
2713 28-07-2010 14:52:02 26.5 C 8.26 g/m*3 26.5 C 0 km/h
2714 28-07-2010 15:04:02 26.4 C 8.21 g/m*3 26.4 C 0 km/h
2715 28-07-2010 15:16:02 26.4 C 8.46 g/m*3 26.4 C 0 km/h
2716 28-07-2010 15:28:02 25.8 C 7.46 g/m*3 25.8 C 0 km/h
2717 28-07-2010 15:40:02 25.2 C 7.22 g/m*3 25.2 C 0 km/h
2718 28-07-2010 15:52:02 26.2 C 7.14 g/m*3 26.2 C 0 km/h
2719 28-07-2010 16:04:02 27.1 C 6.73 g/m*3 27.1 C 0 km/h
2720 28-07-2010 16:16:03 27.2 C 7.29 g/m*3 27.2 C 0 km/h
2721 28-07-2010 16:28:03 27.7 C 7.22 g/m*3 27.7 C 0 km/h
2722 28-07-2010 16:40:02 28.2 C 6.87 g/m*3 28.2 C 0 km/h
2723 28-07-2010 16:52:03 28.7 C 7.06 g/m*3 28.7 C 0 km/h
2724 28-07-2010 17:04:02 28.7 C 6.78 g/m*3 28.7 C 0 km/h
2725 28-07-2010 17:16:02 29.6 C 7.12 g/m*3 29.6 C 0 km/h
Sensor: Nr:Datum:Temp:Abs-Feuchte:Windchill:Wind:
Aussen-T/F 2726 28-07-2010 17:28:02 29 C 6.61 g/m*3 29 C 0 km/h
2727 28-07-2010 17:40:02 28.9 C 6.57 g/m*3 28.9 C 0 km/h
2728 28-07-2010 17:52:02 27.8 C 6.19 g/m*3 27.8 C 0 km/h
2729 28-07-2010 18:04:01 28.4 C 6.67 g/m*3 28.4 C 0 km/h
2730 28-07-2010 18:16:02 28.2 C 6.6 g/m*3 28.2 C 0 km/h
2731 28-07-2010 18:28:02 26.2 C 6.4 g/m*3 26.2 C 0 km/h
2732 28-07-2010 18:40:02 25.6 C 6.67 g/m*3 25.6 C 0 km/h
2733 28-07-2010 18:52:01 25.3 C 7.02 g/m*3 25.3 C 0 km/h
2734 28-07-2010 19:04:02 24.5 C 8.73 g/m*3 24.5 C 0 km/h
2735 28-07-2010 19:16:01 22.6 C 9.44 g/m*3 22.6 C 0 km/h
2736 28-07-2010 19:28:01 21.7 C 10.87 g/m*3 21.7 C 0 km/h
2737 28-07-2010 19:40:01 21.8 C 10.55 g/m*3 21.8 C 0 km/h
2738 28-07-2010 19:52:01 21.9 C 10.42 g/m*3 21.9 C 0 km/h
2739 28-07-2010 20:04:02 21.9 C 10.23 g/m*3 21.9 C 0 km/h
2740 28-07-2010 20:16:01 22 C 9.9 g/m*3 22 C 0 km/h
2741 28-07-2010 20:28:01 22.1 C 9.96 g/m*3 22.1 C 0 km/h
2742 28-07-2010 20:40:02 21.6 C 10.24 g/m*3 21.6 C 0 km/h
2743 28-07-2010 20:52:02 21.3 C 10.62 g/m*3 21.3 C 0 km/h
2744 28-07-2010 21:04:02 21 C 10.44 g/m*3 21 C 0 km/h
2745 28-07-2010 21:16:02 20.8 C 10.5 g/m*3 20.8 C 0 km/h
2746 28-07-2010 21:28:02 20.7 C 10.62 g/m*3 20.7 C 0 km/h
2747 28-07-2010 21:40:02 20.4 C 10.79 g/m*3 20.4 C 0 km/h
2748 28-07-2010 21:52:02 20.1 C 10.78 g/m*3 20.1 C 0 km/h
2749 28-07-2010 22:04:02 20 C 11.06 g/m*3 20 C 0 km/h
2750 28-07-2010 22:17:02 19.8 C 11.44 g/m*3 19.8 C 0 km/h
Sensor: Nr:Datum:Temp:Abs-Feuchte:Windchill:Wind:
Aussen-T/F 2751 28-07-2010 22:29:02 19.8 C 11.1 g/m*3 19.8 C 0 km/h
2752 28-07-2010 22:41:02 19.7 C 11.38 g/m*3 19.7 C 0 km/h
2753 28-07-2010 22:53:02 19.6 C 11.31 g/m*3 19.6 C 0 km/h
2754 28-07-2010 23:05:02 19.3 C 11.78 g/m*3 19.3 C 0 km/h
2755 28-07-2010 23:17:02 18.3 C 12.98 g/m*3 18.3 C 0 km/h
2756 28-07-2010 23:29:02 18.2 C 13.37 g/m*3 18.2 C 0 km/h
2757 28-07-2010 23:41:02 18.1 C 13.44 g/m*3 18.1 C 0 km/h
2758 28-07-2010 23:53:02 18 C 13.36 g/m*3 18 C 0 km/h
2759 29-07-2010 00:05:02 17.7 C 13.43 g/m*3 17.7 C 0 km/h
2760 29-07-2010 00:17:02 17.5 C 13.27 g/m*3 17.5 C 0 km/h
2761 29-07-2010 00:29:02 17.2 C 13.03 g/m*3 17.2 C 0 km/h
2762 29-07-2010 00:41:02 16.9 C 13.09 g/m*3 16.9 C 0 km/h
2763 29-07-2010 00:53:02 16.5 C 12.78 g/m*3 16.5 C 0 km/h
2764 29-07-2010 01:05:02 16.4 C 12.84 g/m*3 16.4 C 0 km/h
2765 29-07-2010 01:17:02 16.2 C 12.69 g/m*3 16.2 C 0 km/h
2766 29-07-2010 01:29:02 16.1 C 12.61 g/m*3 16.1 C 0 km/h
2767 29-07-2010 01:41:02 15.9 C 12.59 g/m*3 15.9 C 0 km/h
2768 29-07-2010 01:53:02 15.7 C 12.44 g/m*3 15.7 C 0 km/h
2769 29-07-2010 02:05:02 15.4 C 12.22 g/m*3 15.4 C 0 km/h
2770 29-07-2010 02:17:03 15.2 C 12.07 g/m*3 15.2 C 0 km/h
2771 29-07-2010 02:29:03 15.1 C 12 g/m*3 15.1 C 0 km/h
2772 29-07-2010 02:41:03 15 C 11.93 g/m*3 15 C 0 km/h
2773 29-07-2010 02:53:03 15.1 C 12 g/m*3 15.1 C 0 km/h
2774 29-07-2010 03:05:03 15 C 11.93 g/m*3 15 C 0 km/h
2775 29-07-2010 03:17:03 14.8 C 11.91 g/m*3 14.8 C 0 km/h
Sensor: Nr:Datum:Temp:Abs-Feuchte:Windchill:Wind:
Aussen-T/F 2776 29-07-2010 03:29:03 14.7 C 11.83 g/m*3 14.7 C 0 km/h
2777 29-07-2010 03:41:03 14.6 C 11.76 g/m*3 14.6 C 0 km/h
2778 29-07-2010 03:53:03 14.7 C 11.83 g/m*3 14.7 C 0 km/h
2779 29-07-2010 04:05:03 14.6 C 11.76 g/m*3 14.6 C 0 km/h
2780 29-07-2010 04:17:03 14.4 C 11.62 g/m*3 14.4 C 0 km/h
2781 29-07-2010 04:29:03 14.3 C 11.55 g/m*3 14.3 C 0 km/h
2782 29-07-2010 04:41:03 14.6 C 11.76 g/m*3 14.6 C 0 km/h
2783 29-07-2010 04:53:03 14.3 C 11.55 g/m*3 14.3 C 0 km/h
2784 29-07-2010 05:05:03 14.1 C 11.41 g/m*3 14.1 C 0 km/h
2785 29-07-2010 05:17:03 14.1 C 11.41 g/m*3 14.1 C 0 km/h
2786 29-07-2010 05:29:03 14.4 C 11.62 g/m*3 14.4 C 0 km/h
2787 29-07-2010 05:41:03 14.7 C 11.83 g/m*3 14.7 C 0 km/h
2788 29-07-2010 05:53:03 14.4 C 11.74 g/m*3 14.4 C 0 km/h
2789 29-07-2010 06:05:03 14.5 C 11.82 g/m*3 14.5 C 0 km/h
2790 29-07-2010 06:17:03 14.6 C 11.89 g/m*3 14.6 C 0 km/h
2791 29-07-2010 06:29:04 14.7 C 11.96 g/m*3 14.7 C 0 km/h
2792 29-07-2010 06:41:04 14.7 C 11.96 g/m*3 14.7 C 0 km/h
2793 29-07-2010 06:53:04 14.6 C 11.89 g/m*3 14.6 C 0 km/h
2794 29-07-2010 07:05:02 14.7 C 11.96 g/m*3 14.7 C 0 km/h
2795 29-07-2010 07:17:02 14.8 C 12.03 g/m*3 14.8 C 0 km/h
2796 29-07-2010 07:29:02 15 C 12.05 g/m*3 15 C 0 km/h
2797 29-07-2010 07:41:02 15 C 12.18 g/m*3 15 C 0 km/h
2798 29-07-2010 07:53:02 14.9 C 12.11 g/m*3 14.9 C 0 km/h
2799 29-07-2010 08:05:02 14.8 C 12.03 g/m*3 14.8 C 0 km/h
2800 29-07-2010 08:17:02 15.2 C 12.33 g/m*3 15.2 C 0 km/h
Sensor: Nr:Datum:Temp:Abs-Feuchte:Windchill:Wind:
Aussen-T/F 2801 29-07-2010 08:29:02 15.7 C 12.71 g/m*3 15.7 C 0 km/h
2802 29-07-2010 08:41:02 15.6 C 12.63 g/m*3 15.6 C 0 km/h
2803 29-07-2010 08:53:02 15.6 C 12.63 g/m*3 15.6 C 0 km/h
2804 29-07-2010 09:05:02 15.6 C 12.5 g/m*3 15.6 C 0 km/h
2805 29-07-2010 09:17:02 15.3 C 12.14 g/m*3 15.3 C 0 km/h
2806 29-07-2010 09:29:02 15.4 C 12.22 g/m*3 15.4 C 0 km/h
2807 29-07-2010 09:41:02 15.7 C 12.31 g/m*3 15.7 C 0 km/h
2808 29-07-2010 09:53:02 15.4 C 11.96 g/m*3 15.4 C 0 km/h
2809 29-07-2010 10:05:01 15.2 C 11.68 g/m*3 15.2 C 0 km/h
2810 29-07-2010 10:17:02 15.4 C 11.82 g/m*3 15.4 C 0 km/h
2811 29-07-2010 10:29:02 15.7 C 12.04 g/m*3 15.7 C 0 km/h
2812 29-07-2010 10:41:02 15.1 C 11.48 g/m*3 15.1 C 0 km/h
2813 29-07-2010 10:53:02 14.7 C 11.33 g/m*3 14.7 C 0 km/h
2814 29-07-2010 11:05:03 14.8 C 11.53 g/m*3 14.8 C 0 km/h
2815 29-07-2010 11:17:02 13.9 C 10.91 g/m*3 13.9 C 0 km/h
2816 29-07-2010 11:29:02 14.3 C 11.18 g/m*3 14.3 C 0 km/h
2817 29-07-2010 11:41:02 15.1 C 11.74 g/m*3 15.1 C 0 km/h
2818 29-07-2010 11:53:01 15.1 C 11.74 g/m*3 15.1 C 0 km/h
2819 29-07-2010 12:05:02 16.2 C 12.41 g/m*3 16.2 C 0 km/h
2820 29-07-2010 12:17:01 17.2 C 12.89 g/m*3 17.2 C 0 km/h
2821 29-07-2010 12:29:01 17.5 C 12.82 g/m*3 17.5 C 0 km/h
2822 29-07-2010 12:41:01 17.7 C 12.52 g/m*3 17.7 C 0 km/h
2823 29-07-2010 12:53:01 17.8 C 12.29 g/m*3 17.8 C 0 km/h
2824 29-07-2010 13:05:01 18.1 C 12.05 g/m*3 18.1 C 0 km/h
2825 29-07-2010 13:17:02 19.1 C 11.97 g/m*3 19.1 C 0 km/h
Sensor: Nr:Datum:Temp:Abs-Feuchte:Windchill:Wind:
Aussen-T/F 2826 29-07-2010 13:29:02 19.9 C 11 g/m*3 19.9 C 0 km/h
2827 29-07-2010 13:41:01 18.7 C 10.25 g/m*3 18.7 C 0 km/h
2828 29-07-2010 13:53:03 16.4 C 10.19 g/m*3 16.4 C 0 km/h
2829 29-07-2010 14:05:02 16.4 C 11.03 g/m*3 16.4 C 0 km/h
2830 29-07-2010 14:17:02 16.6 C 11.16 g/m*3 16.6 C 0 km/h
2831 29-07-2010 14:29:02 17.4 C 11.12 g/m*3 17.4 C 0 km/h
2832 29-07-2010 14:41:02 19.1 C 11.31 g/m*3 19.1 C 0 km/h
2833 29-07-2010 14:53:02 19.3 C 9.79 g/m*3 19.3 C 0 km/h
2834 29-07-2010 15:05:01 19.2 C 9.73 g/m*3 19.2 C 0 km/h
2835 29-07-2010 15:17:02 19 C 9.94 g/m*3 19 C 0 km/h
2836 29-07-2010 15:29:02 17.5 C 10.59 g/m*3 17.5 C 0 km/h
2837 29-07-2010 15:41:02 17.3 C 11.05 g/m*3 17.3 C 0 km/h
2838 29-07-2010 15:53:02 18.2 C 12.28 g/m*3 18.2 C 0 km/h
2839 29-07-2010 16:05:03 19.7 C 12.57 g/m*3 19.7 C 0 km/h
2840 29-07-2010 16:17:02 21.1 C 11.61 g/m*3 21.1 C 0 km/h
2841 29-07-2010 16:29:02 21.8 C 11.13 g/m*3 21.8 C 0 km/h
2842 29-07-2010 16:41:02 18.8 C 9.66 g/m*3 18.8 C 0 km/h
2843 29-07-2010 16:53:01 16.8 C 9.72 g/m*3 16.8 C 0 km/h
2844 29-07-2010 17:05:02 16.1 C 10.01 g/m*3 16.1 C 0 km/h
2845 29-07-2010 17:17:01 16.7 C 11.37 g/m*3 16.7 C 0 km/h
2846 29-07-2010 17:29:01 17.7 C 11.92 g/m*3 17.7 C 0 km/h
2847 29-07-2010 17:41:01 17.8 C 11.38 g/m*3 17.8 C 0 km/h
2848 29-07-2010 17:53:01 17.3 C 11.2 g/m*3 17.3 C 0 km/h
2849 29-07-2010 18:05:01 17.3 C 11.05 g/m*3 17.3 C 0 km/h
2850 29-07-2010 18:17:02 17.4 C 11.12 g/m*3 17.4 C 0 km/h
Sensor: Nr:Datum:Temp:Abs-Feuchte:Windchill:Wind:
Aussen-T/F 2851 29-07-2010 18:29:02 17.8 C 11.38 g/m*3 17.8 C 0 km/h
2852 29-07-2010 18:41:01 18.1 C 11.59 g/m*3 18.1 C 0 km/h
2853 29-07-2010 18:53:03 18.5 C 11.39 g/m*3 18.5 C 0 km/h
2854 29-07-2010 19:05:02 18.1 C 10.51 g/m*3 18.1 C 0 km/h
2855 29-07-2010 19:17:02 18 C 9.52 g/m*3 18 C 0 km/h
2856 29-07-2010 19:29:02 18.5 C 9.65 g/m*3 18.5 C 0 km/h
2857 29-07-2010 19:41:02 18.7 C 9.45 g/m*3 18.7 C 0 km/h
2858 29-07-2010 19:53:02 18.4 C 9.28 g/m*3 18.4 C 0 km/h
2859 29-07-2010 20:05:02 17.9 C 9.77 g/m*3 17.9 C 0 km/h
2860 29-07-2010 20:17:02 17.7 C 9.66 g/m*3 17.7 C 0 km/h
2861 29-07-2010 20:29:02 17.7 C 9.66 g/m*3 17.7 C 0 km/h
2862 29-07-2010 20:41:02 17.5 C 9.39 g/m*3 17.5 C 0 km/h
2863 29-07-2010 20:53:02 17.2 C 9.08 g/m*3 17.2 C 0 km/h
2864 29-07-2010 21:05:02 16.8 C 9.15 g/m*3 16.8 C 0 km/h
2865 29-07-2010 21:17:02 16.1 C 9.6 g/m*3 16.1 C 0 km/h
2866 29-07-2010 21:29:02 15.9 C 10.16 g/m*3 15.9 C 0 km/h
2867 29-07-2010 21:41:01 15.8 C 10.36 g/m*3 15.8 C 0 km/h
2868 29-07-2010 21:53:02 15.6 C 10.24 g/m*3 15.6 C 0 km/h
2869 29-07-2010 22:06:03 15.6 C 10.37 g/m*3 15.6 C 0 km/h
2870 29-07-2010 22:18:03 15.6 C 9.97 g/m*3 15.6 C 0 km/h
2871 29-07-2010 22:30:03 15.7 C 9.77 g/m*3 15.7 C 0 km/h
2872 29-07-2010 22:42:03 15.7 C 9.77 g/m*3 15.7 C 0 km/h
2873 29-07-2010 22:54:03 15.7 C 9.63 g/m*3 15.7 C 0 km/h
2874 29-07-2010 23:06:03 15.7 C 9.63 g/m*3 15.7 C 0 km/h
2875 29-07-2010 23:18:03 15.8 C 9.56 g/m*3 15.8 C 0 km/h
Sensor: Nr:Datum:Temp:Abs-Feuchte:Windchill:Wind:
Aussen-T/F 2876 29-07-2010 23:30:03 15.8 C 9.56 g/m*3 15.8 C 0 km/h
2877 29-07-2010 23:42:03 15.8 C 9.56 g/m*3 15.8 C 0 km/h
2878 29-07-2010 23:54:03 15.4 C 9.72 g/m*3 15.4 C 0 km/h
2879 30-07-2010 00:06:03 15.2 C 9.73 g/m*3 15.2 C 0 km/h
2880 30-07-2010 00:18:04 15.2 C 9.86 g/m*3 15.2 C 0 km/h
2881 30-07-2010 00:30:04 15.2 C 9.86 g/m*3 15.2 C 0 km/h
2882 30-07-2010 00:42:04 15.2 C 9.86 g/m*3 15.2 C 0 km/h
2883 30-07-2010 00:54:04 15.2 C 9.86 g/m*3 15.2 C 0 km/h
2884 30-07-2010 01:06:04 15.2 C 9.86 g/m*3 15.2 C 0 km/h
2885 30-07-2010 01:18:04 15.3 C 9.92 g/m*3 15.3 C 0 km/h
2886 30-07-2010 01:30:04 15.2 C 9.86 g/m*3 15.2 C 0 km/h
2887 30-07-2010 01:42:04 15.2 C 9.86 g/m*3 15.2 C 0 km/h
2888 30-07-2010 01:54:04 15.1 C 9.8 g/m*3 15.1 C 0 km/h
2889 30-07-2010 02:06:04 15.1 C 9.8 g/m*3 15.1 C 0 km/h
2890 30-07-2010 02:18:04 14.9 C 9.94 g/m*3 14.9 C 0 km/h
2891 30-07-2010 02:30:04 14.8 C 10.01 g/m*3 14.8 C 0 km/h
2892 30-07-2010 02:42:04 14.5 C 9.83 g/m*3 14.5 C 0 km/h
2893 30-07-2010 02:54:04 14.4 C 9.89 g/m*3 14.4 C 0 km/h
2894 30-07-2010 03:06:04 14.4 C 10.01 g/m*3 14.4 C 0 km/h
2895 30-07-2010 03:18:04 14.6 C 10.26 g/m*3 14.6 C 0 km/h
2896 30-07-2010 03:30:04 14.8 C 10.39 g/m*3 14.8 C 0 km/h
2897 30-07-2010 03:42:04 14.6 C 10.26 g/m*3 14.6 C 0 km/h
2898 30-07-2010 03:54:04 14.6 C 10.26 g/m*3 14.6 C 0 km/h
2899 30-07-2010 04:06:04 14.5 C 10.32 g/m*3 14.5 C 0 km/h
2900 30-07-2010 04:18:05 14.5 C 10.32 g/m*3 14.5 C 0 km/h
Sensor: Nr:Datum:Temp:Abs-Feuchte:Windchill:Wind:
Aussen-T/F 2901 30-07-2010 04:30:05 14.4 C 10.38 g/m*3 14.4 C 0 km/h
2902 30-07-2010 04:42:05 14.3 C 10.44 g/m*3 14.3 C 0 km/h
2903 30-07-2010 04:54:05 14.4 C 10.51 g/m*3 14.4 C 0 km/h
2904 30-07-2010 05:06:05 14.6 C 10.64 g/m*3 14.6 C 0 km/h
2905 30-07-2010 05:18:05 14.7 C 10.58 g/m*3 14.7 C 0 km/h
2906 30-07-2010 05:30:05 14.7 C 10.58 g/m*3 14.7 C 0 km/h
2907 30-07-2010 05:42:05 14.7 C 10.58 g/m*3 14.7 C 0 km/h
2908 30-07-2010 05:54:05 14.8 C 10.64 g/m*3 14.8 C 0 km/h
2909 30-07-2010 06:06:05 14.8 C 10.51 g/m*3 14.8 C 0 km/h
2910 30-07-2010 06:18:02 14.7 C 10.45 g/m*3 14.7 C 0 km/h
2911 30-07-2010 06:30:02 14.7 C 10.58 g/m*3 14.7 C 0 km/h
2912 30-07-2010 06:42:03 14.8 C 10.51 g/m*3 14.8 C 0 km/h
2913 30-07-2010 06:54:02 14.8 C 10.51 g/m*3 14.8 C 0 km/h
2914 30-07-2010 07:06:02 14.9 C 10.58 g/m*3 14.9 C 0 km/h
2915 30-07-2010 07:18:02 15.1 C 10.45 g/m*3 15.1 C 0 km/h
2916 30-07-2010 07:30:02 15.3 C 10.58 g/m*3 15.3 C 0 km/h
2917 30-07-2010 07:42:02 15.2 C 10.38 g/m*3 15.2 C 0 km/h
2918 30-07-2010 07:54:02 15.4 C 10.64 g/m*3 15.4 C 0 km/h
2919 30-07-2010 08:06:02 15.6 C 10.64 g/m*3 15.6 C 0 km/h
2920 30-07-2010 08:18:02 15.8 C 10.63 g/m*3 15.8 C 0 km/h
2921 30-07-2010 08:30:02 16.2 C 10.62 g/m*3 16.2 C 0 km/h
2922 30-07-2010 08:42:01 16.6 C 10.59 g/m*3 16.6 C 0 km/h
2923 30-07-2010 08:54:02 17.2 C 10.25 g/m*3 17.2 C 0 km/h
2924 30-07-2010 09:06:01 17.3 C 9.72 g/m*3 17.3 C 0 km/h
2925 30-07-2010 09:18:01 16.7 C 9.81 g/m*3 16.7 C 0 km/h
Sensor: Nr:Datum:Temp:Abs-Feuchte:Windchill:Wind:
Aussen-T/F 2926 30-07-2010 09:30:01 16.4 C 9.91 g/m*3 16.4 C 0 km/h
2927 30-07-2010 09:42:02 17.7 C 10.11 g/m*3 17.7 C 0 km/h
2928 30-07-2010 09:54:02 18.2 C 9.33 g/m*3 18.2 C 0 km/h
2929 30-07-2010 10:06:01 18 C 9.06 g/m*3 18 C 0 km/h
2930 30-07-2010 10:18:01 19.5 C 9.06 g/m*3 19.5 C 0 km/h
2931 30-07-2010 10:30:02 19.1 C 9.02 g/m*3 19.1 C 0 km/h
2932 30-07-2010 10:42:01 18.9 C 8.91 g/m*3 18.9 C 0 km/h
2933 30-07-2010 10:54:02 19.5 C 8.89 g/m*3 19.5 C 0 km/h
2934 30-07-2010 11:06:02 19.8 C 8.71 g/m*3 19.8 C 0 km/h
2935 30-07-2010 11:18:02 21.1 C 8.66 g/m*3 21.1 C 0 km/h
2936 30-07-2010 11:30:02 22.6 C 8.64 g/m*3 22.6 C 0 km/h
2937 30-07-2010 11:42:02 23.8 C 8.17 g/m*3 23.8 C 0 km/h
2938 30-07-2010 11:54:01 22.7 C 7.27 g/m*3 22.7 C 0 km/h
2939 30-07-2010 12:06:02 21.1 C 7.74 g/m*3 21.1 C 0 km/h
2940 30-07-2010 12:18:01 21 C 8.24 g/m*3 21 C 0 km/h
2941 30-07-2010 12:30:01 21.3 C 8.39 g/m*3 21.3 C 0 km/h
2942 30-07-2010 12:42:01 21.7 C 8.97 g/m*3 21.7 C 0 km/h
2943 30-07-2010 12:54:01 22.6 C 8.24 g/m*3 22.6 C 0 km/h
2944 30-07-2010 13:06:02 24.5 C 7.61 g/m*3 24.5 C 0 km/h
2945 30-07-2010 13:18:01 26.3 C 7.43 g/m*3 26.3 C 0 km/h
2946 30-07-2010 13:30:01 24.2 C 7.26 g/m*3 24.2 C 0 km/h
2947 30-07-2010 13:42:01 22.5 C 7.39 g/m*3 22.5 C 0 km/h
2948 30-07-2010 13:54:01 22.5 C 7.59 g/m*3 22.5 C 0 km/h
2949 30-07-2010 14:06:02 23.3 C 7.32 g/m*3 23.3 C 0 km/h
2950 30-07-2010 14:18:02 24.3 C 7.52 g/m*3 24.3 C 0 km/h
Sensor: Nr:Datum:Temp:Abs-Feuchte:Windchill:Wind:
Aussen-T/F 2951 30-07-2010 14:30:02 24.7 C 7.7 g/m*3 24.7 C 0 km/h
2952 30-07-2010 14:42:01 24.8 C 7.97 g/m*3 24.8 C 0 km/h
2953 30-07-2010 14:54:02 25.3 C 7.49 g/m*3 25.3 C 0 km/h
2954 30-07-2010 15:06:01 25.7 C 7.18 g/m*3 25.7 C 0 km/h
2955 30-07-2010 15:18:02 25.5 C 7.1 g/m*3 25.5 C 0 km/h
2956 30-07-2010 15:30:02 25.4 C 7.3 g/m*3 25.4 C 0 km/h
2957 30-07-2010 15:42:01 24.8 C 7.28 g/m*3 24.8 C 0 km/h
2958 30-07-2010 15:54:03 24.3 C 6.86 g/m*3 24.3 C 0 km/h
2959 30-07-2010 16:06:02 24.8 C 7.06 g/m*3 24.8 C 0 km/h
2960 30-07-2010 16:18:02 26.4 C 6.47 g/m*3 26.4 C 0 km/h
2961 30-07-2010 16:30:03 26.4 C 6.47 g/m*3 26.4 C 0 km/h
2962 30-07-2010 16:42:02 26.5 C 6.76 g/m*3 26.5 C 0 km/h
2963 30-07-2010 16:54:02 25.6 C 6.19 g/m*3 25.6 C 0 km/h
2964 30-07-2010 17:06:01 26.9 C 6.91 g/m*3 26.9 C 0 km/h
2965 30-07-2010 17:18:02 28.3 C 6.08 g/m*3 28.3 C 0 km/h
2966 30-07-2010 17:30:02 26.9 C 6.4 g/m*3 26.9 C 0 km/h
2967 30-07-2010 17:42:02 25.8 C 6.26 g/m*3 25.8 C 0 km/h
2968 30-07-2010 17:54:02 26.2 C 6.4 g/m*3 26.2 C 0 km/h
2969 30-07-2010 18:06:02 26.6 C 6.04 g/m*3 26.6 C 0 km/h
2970 30-07-2010 18:18:02 26.2 C 6.15 g/m*3 26.2 C 0 km/h
2971 30-07-2010 18:30:02 26.5 C 6.26 g/m*3 26.5 C 0 km/h
2972 30-07-2010 18:42:02 26.8 C 5.85 g/m*3 26.8 C 0 km/h
2973 30-07-2010 18:54:01 27.9 C 5.95 g/m*3 27.9 C 0 km/h
2974 30-07-2010 19:06:02 27.9 C 6.49 g/m*3 27.9 C 0 km/h
2975 30-07-2010 19:18:01 27 C 6.69 g/m*3 27 C 0 km/h
Sensor: Nr:Datum:Temp:Abs-Feuchte:Windchill:Wind:
Aussen-T/F 2976 30-07-2010 19:30:01 25.9 C 6.54 g/m*3 25.9 C 0 km/h
2977 30-07-2010 19:42:01 24.7 C 7.02 g/m*3 24.7 C 0 km/h
2978 30-07-2010 19:54:01 24.6 C 7.88 g/m*3 24.6 C 0 km/h
2979 30-07-2010 20:06:02 23.7 C 7.49 g/m*3 23.7 C 0 km/h
2980 30-07-2010 20:18:02 23.2 C 7.28 g/m*3 23.2 C 0 km/h
2981 30-07-2010 20:30:02 22.6 C 7.43 g/m*3 22.6 C 0 km/h
2982 30-07-2010 20:42:01 21.9 C 7.72 g/m*3 21.9 C 0 km/h
2983 30-07-2010 20:54:01 21.3 C 7.64 g/m*3 21.3 C 0 km/h
2984 30-07-2010 21:06:01 20.5 C 7.65 g/m*3 20.5 C 0 km/h
2985 30-07-2010 21:18:02 20.2 C 7.87 g/m*3 20.2 C 0 km/h
2986 30-07-2010 21:30:02 19.9 C 7.73 g/m*3 19.9 C 0 km/h
2987 30-07-2010 21:42:01 19.5 C 7.72 g/m*3 19.5 C 0 km/h
2988 30-07-2010 21:54:03 19.1 C 7.54 g/m*3 19.1 C 0 km/h
2989 30-07-2010 22:07:51 18.9 C 7.45 g/m*3 18.9 C 0 km/h
2990 30-07-2010 22:19:51 18.6 C 7.32 g/m*3 18.6 C 0 km/h
2991 30-07-2010 22:31:51 18.6 C 7.32 g/m*3 18.6 C 0 km/h
2992 30-07-2010 22:43:51 18.3 C 7.66 g/m*3 18.3 C 0 km/h
2993 30-07-2010 22:55:51 18.1 C 7.57 g/m*3 18.1 C 0 km/h
2994 30-07-2010 23:07:52 17.6 C 8.4 g/m*3 17.6 C 0 km/h
2995 30-07-2010 23:19:52 17.2 C 8.35 g/m*3 17.2 C 0 km/h
2996 30-07-2010 23:31:52 17 C 8.54 g/m*3 17 C 0 km/h
2997 30-07-2010 23:43:52 16.7 C 8.81 g/m*3 16.7 C 0 km/h
2998 30-07-2010 23:55:52 16.5 C 8.57 g/m*3 16.5 C 0 km/h
2999 31-07-2010 00:07:52 16.3 C 8.74 g/m*3 16.3 C 0 km/h
3000 31-07-2010 00:19:52 16.2 C 8.69 g/m*3 16.2 C 0 km/h
Sensor: Nr:Datum:Temp:Abs-Feuchte:Windchill:Wind:
Aussen-T/F 3001 31-07-2010 00:31:52 16 C 8.58 g/m*3 16 C 0 km/h
3002 31-07-2010 00:43:52 15.6 C 8.78 g/m*3 15.6 C 0 km/h
3003 31-07-2010 00:55:52 15.5 C 8.86 g/m*3 15.5 C 0 km/h
3004 31-07-2010 01:07:52 15.3 C 8.88 g/m*3 15.3 C 0 km/h
3005 31-07-2010 01:19:52 15 C 8.85 g/m*3 15 C 0 km/h
3006 31-07-2010 01:31:52 14.8 C 8.87 g/m*3 14.8 C 0 km/h
3007 31-07-2010 01:43:52 14.6 C 8.63 g/m*3 14.6 C 0 km/h
3008 31-07-2010 01:55:52 14.5 C 8.71 g/m*3 14.5 C 0 km/h
3009 31-07-2010 02:07:52 14.3 C 8.6 g/m*3 14.3 C 0 km/h
3010 31-07-2010 02:19:52 14.2 C 8.67 g/m*3 14.2 C 0 km/h
3011 31-07-2010 02:31:52 13.9 C 8.63 g/m*3 13.9 C 0 km/h
3012 31-07-2010 02:43:52 14 C 8.68 g/m*3 14 C 0 km/h
3013 31-07-2010 02:55:52 13.8 C 8.7 g/m*3 13.8 C 0 km/h
3014 31-07-2010 03:07:52 13.6 C 8.71 g/m*3 13.6 C 0 km/h
3015 31-07-2010 03:19:53 13.4 C 8.6 g/m*3 13.4 C 0 km/h
3016 31-07-2010 03:31:53 13.4 C 8.72 g/m*3 13.4 C 0 km/h
3017 31-07-2010 03:43:53 13.2 C 8.61 g/m*3 13.2 C 0 km/h
3018 31-07-2010 03:55:53 13.1 C 8.56 g/m*3 13.1 C 0 km/h
3019 31-07-2010 04:07:53 12.9 C 8.68 g/m*3 12.9 C 0 km/h
3020 31-07-2010 04:19:53 12.8 C 8.62 g/m*3 12.8 C 0 km/h
3021 31-07-2010 04:31:53 12.7 C 8.68 g/m*3 12.7 C 0 km/h
3022 31-07-2010 04:43:53 12.6 C 8.63 g/m*3 12.6 C 0 km/h
3023 31-07-2010 04:55:53 12.5 C 8.69 g/m*3 12.5 C 0 km/h
3024 31-07-2010 05:07:53 12.4 C 8.63 g/m*3 12.4 C 0 km/h
3025 31-07-2010 05:19:53 12.4 C 8.74 g/m*3 12.4 C 0 km/h
Sensor: Nr:Datum:Temp:Abs-Feuchte:Windchill:Wind:
Aussen-T/F 3026 31-07-2010 05:31:53 12.2 C 8.63 g/m*3 12.2 C 0 km/h
3027 31-07-2010 05:43:53 12.2 C 8.63 g/m*3 12.2 C 0 km/h
3028 31-07-2010 05:55:53 12.1 C 8.69 g/m*3 12.1 C 0 km/h
3029 31-07-2010 06:07:53 12.1 C 8.79 g/m*3 12.1 C 0 km/h
3030 31-07-2010 06:19:53 12 C 8.74 g/m*3 12 C 0 km/h
3031 31-07-2010 06:31:53 11.9 C 8.79 g/m*3 11.9 C 0 km/h
3032 31-07-2010 06:43:53 12 C 8.74 g/m*3 12 C 0 km/h
3033 31-07-2010 06:55:53 12.1 C 8.79 g/m*3 12.1 C 0 km/h
3034 31-07-2010 07:07:53 12.1 C 8.9 g/m*3 12.1 C 0 km/h
3035 31-07-2010 07:19:54 12.3 C 9.01 g/m*3 12.3 C 0 km/h
3036 31-07-2010 07:31:54 12.7 C 9.24 g/m*3 12.7 C 0 km/h
3037 31-07-2010 07:43:54 12.9 C 9.24 g/m*3 12.9 C 0 km/h
3038 31-07-2010 07:55:54 13 C 9.19 g/m*3 13 C 0 km/h
3039 31-07-2010 08:07:54 13.1 C 9.24 g/m*3 13.1 C 0 km/h
3040 31-07-2010 08:19:54 13.5 C 9.36 g/m*3 13.5 C 0 km/h
3041 31-07-2010 08:31:54 14.1 C 9.34 g/m*3 14.1 C 0 km/h
3042 31-07-2010 08:43:54 14.1 C 9.1 g/m*3 14.1 C 0 km/h
3043 31-07-2010 08:55:02 14.4 C 9.27 g/m*3 14.4 C 0 km/h
3044 31-07-2010 09:07:02 15.1 C 9.55 g/m*3 15.1 C 0 km/h
3045 31-07-2010 09:19:01 15.6 C 9.58 g/m*3 15.6 C 0 km/h
3046 31-07-2010 09:31:02 16 C 9.4 g/m*3 16 C 0 km/h
3047 31-07-2010 09:43:02 17.2 C 9.67 g/m*3 17.2 C 0 km/h
3048 31-07-2010 09:55:02 17.9 C 9.47 g/m*3 17.9 C 0 km/h
3049 31-07-2010 10:07:02 19.7 C 9.51 g/m*3 19.7 C 0 km/h
3050 31-07-2010 10:19:02 21.2 C 9.45 g/m*3 21.2 C 0 km/h
Sensor: Nr:Datum:Temp:Abs-Feuchte:Windchill:Wind:
Aussen-T/F 3051 31-07-2010 10:31:02 22.5 C 9.19 g/m*3 22.5 C 0 km/h
3052 31-07-2010 10:43:02 23.3 C 8.57 g/m*3 23.3 C 0 km/h
3053 31-07-2010 10:55:01 23.3 C 8.15 g/m*3 23.3 C 0 km/h
3054 31-07-2010 11:07:01 23.6 C 7.66 g/m*3 23.6 C 0 km/h
3055 31-07-2010 11:19:01 23.5 C 7.4 g/m*3 23.5 C 0 km/h
3056 31-07-2010 11:31:01 23.2 C 7.28 g/m*3 23.2 C 0 km/h
3057 31-07-2010 11:43:01 23.5 C 7.4 g/m*3 23.5 C 0 km/h
3058 31-07-2010 11:55:01 23.6 C 7.44 g/m*3 23.6 C 0 km/h
3059 31-07-2010 12:07:01 23.6 C 7.02 g/m*3 23.6 C 0 km/h
3060 31-07-2010 12:19:02 23.7 C 6.84 g/m*3 23.7 C 0 km/h
3061 31-07-2010 12:31:01 24.4 C 6.9 g/m*3 24.4 C 0 km/h
3062 31-07-2010 12:43:01 24.4 C 6.68 g/m*3 24.4 C 0 km/h
3063 31-07-2010 12:55:02 24.5 C 6.71 g/m*3 24.5 C 0 km/h
3064 31-07-2010 13:07:02 25.2 C 6.29 g/m*3 25.2 C 0 km/h
3065 31-07-2010 13:19:02 25.3 C 6.55 g/m*3 25.3 C 0 km/h
3066 31-07-2010 13:31:03 25.4 C 6.59 g/m*3 25.4 C 0 km/h
3067 31-07-2010 13:43:03 25.8 C 6.74 g/m*3 25.8 C 0 km/h
3068 31-07-2010 13:55:02 26.1 C 6.61 g/m*3 26.1 C 0 km/h
3069 31-07-2010 14:07:02 26.8 C 6.36 g/m*3 26.8 C 0 km/h
3070 31-07-2010 14:19:02 26.3 C 6.44 g/m*3 26.3 C 0 km/h
3071 31-07-2010 14:31:02 27 C 6.69 g/m*3 27 C 0 km/h
3072 31-07-2010 14:43:02 26.9 C 6.91 g/m*3 26.9 C 0 km/h
3073 31-07-2010 14:55:02 27.2 C 6.77 g/m*3 27.2 C 0 km/h
3074 31-07-2010 15:07:02 27.1 C 6.73 g/m*3 27.1 C 0 km/h
3075 31-07-2010 15:19:02 27.9 C 6.76 g/m*3 27.9 C 0 km/h
Sensor: Nr:Datum:Temp:Abs-Feuchte:Windchill:Wind:
Aussen-T/F 3076 31-07-2010 15:31:02 28.1 C 5.74 g/m*3 28.1 C 0 km/h
3077 31-07-2010 15:43:02 27.7 C 6.15 g/m*3 27.7 C 0 km/h
3078 31-07-2010 15:55:01 28.6 C 6.18 g/m*3 28.6 C 0 km/h
3079 31-07-2010 16:07:01 29.3 C 6.13 g/m*3 29.3 C 0 km/h
3080 31-07-2010 16:19:02 28.9 C 6 g/m*3 28.9 C 0 km/h
3081 31-07-2010 16:31:01 29.4 C 5.87 g/m*3 29.4 C 0 km/h
3082 31-07-2010 16:43:01 30.1 C 6.1 g/m*3 30.1 C 0 km/h
3083 31-07-2010 16:55:01 29.5 C 5.9 g/m*3 29.5 C 0 km/h
3084 31-07-2010 17:07:01 29 C 5.74 g/m*3 29 C 0 km/h
3085 31-07-2010 17:19:02 30.1 C 6.1 g/m*3 30.1 C 0 km/h
3086 31-07-2010 17:31:01 30 C 6.06 g/m*3 30 C 0 km/h
3087 31-07-2010 17:43:01 30 C 6.06 g/m*3 30 C 0 km/h
3088 31-07-2010 17:55:02 30.1 C 6.1 g/m*3 30.1 C 0 km/h
3089 31-07-2010 18:07:02 30.2 C 6.13 g/m*3 30.2 C 0 km/h
3090 31-07-2010 18:19:02 30.1 C 6.1 g/m*3 30.1 C 0 km/h
3091 31-07-2010 18:31:02 29.9 C 6.03 g/m*3 29.9 C 0 km/h
3092 31-07-2010 18:43:02 29.6 C 5.94 g/m*3 29.6 C 0 km/h
3093 31-07-2010 18:55:02 29.5 C 6.2 g/m*3 29.5 C 0 km/h
3094 31-07-2010 19:07:02 29.9 C 6.33 g/m*3 29.9 C 0 km/h
3095 31-07-2010 19:19:02 29 C 6.61 g/m*3 29 C 0 km/h
3096 31-07-2010 19:31:02 27.6 C 7.45 g/m*3 27.6 C 0 km/h
3097 31-07-2010 19:43:02 26.8 C 7.89 g/m*3 26.8 C 0 km/h
3098 31-07-2010 19:55:02 26.1 C 7.59 g/m*3 26.1 C 0 km/h
3099 31-07-2010 20:07:02 25.6 C 8.09 g/m*3 25.6 C 0 km/h
3100 31-07-2010 20:19:02 25.2 C 7.92 g/m*3 25.2 C 0 km/h
Sensor: Nr:Datum:Temp:Abs-Feuchte:Windchill:Wind:
Aussen-T/F 3101 31-07-2010 20:31:02 24.5 C 8.28 g/m*3 24.5 C 0 km/h
3102 31-07-2010 20:43:02 24 C 8.27 g/m*3 24 C 0 km/h
3103 31-07-2010 20:55:02 23.7 C 8.34 g/m*3 23.7 C 0 km/h
3104 31-07-2010 21:07:02 23.3 C 8.36 g/m*3 23.3 C 0 km/h
3105 31-07-2010 21:19:02 23.1 C 8.27 g/m*3 23.1 C 0 km/h
3106 31-07-2010 21:31:02 23.1 C 8.27 g/m*3 23.1 C 0 km/h
3107 31-07-2010 21:43:02 23 C 8.43 g/m*3 23 C 0 km/h
3108 31-07-2010 21:55:01 22.7 C 8.69 g/m*3 22.7 C 0 km/h
3109 31-07-2010 22:07:01 22.5 C 8.99 g/m*3 22.5 C 0 km/h
3110 31-07-2010 22:19:01 22.2 C 8.83 g/m*3 22.2 C 0 km/h
3111 31-07-2010 22:31:01 22.2 C 8.64 g/m*3 22.2 C 0 km/h
3112 31-07-2010 22:43:01 22.4 C 8.74 g/m*3 22.4 C 0 km/h
3113 31-07-2010 22:55:02 20.8 C 10.5 g/m*3 20.8 C 0 km/h
3114 31-07-2010 23:07:02 19.9 C 12.03 g/m*3 19.9 C 0 km/h
3115 31-07-2010 23:19:02 20.3 C 11.78 g/m*3 20.3 C 0 km/h
3116 31-07-2010 23:31:02 20.7 C 11.88 g/m*3 20.7 C 0 km/h
3117 31-07-2010 23:43:02 20.8 C 11.59 g/m*3 20.8 C 0 km/h
3118 31-07-2010 23:55:01 20.8 C 11.41 g/m*3 20.8 C 0 km/h
3119 01-08-2010 00:07:02 19.5 C 11.92 g/m*3 19.5 C 0 km/h
3120 01-08-2010 00:20:02 19.3 C 12.44 g/m*3 19.3 C 0 km/h
3121 01-08-2010 00:32:02 19.6 C 12.66 g/m*3 19.6 C 0 km/h
3122 01-08-2010 00:44:02 19.5 C 12.42 g/m*3 19.5 C 0 km/h
3123 01-08-2010 00:56:02 19.1 C 12.46 g/m*3 19.1 C 0 km/h
3124 01-08-2010 01:08:02 18.3 C 12.66 g/m*3 18.3 C 0 km/h
3125 01-08-2010 01:20:02 18.1 C 12.98 g/m*3 18.1 C 0 km/h
Sensor: Nr:Datum:Temp:Abs-Feuchte:Windchill:Wind:
Aussen-T/F 3126 01-08-2010 01:32:02 18.3 C 13.29 g/m*3 18.3 C 0 km/h
3127 01-08-2010 01:44:02 18.5 C 13.45 g/m*3 18.5 C 0 km/h
3128 01-08-2010 01:56:02 18.1 C 13.13 g/m*3 18.1 C 0 km/h
3129 01-08-2010 02:08:02 18.1 C 13.29 g/m*3 18.1 C 0 km/h
3130 01-08-2010 02:20:02 18.2 C 13.52 g/m*3 18.2 C 0 km/h
3131 01-08-2010 02:32:02 18.1 C 13.29 g/m*3 18.1 C 0 km/h
3132 01-08-2010 02:44:02 18.2 C 13.52 g/m*3 18.2 C 0 km/h
3133 01-08-2010 02:56:03 17.9 C 13.28 g/m*3 17.9 C 0 km/h
3134 01-08-2010 03:08:03 18 C 13.21 g/m*3 18 C 0 km/h
3135 01-08-2010 03:20:03 18 C 13.21 g/m*3 18 C 0 km/h
3136 01-08-2010 03:32:03 18 C 13.21 g/m*3 18 C 0 km/h
3137 01-08-2010 03:44:03 17.9 C 13.13 g/m*3 17.9 C 0 km/h
3138 01-08-2010 03:56:03 18 C 13.06 g/m*3 18 C 0 km/h
3139 01-08-2010 04:08:03 17.9 C 12.98 g/m*3 17.9 C 0 km/h
3140 01-08-2010 04:20:03 17.9 C 12.98 g/m*3 17.9 C 0 km/h
3141 01-08-2010 04:32:03 17.8 C 12.9 g/m*3 17.8 C 0 km/h
3142 01-08-2010 04:44:03 17.8 C 12.9 g/m*3 17.8 C 0 km/h
3143 01-08-2010 04:56:03 17.8 C 12.9 g/m*3 17.8 C 0 km/h
3144 01-08-2010 05:08:03 18 C 12.9 g/m*3 18 C 0 km/h
3145 01-08-2010 05:20:03 18 C 12.75 g/m*3 18 C 0 km/h
3146 01-08-2010 05:32:03 17.8 C 12.75 g/m*3 17.8 C 0 km/h
3147 01-08-2010 05:44:03 17.6 C 12.75 g/m*3 17.6 C 0 km/h
3148 01-08-2010 05:56:03 17.2 C 12.74 g/m*3 17.2 C 0 km/h
3149 01-08-2010 06:08:04 17.3 C 12.96 g/m*3 17.3 C 0 km/h
3150 01-08-2010 06:20:04 17.2 C 12.89 g/m*3 17.2 C 0 km/h
Sensor: Nr:Datum:Temp:Abs-Feuchte:Windchill:Wind:
Aussen-T/F 3151 01-08-2010 06:32:04 17.3 C 13.11 g/m*3 17.3 C 0 km/h
3152 01-08-2010 06:44:04 17.6 C 13.35 g/m*3 17.6 C 0 km/h
3153 01-08-2010 06:56:04 17.7 C 13.43 g/m*3 17.7 C 0 km/h
3154 01-08-2010 07:08:04 17.9 C 13.59 g/m*3 17.9 C 0 km/h
3155 01-08-2010 07:20:04 18.1 C 13.6 g/m*3 18.1 C 0 km/h
3156 01-08-2010 07:32:04 18.4 C 13.84 g/m*3 18.4 C 0 km/h
3157 01-08-2010 07:44:04 18.4 C 13.68 g/m*3 18.4 C 0 km/h
3158 01-08-2010 07:56:04 18.9 C 13.93 g/m*3 18.9 C 0 km/h
3159 01-08-2010 08:08:04 19.2 C 13.85 g/m*3 19.2 C 0 km/h
3160 01-08-2010 08:20:04 19.5 C 13.93 g/m*3 19.5 C 0 km/h
3161 01-08-2010 08:32:04 19.6 C 13.84 g/m*3 19.6 C 0 km/h
3162 01-08-2010 08:44:04 20 C 13.65 g/m*3 20 C 0 km/h
3163 01-08-2010 08:56:04 20.1 C 13.56 g/m*3 20.1 C 0 km/h
3164 01-08-2010 09:08:03 20.2 C 13.46 g/m*3 20.2 C 0 km/h
3165 01-08-2010 09:20:02 20.9 C 13.84 g/m*3 20.9 C 0 km/h
3166 01-08-2010 09:32:03 21.1 C 13.63 g/m*3 21.1 C 0 km/h
3167 01-08-2010 09:44:03 21 C 13.37 g/m*3 21 C 0 km/h
3168 01-08-2010 09:56:01 21.1 C 13.45 g/m*3 21.1 C 0 km/h
3169 01-08-2010 10:08:02 21.2 C 13.53 g/m*3 21.2 C 0 km/h
3170 01-08-2010 10:20:02 21.5 C 13.77 g/m*3 21.5 C 0 km/h
3171 01-08-2010 10:32:01 21.6 C 13.66 g/m*3 21.6 C 0 km/h
3172 01-08-2010 10:44:01 22.2 C 13.35 g/m*3 22.2 C 0 km/h
3173 01-08-2010 10:56:03 23.2 C 13.51 g/m*3 23.2 C 0 km/h
3174 01-08-2010 11:08:03 23.3 C 13.38 g/m*3 23.3 C 0 km/h
3175 01-08-2010 11:20:02 23.6 C 12.97 g/m*3 23.6 C 0 km/h
Sensor: Nr:Datum:Temp:Abs-Feuchte:Windchill:Wind:
Aussen-T/F 3176 01-08-2010 11:32:02 24.3 C 13.06 g/m*3 24.3 C 0 km/h
3177 01-08-2010 11:44:02 24.5 C 12.98 g/m*3 24.5 C 0 km/h
3178 01-08-2010 11:56:02 24.6 C 12.15 g/m*3 24.6 C 0 km/h
3179 01-08-2010 12:08:02 24.8 C 12.29 g/m*3 24.8 C 0 km/h
3180 01-08-2010 12:20:01 24.6 C 10.13 g/m*3 24.6 C 0 km/h
3181 01-08-2010 12:32:02 25.3 C 10.77 g/m*3 25.3 C 0 km/h
3182 01-08-2010 12:44:02 25.9 C 10.17 g/m*3 25.9 C 0 km/h
3183 01-08-2010 12:56:02 26.7 C 10.12 g/m*3 26.7 C 0 km/h
3184 01-08-2010 13:08:02 27 C 9.52 g/m*3 27 C 0 km/h
3185 01-08-2010 13:20:02 26.8 C 9.42 g/m*3 26.8 C 0 km/h
3186 01-08-2010 13:32:02 27.6 C 9.58 g/m*3 27.6 C 0 km/h
3187 01-08-2010 13:44:02 28.8 C 9.94 g/m*3 28.8 C 0 km/h
3188 01-08-2010 13:56:02 29 C 8.62 g/m*3 29 C 0 km/h
3189 01-08-2010 14:08:02 29.4 C 8.81 g/m*3 29.4 C 0 km/h
3190 01-08-2010 14:20:02 28.6 C 8.15 g/m*3 28.6 C 0 km/h
3191 01-08-2010 14:32:02 28.6 C 7.87 g/m*3 28.6 C 0 km/h
3192 01-08-2010 14:44:02 29.4 C 7.63 g/m*3 29.4 C 0 km/h
3193 01-08-2010 14:56:02 29.1 C 7.22 g/m*3 29.1 C 0 km/h
3194 01-08-2010 15:08:02 29 C 7.47 g/m*3 29 C 0 km/h
3195 01-08-2010 15:20:02 30 C 7.28 g/m*3 30 C 0 km/h
3196 01-08-2010 15:32:02 30 C 6.97 g/m*3 30 C 0 km/h
3197 01-08-2010 15:44:02 30.2 C 7.36 g/m*3 30.2 C 0 km/h
3198 01-08-2010 15:56:02 31 C 7.04 g/m*3 31 C 0 km/h
3199 01-08-2010 16:08:01 30.9 C 6.68 g/m*3 30.9 C 0 km/h
3200 01-08-2010 16:20:02 30.7 C 6.93 g/m*3 30.7 C 0 km/h
Sensor: Nr:Datum:Temp:Abs-Feuchte:Windchill:Wind:
Aussen-T/F 3201 01-08-2010 16:32:02 30.2 C 7.36 g/m*3 30.2 C 0 km/h
3202 01-08-2010 16:44:02 30.6 C 7.2 g/m*3 30.6 C 0 km/h
3203 01-08-2010 16:56:01 30.9 C 7.32 g/m*3 30.9 C 0 km/h
3204 01-08-2010 17:08:02 31 C 6.72 g/m*3 31 C 0 km/h
3205 01-08-2010 17:20:01 30.7 C 7.24 g/m*3 30.7 C 0 km/h
3206 01-08-2010 17:32:01 30 C 7.58 g/m*3 30 C 0 km/h
3207 01-08-2010 17:44:02 29.3 C 7.88 g/m*3 29.3 C 0 km/h
3208 01-08-2010 17:56:02 29.5 C 7.67 g/m*3 29.5 C 0 km/h
3209 01-08-2010 18:08:02 29 C 7.47 g/m*3 29 C 0 km/h
3210 01-08-2010 18:20:02 29.4 C 7.93 g/m*3 29.4 C 0 km/h
3211 01-08-2010 18:32:02 28.7 C 7.63 g/m*3 28.7 C 0 km/h
3212 01-08-2010 18:44:02 27.6 C 9.31 g/m*3 27.6 C 0 km/h
3213 01-08-2010 18:56:02 27.1 C 9.32 g/m*3 27.1 C 0 km/h
3214 01-08-2010 19:08:02 26.8 C 9.42 g/m*3 26.8 C 0 km/h
3215 01-08-2010 19:20:02 26.4 C 9.21 g/m*3 26.4 C 0 km/h
3216 01-08-2010 19:32:02 25.5 C 9.47 g/m*3 25.5 C 0 km/h
3217 01-08-2010 19:44:02 25.3 C 9.6 g/m*3 25.3 C 0 km/h
3218 01-08-2010 19:56:01 25.4 C 9.65 g/m*3 25.4 C 0 km/h
3219 01-08-2010 20:08:01 25.2 C 9.78 g/m*3 25.2 C 0 km/h
3220 01-08-2010 20:20:02 24.8 C 10.02 g/m*3 24.8 C 0 km/h
3221 01-08-2010 20:32:01 24.5 C 10.3 g/m*3 24.5 C 0 km/h
3222 01-08-2010 20:44:01 24.4 C 10.46 g/m*3 24.4 C 0 km/h
3223 01-08-2010 20:56:03 24.3 C 10.62 g/m*3 24.3 C 0 km/h
3224 01-08-2010 21:08:02 23.7 C 9.84 g/m*3 23.7 C 0 km/h
3225 01-08-2010 21:20:02 23.6 C 10 g/m*3 23.6 C 0 km/h
Sensor: Nr:Datum:Temp:Abs-Feuchte:Windchill:Wind:
Aussen-T/F 3226 01-08-2010 21:32:03 23.3 C 10.04 g/m*3 23.3 C 0 km/h
3227 01-08-2010 21:44:03 22.7 C 9.7 g/m*3 22.7 C 0 km/